Provisional Data: Chemung River at West Elmira, NY


Please select a monitoring station.
Please select start date.
Please select start date.

Toggle Unit: C/F Toggle Unit: C/F
Sample Time Temperature (C) Temperature (F) Specific Conductivity (mS/cm) pH   Turbidity (NTU+) DO (mg/L)
1/12/2021 12:00:00 AM 0.89 33.602 0.201 7.51 38.52 14.13
1/12/2021 12:15:00 AM 0.89 33.602 0.199 7.51 36.38 14.12
1/12/2021 12:30:00 AM 0.9 33.62 0.195 7.51 37.69 14.1
1/12/2021 12:45:00 AM 0.9 33.62 0.196 7.51 38.23 14.11
1/12/2021 1:00:00 AM 0.9 33.62 0.197 7.51 37.29 14.1
1/12/2021 1:15:00 AM 0.91 33.638 0.193 7.51 37.15 14.1
1/12/2021 1:30:00 AM 0.92 33.656 0.192 7.51 38.88 14.1
1/12/2021 1:45:00 AM 0.93 33.674 0.193 7.51 38.76 14.08
1/12/2021 2:00:00 AM 0.94 33.692 0.196 7.5 37.46 14.07
1/12/2021 2:15:00 AM 0.95 33.71 0.196 7.5 37.63 14.06
1/12/2021 2:30:00 AM 0.96 33.728 0.194 7.5 36.55 14.06
1/12/2021 2:45:00 AM 0.97 33.746 0.194 7.5 38.4 14.07
1/12/2021 3:00:00 AM 0.97 33.746 0.195 7.5 36.88 14.06
1/12/2021 3:15:00 AM 0.98 33.764 0.197 7.5 38.78 14.04
1/12/2021 3:30:00 AM 0.99 33.782 0.198 7.5 37.89 14.04
1/12/2021 3:45:00 AM 0.99 33.782 0.198 7.5 38.84 14.04
1/12/2021 4:00:00 AM 0.99 33.782 0.198 7.5 38.09 14.02
1/12/2021 4:15:00 AM 0.99 33.782 0.199 7.5 38.1 14.03
1/12/2021 4:30:00 AM 0.99 33.782 0.199 7.5 38.71 14.03
1/12/2021 4:45:00 AM 1 33.8 0.203 7.5 38.49 14.01
1/12/2021 5:00:00 AM 1 33.8 0.201 7.5 39.97 14.01
1/12/2021 5:15:00 AM 1 33.8 0.201 7.49 39.49 14.01
1/12/2021 5:30:00 AM 1 33.8 0.198 7.5 39.65 14.02
1/12/2021 5:45:00 AM 1 33.8 0.202 7.49 39.76 14.01
1/12/2021 6:00:00 AM 1 33.8 0.202 7.49 36.94 13.99
1/12/2021 6:15:00 AM 1 33.8 0.205 7.49 39.79 14
1/12/2021 6:30:00 AM 1 33.8 0.2 7.49 38.5 13.99
1/12/2021 6:45:00 AM 1 33.8 0.202 7.49 39.67 13.98
1/12/2021 7:00:00 AM 1 33.8 0.202 7.49 39.51 13.98
1/12/2021 7:15:00 AM 0.99 33.782 0.201 7.49 37.99 13.99
1/12/2021 7:30:00 AM 0.99 33.782 0.203 7.49 42.02 13.98
1/12/2021 7:45:00 AM 0.99 33.782 0.203 7.49 39.45 13.99
1/12/2021 8:00:00 AM 0.99 33.782 0.198 7.49 39.32 13.98
1/12/2021 8:15:00 AM 0.99 33.782 0.199 7.49 39.9 13.98
1/12/2021 8:30:00 AM 1 33.8 0.203 7.49 39.55 13.99
1/12/2021 8:45:00 AM 1.01 33.818 0.202 7.49 39.07 13.99
1/12/2021 9:00:00 AM 1.02 33.836 0.198 7.49 38.82 13.99
1/12/2021 9:15:00 AM 1.03 33.854 0.201 7.49 38.47 13.99
1/12/2021 9:30:00 AM 1.05 33.89 0.201 7.49 38.37 14
1/12/2021 9:45:00 AM 1.07 33.926 0.202 7.5 39.68 14
1/12/2021 10:00:00 AM 1.08 33.944 0.203 7.5 39.21 13.99
1/12/2021 10:15:00 AM 1.11 33.998 0.205 7.49 39.76 13.98
1/12/2021 10:30:00 AM 1.14 34.052 0.206 7.5 38.24 14
1/12/2021 10:45:00 AM 1.17 34.106 0.207 7.5 38.84 14
1/12/2021 11:00:00 AM 1.2 34.16 0.208 7.5 39.65 14
1/12/2021 11:15:00 AM 1.23 34.214 0.206 7.5 39.93 14
1/12/2021 11:30:00 AM 1.27 34.286 0.207 7.51 40.35 14.02
1/12/2021 11:45:00 AM 1.3 34.34 0.209 7.51 39.85 14.01
1/12/2021 12:00:00 PM 1.34 34.412 0.207 7.51 39.29 14.01
1/12/2021 12:15:00 PM 1.38 34.484 0.208 7.51 38.38 14
1/12/2021 12:30:00 PM 1.41 34.538 0.21 7.51 39.65 14.01
1/12/2021 12:45:00 PM 1.45 34.61 0.21 7.52 41.72 14.01
1/12/2021 1:00:00 PM 1.48 34.664 0.211 7.52 39.4 14
1/12/2021 1:15:00 PM 1.52 34.736 0.21 7.52 41.02 14.02
1/12/2021 1:30:00 PM 1.55 34.79 0.21 7.52 40.33 14.02
1/12/2021 1:45:00 PM 1.57 34.826 0.209 7.52 40.34 14.01
1/12/2021 2:00:00 PM 1.59 34.862 0.211 7.52 41.2 14
1/12/2021 2:15:00 PM 1.6 34.88 0.212 7.53 39.32 14.01
1/12/2021 2:30:00 PM 1.62 34.916 0.213 7.53 39.52 14.02
1/12/2021 2:45:00 PM 1.63 34.934 0.212 7.53 39.33 14.01
1/12/2021 3:00:00 PM 1.64 34.952 0.215 7.53 38.96 14
1/12/2021 3:15:00 PM 1.64 34.952 0.215 7.53 43.03 13.99
1/12/2021 3:30:00 PM 1.64 34.952 0.213 7.53 40.12 13.99
1/12/2021 3:45:00 PM 1.64 34.952 0.213 7.53 40.14 13.99
1/12/2021 4:00:00 PM 1.64 34.952 0.214 7.54 38.76 13.97
1/12/2021 4:15:00 PM 1.64 34.952 0.213 7.54 40.51 13.97
1/12/2021 4:30:00 PM 1.64 34.952 0.212 7.53 39.96 13.97
1/12/2021 4:45:00 PM 1.63 34.934 0.214 7.54 38.92 13.97
1/12/2021 5:00:00 PM 1.63 34.934 0.216 7.54 39.34 13.95
1/12/2021 5:15:00 PM 1.62 34.916 0.217 7.54 39.76 13.96
1/12/2021 5:30:00 PM 1.61 34.898 0.216 7.54 40.6 13.94
1/12/2021 5:45:00 PM 1.61 34.898 0.218 7.54 40.38 13.92
1/12/2021 6:00:00 PM 1.6 34.88 0.22 7.54 39.65 13.94
1/12/2021 6:15:00 PM 1.6 34.88 0.22 7.54 40.31 13.92
1/12/2021 6:30:00 PM 1.59 34.862 0.221 7.54 38.89 13.92
1/12/2021 6:45:00 PM 1.59 34.862 0.223 7.54 41.56 13.92
1/12/2021 7:00:00 PM 1.58 34.844 0.222 7.54 40.78 13.89
1/12/2021 7:15:00 PM 1.58 34.844 0.223 7.54 40.96 13.88
1/12/2021 7:30:00 PM 1.57 34.826 0.224 7.54 39.2 13.83
1/12/2021 7:45:00 PM 1.57 34.826 0.226 7.54 39.9 13.8
1/12/2021 8:00:00 PM 1.57 34.826 0.229 7.54 51.99 13.85
1/12/2021 8:15:00 PM 1.56 34.808 0.226 7.54 52.55 13.86
1/12/2021 8:30:00 PM 1.56 34.808 0.228 7.54 41.28 13.86
1/12/2021 8:45:00 PM 1.56 34.808 0.228 7.54 46.56 13.72
1/12/2021 9:00:00 PM 1.56 34.808 0.224 7.54 43.28 13.73
1/12/2021 9:15:00 PM 1.56 34.808 0.224 7.54 37.13 13.85
1/12/2021 9:30:00 PM 1.56 34.808 0.225 7.54 38.99 13.8
1/12/2021 9:45:00 PM 1.56 34.808 0.225 7.54 38.41 13.82
1/12/2021 10:00:00 PM 1.56 34.808 0.221 7.54 37.18 13.82
1/12/2021 10:15:00 PM 1.56 34.808 0.219 7.54 39.11 13.83
1/12/2021 10:30:00 PM 1.56 34.808 0.221 7.54 37.72 13.83
1/12/2021 10:45:00 PM 1.56 34.808 0.224 7.54 41.03 13.66
1/12/2021 11:00:00 PM 1.57 34.826 0.223 7.54 37.27 13.74
1/12/2021 11:15:00 PM 1.57 34.826 0.222 7.54 48.12 13.62
1/12/2021 11:30:00 PM 1.57 34.826 0.221 7.53 40.03 13.79
1/12/2021 11:45:00 PM 1.56 34.808 0.221 7.54 39.82 13.8
1/13/2021 12:00:00 AM 1.57 34.826 0.222 7.53 41.39 13.76
1/13/2021 12:15:00 AM 1.56 34.808 0.221 7.53 40.35 13.71
1/13/2021 12:30:00 AM 1.56 34.808 0.223 7.53 39.22 13.77
1/13/2021 12:45:00 AM 1.56 34.808 0.222 7.53 39.12 13.74
1/13/2021 1:00:00 AM 1.56 34.808 0.225 7.53 38.93 13.76
1/13/2021 1:15:00 AM 1.55 34.79 0.223 7.53 39.39 13.64
1/13/2021 1:30:00 AM 1.55 34.79 0.224 7.53 40.65 13.69
1/13/2021 1:45:00 AM 1.55 34.79 0.224 7.53 44.17 13.77
1/13/2021 2:00:00 AM 1.54 34.772 0.223 7.53 40.09 13.78
1/13/2021 2:15:00 AM 1.54 34.772 0.224 7.53 37.23 13.6
1/13/2021 2:30:00 AM 1.54 34.772 0.223 7.53 38.14 13.71
1/13/2021 2:45:00 AM 1.54 34.772 0.223 7.53 39.41 13.68
1/13/2021 3:00:00 AM 1.53 34.754 0.223 7.53 40 13.64
1/13/2021 3:15:00 AM 1.53 34.754 0.222 7.53 37.76 13.52
1/13/2021 3:30:00 AM 1.52 34.736 0.222 7.53 48.84 13.7
1/13/2021 3:45:00 AM 1.52 34.736 0.223 7.53 37.94 13.73
1/13/2021 4:00:00 AM 1.52 34.736 0.222 7.53 39.14 13.66
1/13/2021 4:15:00 AM 1.51 34.718 0.224 7.53 39.19 13.69
1/13/2021 4:30:00 AM 1.51 34.718 0.226 7.53 41.89 13.68
1/13/2021 4:45:00 AM 1.51 34.718 0.227 7.53 40.76 13.67
1/13/2021 5:00:00 AM 1.5 34.7 0.229 7.53 39.96 13.58
1/13/2021 5:15:00 AM 1.5 34.7 0.229 7.53 39.7 13.74
1/13/2021 5:30:00 AM 1.5 34.7 0.229 7.53 40.34 13.74
1/13/2021 5:45:00 AM 1.5 34.7 0.23 7.53 39.68 13.73
1/13/2021 6:00:00 AM 1.5 34.7 0.229 7.53 38.36 13.73
1/13/2021 6:15:00 AM 1.5 34.7 0.231 7.53 40.15 13.71
1/13/2021 6:30:00 AM 1.5 34.7 0.228 7.53 40.28 13.66
1/13/2021 6:45:00 AM 1.5 34.7 0.233 7.53 39.4 13.71
1/13/2021 7:00:00 AM 1.5 34.7 0.233 7.53 40.47 13.7
1/13/2021 7:15:00 AM 1.5 34.7 0.231 7.53 40.57 13.72
1/13/2021 7:30:00 AM 1.49 34.682 0.23 7.53 42.68 13.71
1/13/2021 7:45:00 AM 1.49 34.682 0.228 7.53 41.45 13.7
1/13/2021 8:00:00 AM 1.49 34.682 0.228 7.53 40.5 13.68
1/13/2021 8:15:00 AM 1.49 34.682 0.228 7.53 40.66 13.71
1/13/2021 8:30:00 AM 1.5 34.7 0.227 7.53 39.85 13.66
1/13/2021 8:45:00 AM 1.5 34.7 0.227 7.53 40.9 13.6
1/13/2021 9:00:00 AM 1.5 34.7 0.229 7.53 39.83 13.58
1/13/2021 9:15:00 AM 1.5 34.7 0.229 7.53 41.02 13.56
1/13/2021 9:30:00 AM 1.52 34.736 0.23 7.53 40.84 13.62
1/13/2021 9:45:00 AM 1.52 34.736 0.229 7.53 42.13 13.44
1/13/2021 10:00:00 AM 1.53 34.754 0.229 7.53 39.41 13.57
1/13/2021 10:15:00 AM 1.54 34.772 0.229 7.54 39.52 13.4
1/13/2021 10:30:00 AM 1.56 34.808 0.229 7.54 40.6 13.54
1/13/2021 10:45:00 AM 1.57 34.826 0.226 7.54 41.5 13.63
1/13/2021 11:00:00 AM 1.59 34.862 0.227 7.54 40.98 13.66
1/13/2021 11:15:00 AM 1.6 34.88 0.226 7.54 42.07 13.59
1/13/2021 11:30:00 AM 1.62 34.916 0.229 7.54 40.49 13.42
1/13/2021 11:45:00 AM 1.64 34.952 0.229 7.54 39.43 13.59
1/13/2021 12:00:00 PM 1.66 34.988 0.23 7.54 41.18 13.57
1/13/2021 12:15:00 PM 1.68 35.024 0.228 7.54 39.49 13.62
1/13/2021 12:30:00 PM 1.7 35.06 0.227 7.55 38.6 13.6
1/13/2021 12:45:00 PM 1.73 35.114 0.227 7.55 39.09 13.66
1/13/2021 1:00:00 PM 1.76 35.168 0.227 7.55 40.21 13.63
1/13/2021 1:15:00 PM 1.8 35.24 0.228 7.55 40.27 13.56
1/13/2021 1:30:00 PM 1.83 35.294 0.228 7.55 43.64 13.64
1/13/2021 1:45:00 PM 1.87 35.366 0.227 7.55 40.73 13.71
1/13/2021 2:00:00 PM 1.9 35.42 0.228 7.55 39.82 13.65
1/13/2021 2:15:00 PM 1.92 35.456 0.228 7.55 41.18 13.69
1/13/2021 2:30:00 PM 1.94 35.492 0.228 7.55 40.6 13.65
1/13/2021 2:45:00 PM 1.96 35.528 0.227 7.55 41.21 13.72
1/13/2021 3:00:00 PM 1.97 35.546 0.226 7.56 40.7 13.61
1/13/2021 3:15:00 PM 1.99 35.582 0.229 7.56 41.73 13.68
1/13/2021 3:30:00 PM 2.02 35.636 0.229 7.56 42.79 13.7
1/13/2021 3:45:00 PM 2.04 35.672 0.231 7.56 40.3 13.49
1/13/2021 4:00:00 PM 2.06 35.708 0.23 7.56 38.78 13.6
1/13/2021 4:15:00 PM 2.07 35.726 0.23 7.56 41.02 13.7
1/13/2021 4:30:00 PM 2.08 35.744 0.228 7.56 41.33 13.65
1/13/2021 4:45:00 PM 2.07 35.726 0.23 7.56 39.97 13.7
1/13/2021 5:00:00 PM 2.07 35.726 0.231 7.56 42.92 13.56
1/13/2021 5:15:00 PM 2.05 35.69 0.232 7.56 40.54 13.64
1/13/2021 5:30:00 PM 2.04 35.672 0.232 7.56 40.98 13.67
1/13/2021 5:45:00 PM 2.02 35.636 0.234 7.56 41.39 13.59
1/13/2021 6:00:00 PM 2 35.6 0.235 7.56 41.39 13.65
1/13/2021 6:15:00 PM 1.98 35.564 0.236 7.56 40.01 13.66
1/13/2021 6:30:00 PM 1.96 35.528 0.234 7.56 40.68 13.48
1/13/2021 6:45:00 PM 1.95 35.51 0.233 7.56 40.23 13.65
1/13/2021 7:00:00 PM 1.94 35.492 0.232 7.56 40.2 13.64
1/13/2021 7:15:00 PM 1.93 35.474 0.234 7.56 41.82 13.32
1/13/2021 7:30:00 PM 1.93 35.474 0.234 7.56 39.68 13.34
1/13/2021 7:45:00 PM 1.92 35.456 0.232 7.56 40.72 13.59
1/13/2021 8:00:00 PM 1.91 35.438 0.235 7.56 40.47 13.64
1/13/2021 8:15:00 PM 1.91 35.438 0.233 7.56 40.61 13.62
1/13/2021 8:30:00 PM 1.9 35.42 0.234 7.56 41.68 13.6
1/13/2021 8:45:00 PM 1.89 35.402 0.235 7.56 42.19 13.62
1/13/2021 9:00:00 PM 1.88 35.384 0.239 7.56 40.72 13.63
1/13/2021 9:15:00 PM 1.87 35.366 0.236 7.56 40.88 13.62
1/13/2021 9:30:00 PM 1.85 35.33 0.234 7.56 41.27 13.62
1/13/2021 9:45:00 PM 1.84 35.312 0.236 7.56 40.79 13.55
1/13/2021 10:00:00 PM 1.83 35.294 0.234 7.55 41.27 13.41
1/13/2021 10:15:00 PM 1.82 35.276 0.235 7.55 40.03 13.57
1/13/2021 10:30:00 PM 1.8 35.24 0.235 7.56 40.48 13.59
1/13/2021 10:45:00 PM 1.79 35.222 0.234 7.55 40.75 13.49
1/13/2021 11:00:00 PM 1.77 35.186 0.232 7.56 39.69 13.61
1/13/2021 11:15:00 PM 1.77 35.186 0.233 7.55 40.15 13.56
1/13/2021 11:30:00 PM 1.75 35.15 0.231 7.55 40.86 13.58
1/13/2021 11:45:00 PM 1.75 35.15 0.231 7.55 39.85 13.53
1/14/2021 12:00:00 AM 1.74 35.132 0.231 7.55 40.53 13.54
1/14/2021 12:15:00 AM 1.73 35.114 0.232 7.55 38.74 13.58
1/14/2021 12:30:00 AM 1.73 35.114 0.232 7.55 38.64 13.54
1/14/2021 12:45:00 AM 1.73 35.114 0.233 7.55 39.84 13.49
1/14/2021 1:00:00 AM 1.72 35.096 0.232 7.55 38.93 13.58
1/14/2021 1:15:00 AM 1.72 35.096 0.236 7.55 39.63 13.57
1/14/2021 1:30:00 AM 1.72 35.096 0.24 7.55 39.7 13.57
1/14/2021 1:45:00 AM 1.71 35.078 0.243 7.55 39.65 13.58
1/14/2021 2:00:00 AM 1.71 35.078 0.239 7.55 39.56 13.57
1/14/2021 2:15:00 AM 1.71 35.078 0.23 7.55 39.25 13.58
1/14/2021 2:30:00 AM 1.7 35.06 0.186 7.55 39.98 13.57
1/14/2021 2:45:00 AM 1.7 35.06 0.199 7.55 39.56 13.54
1/14/2021 3:00:00 AM 1.7 35.06 0.189 7.55 41.17 13.54
1/14/2021 3:15:00 AM 1.7 35.06 0.187 7.55 40.07 13.58
1/14/2021 3:30:00 AM 1.7 35.06 0.169 7.55 40.85 13.57
1/14/2021 3:45:00 AM 1.7 35.06 0.159 7.55 41.79 13.58
1/14/2021 4:00:00 AM 1.7 35.06 0.153 7.54 39.01 13.58
1/14/2021 4:15:00 AM 1.69 35.042 0.16 7.55 39 13.56
1/14/2021 4:30:00 AM 1.69 35.042 0.167 7.55 39.44 13.46
1/14/2021 4:45:00 AM 1.69 35.042 0.163 7.54 39.83 13.56
1/14/2021 5:00:00 AM 1.69 35.042 0.165 7.54 39.72 13.57
1/14/2021 5:15:00 AM 1.69 35.042 0.161 7.54 39.67 13.56
1/14/2021 5:30:00 AM 1.69 35.042 0.165 7.54 39.32 13.56
1/14/2021 5:45:00 AM 1.69 35.042 0.158 7.54 39.79 13.54
1/14/2021 6:00:00 AM 1.7 35.06 0.166 7.54 39.51 13.54
1/14/2021 6:15:00 AM 1.7 35.06 0.154 7.54 42.26 13.53
1/14/2021 6:30:00 AM 1.7 35.06 0.19 7.54 40.04 13.5
1/14/2021 6:45:00 AM 1.7 35.06 0.185 7.54 39.98 13.4
1/14/2021 7:00:00 AM 1.7 35.06 0.181 7.54 41.49 13.4
1/14/2021 7:15:00 AM 1.7 35.06 0.181 7.54 39.74 13.52
1/14/2021 7:30:00 AM 1.71 35.078 0.189 7.54 39.78 13.52
1/14/2021 7:45:00 AM 1.71 35.078 0.191 7.54 40.55 13.48
1/14/2021 8:00:00 AM 1.71 35.078 0.19 7.54 39.46 13.51
1/14/2021 8:15:00 AM 1.71 35.078 0.183 7.54 39.42 13.54
1/14/2021 8:30:00 AM 1.72 35.096 0.181 7.54 40.02 13.54
1/14/2021 8:45:00 AM 1.72 35.096 0.184 7.54 39.7 13.5
1/14/2021 9:00:00 AM 1.73 35.114 0.183 7.54 39.98 13.51
1/14/2021 9:15:00 AM 1.75 35.15 0.181 7.54 40.3 13.51
1/14/2021 9:30:00 AM 1.76 35.168 0.182 7.54 40.23 13.5
1/14/2021 9:45:00 AM 1.77 35.186 0.183 7.54 39.54 13.49
1/14/2021 10:00:00 AM 1.79 35.222 0.181 7.55 40.15 13.52
1/14/2021 10:15:00 AM 1.81 35.258 0.18 7.55 40.52 13.55
1/14/2021 10:30:00 AM 1.83 35.294 0.18 7.55 41.3 13.54
1/14/2021 10:45:00 AM 1.85 35.33 0.182 7.55 41.68 13.48
1/14/2021 11:00:00 AM 1.89 35.402 0.182 7.55 39.21 13.49
1/14/2021 11:15:00 AM 1.91 35.438 0.185 7.55 39.79 13.41
1/14/2021 11:30:00 AM 1.94 35.492 0.19 7.55 41.62 13.49
1/14/2021 11:45:00 AM 1.97 35.546 0.19 7.55 39.42 13.54
1/14/2021 12:00:00 PM 2 35.6 0.192 7.55 40.88 13.54
1/14/2021 12:15:00 PM 2.03 35.654 0.189 7.55 40.79 13.5
1/14/2021 12:30:00 PM 2.05 35.69 0.193 7.56 40.83 13.52
1/14/2021 12:45:00 PM 2.08 35.744 0.194 7.56 39.87 13.53
1/14/2021 1:00:00 PM 2.11 35.798 0.197 7.56 39.86 13.53
1/14/2021 1:15:00 PM 2.15 35.87 0.193 7.56 40.26 13.54
1/14/2021 1:30:00 PM 2.19 35.942 0.193 7.56 41.14 13.58
1/14/2021 1:45:00 PM 2.22 35.996 0.193 7.56 42.09 13.6
1/14/2021 2:00:00 PM 2.24 36.032 0.194 7.56 41.78 13.57
1/14/2021 2:15:00 PM 2.26 36.068 0.194 7.56 42.72 13.51
1/14/2021 2:30:00 PM 2.27 36.086 0.194 7.56 40.48 13.59
1/14/2021 2:45:00 PM 2.28 36.104 0.195 7.56 40.36 13.58
1/14/2021 3:00:00 PM 2.29 36.122 0.196 7.57 40.36 13.58
1/14/2021 3:15:00 PM 2.3 36.14 0.198 7.56 41.14 13.59
1/14/2021 3:30:00 PM 2.3 36.14 0.197 7.57 40.33 13.57
1/14/2021 3:45:00 PM 2.31 36.158 0.201 7.57 40.88 13.56
1/14/2021 4:00:00 PM 2.31 36.158 0.202 7.56 40.34 13.54
1/14/2021 4:15:00 PM 2.31 36.158 0.201 7.57 41.68 13.54
1/14/2021 4:30:00 PM 2.3 36.14 0.203 7.57 42.92 13.49
1/14/2021 4:45:00 PM 2.3 36.14 0.202 7.57 41.19 13.51
1/14/2021 5:00:00 PM 2.29 36.122 0.206 7.57 40.18 13.55
1/14/2021 5:15:00 PM 2.29 36.122 0.208 7.57 41.05 13.55
1/14/2021 5:30:00 PM 2.28 36.104 0.209 7.57 38.76 13.54
1/14/2021 5:45:00 PM 2.28 36.104 0.208 7.57 41.07 13.55
1/14/2021 6:00:00 PM 2.27 36.086 0.207 7.57 39.49 13.54
1/14/2021 6:15:00 PM 2.26 36.068 0.205 7.57 40.04 13.56
1/14/2021 6:30:00 PM 2.26 36.068 0.207 7.57 41.11 13.55
1/14/2021 6:45:00 PM 2.25 36.05 0.207 7.56 40.84 13.55
1/14/2021 7:00:00 PM 2.25 36.05 0.207 7.56 44.28 13.51
1/14/2021 7:15:00 PM 2.24 36.032 0.209 7.56 41.3 13.52
1/14/2021 7:30:00 PM 2.24 36.032 0.21 7.56 43.76 13.54
1/14/2021 7:45:00 PM 2.23 36.014 0.213 7.56 41.5 13.53
1/14/2021 8:00:00 PM 2.23 36.014 0.211 7.56 40.57 13.47
1/14/2021 8:15:00 PM 2.23 36.014 0.213 7.56 42.87 13.5
1/14/2021 8:30:00 PM 2.22 35.996 0.215 7.56 41.26 13.52
1/14/2021 8:45:00 PM 2.22 35.996 0.22 7.56 43.58 13.51
1/14/2021 9:00:00 PM 2.22 35.996 0.215 7.56 41.82 13.5
1/14/2021 9:15:00 PM 2.22 35.996 0.216 7.56 39.99 13.49
1/14/2021 9:30:00 PM 2.22 35.996 0.226 7.55 39.24 13.5
1/14/2021 9:45:00 PM 2.22 35.996 0.223 7.55 40.4 13.49
1/14/2021 10:00:00 PM 2.22 35.996 0.223 7.55 40.53 13.47
1/14/2021 10:15:00 PM 2.22 35.996 0.229 7.55 39.76 13.47
1/14/2021 10:30:00 PM 2.22 35.996 0.228 7.55 40.71 13.46
1/14/2021 10:45:00 PM 2.22 35.996 0.234 7.55 39.05 13.47
1/14/2021 11:00:00 PM 2.22 35.996 0.232 7.55 39.59 13.41
1/14/2021 11:15:00 PM 2.22 35.996 0.231 7.54 41.29 13.46
1/14/2021 11:30:00 PM 2.23 36.014 0.226 7.54 40.52 13.45
1/14/2021 11:45:00 PM 2.23 36.014 0.227 7.54 41.92 13.45
1/15/2021 12:00:00 AM 2.23 36.014 0.227 7.54 41.11 13.43
1/15/2021 12:15:00 AM 2.23 36.014 0.225 7.54 41.47 13.44
1/15/2021 12:30:00 AM 2.24 36.032 0.229 7.54 42.37 13.42
1/15/2021 12:45:00 AM 2.24 36.032 0.228 7.54 40.17 13.42
1/15/2021 1:00:00 AM 2.24 36.032 0.229 7.54 41.45 13.43
1/15/2021 1:15:00 AM 2.24 36.032 0.227 7.54 41.04 13.43
1/15/2021 1:30:00 AM 2.24 36.032 0.229 7.54 42.92 13.42
1/15/2021 1:45:00 AM 2.24 36.032 0.227 7.54 41.94 13.41
1/15/2021 2:00:00 AM 2.25 36.05 0.229 7.54 42.07 13.41
1/15/2021 2:15:00 AM 2.25 36.05 0.224 7.54 41.44 13.41
1/15/2021 2:30:00 AM 2.25 36.05 0.227 7.54 42.84 13.4
1/15/2021 2:45:00 AM 2.25 36.05 0.222 7.54 41.44 13.4
1/15/2021 3:00:00 AM 2.25 36.05 0.223 7.54 40.45 13.4
1/15/2021 3:15:00 AM 2.24 36.032 0.224 7.54 42.09 13.4
1/15/2021 3:30:00 AM 2.23 36.014 0.224 7.54 40.46 13.4
1/15/2021 3:45:00 AM 2.22 35.996 0.223 7.54 41.32 13.4
1/15/2021 4:00:00 AM 2.2 35.96 0.222 7.54 40.64 13.39
1/15/2021 4:15:00 AM 2.19 35.942 0.225 7.54 42.97 13.4
1/15/2021 4:30:00 AM 2.17 35.906 0.228 7.54 40.79 13.39
1/15/2021 4:45:00 AM 2.16 35.888 0.227 7.54 42.09 13.39
1/15/2021 5:00:00 AM 2.15 35.87 0.227 7.54 40.67 13.39
1/15/2021 5:15:00 AM 2.13 35.834 0.226 7.54 41.58 13.39
1/15/2021 5:30:00 AM 2.12 35.816 0.229 7.54 41.94 13.39
1/15/2021 5:45:00 AM 2.11 35.798 0.224 7.54 40.48 13.38
1/15/2021 6:00:00 AM 2.1 35.78 0.229 7.54 40.56 13.38
1/15/2021 6:15:00 AM 2.09 35.762 0.23 7.54 42.05 13.38
1/15/2021 6:30:00 AM 2.08 35.744 0.225 7.54 40.76 13.37
1/15/2021 6:45:00 AM 2.06 35.708 0.221 7.54 40.73 13.37
1/15/2021 7:00:00 AM 2.05 35.69 0.231 7.54 40.93 13.37
1/15/2021 7:15:00 AM 2.04 35.672 0.231 7.54 41.73 13.35
1/15/2021 7:30:00 AM 2.03 35.654 0.232 7.54 41.01 13.35
1/15/2021 7:45:00 AM 2.02 35.636 0.232 7.54 41.82 13.38
1/15/2021 8:00:00 AM 2.02 35.636 0.234 7.54 41.04 13.33
1/15/2021 8:15:00 AM 2.02 35.636 0.227 7.54 41.4 13.35
1/15/2021 8:30:00 AM 2.02 35.636 0.223 7.54 40.03 13.38
1/15/2021 8:45:00 AM 2.03 35.654 0.227 7.54 40.61 13.37
1/15/2021 9:00:00 AM 2.03 35.654 0.215 7.54 41.76 13.38
1/15/2021 9:15:00 AM 2.05 35.69 0.223 7.54 40 13.38
1/15/2021 9:30:00 AM 2.06 35.708 0.232 7.54 41.28 13.38
1/15/2021 9:45:00 AM 2.08 35.744 0.233 7.55 41.45 13.34
1/15/2021 10:00:00 AM 2.11 35.798 0.233 7.55 42.28 13.36
1/15/2021 10:15:00 AM 2.13 35.834 0.23 7.55 39.74 13.41
1/15/2021 10:30:00 AM 2.17 35.906 0.234 7.55 40.7 13.41
1/15/2021 10:45:00 AM 2.21 35.978 0.236 7.55 41.02 13.41
1/15/2021 11:00:00 AM 2.25 36.05 0.238 7.56 41.55 13.42
1/15/2021 11:15:00 AM 2.3 36.14 0.238 7.56 43.96 13.41
1/15/2021 11:30:00 AM 2.35 36.23 0.233 7.56 42.49 13.44
1/15/2021 11:45:00 AM 2.41 36.338 0.231 7.56 42.42 13.44
1/15/2021 12:00:00 PM 2.46 36.428 0.232 7.57 41.56 13.43
1/15/2021 12:15:00 PM 2.51 36.518 0.234 7.57 42.33 13.43
1/15/2021 12:30:00 PM 2.54 36.572 0.237 7.57 43.7 13.43
1/15/2021 12:45:00 PM 2.57 36.626 0.236 7.57 42.56 13.43
1/15/2021 1:00:00 PM 2.6 36.68 0.236 7.57 41.19 13.41
1/15/2021 1:15:00 PM 2.62 36.716 0.235 7.57 42.17 13.42
1/15/2021 1:30:00 PM 2.65 36.77 0.238 7.58 43 13.43
1/15/2021 1:45:00 PM 2.68 36.824 0.235 7.58 42.35 13.42
1/15/2021 2:00:00 PM 2.7 36.86 0.231 7.58 41.22 13.43
1/15/2021 2:15:00 PM 2.73 36.914 0.233 7.58 42.04 13.41
1/15/2021 2:30:00 PM 2.74 36.932 0.235 7.58 41.96 13.4
1/15/2021 2:45:00 PM 2.77 36.986 0.236 7.58 42.79 13.41
1/15/2021 3:00:00 PM 2.77 36.986 0.233 7.59 42.84 13.41
1/15/2021 3:15:00 PM 2.78 37.004 0.23 7.59 43.21 13.4
1/15/2021 3:30:00 PM 2.78 37.004 0.232 7.59 42.75 13.41
1/15/2021 3:45:00 PM 2.79 37.022 0.234 7.59 42.29 13.39
1/15/2021 4:00:00 PM 2.79 37.022 0.233 7.59 42.58 13.37
1/15/2021 4:15:00 PM 2.8 37.04 0.234 7.59 41.62 13.34
1/15/2021 4:30:00 PM 2.8 37.04 0.234 7.59 42.21 13.18
1/15/2021 4:45:00 PM 2.81 37.058 0.23 7.59 42.14 13.36
1/15/2021 5:00:00 PM 2.81 37.058 0.23 7.59 42.02 13.33
1/15/2021 5:15:00 PM 2.81 37.058 0.23 7.59 40.99 13.37
1/15/2021 5:30:00 PM 2.81 37.058 0.229 7.59 42.85 13.36
1/15/2021 5:45:00 PM 2.81 37.058 0.231 7.59 42.32 13.35
1/15/2021 6:00:00 PM 2.81 37.058 0.232 7.59 41.8 13.34
1/15/2021 6:15:00 PM 2.81 37.058 0.233 7.58 41.44 13.32
1/15/2021 6:30:00 PM 2.81 37.058 0.232 7.58 42.07 13.33
1/15/2021 6:45:00 PM 2.81 37.058 0.229 7.58 41.06 13.31
1/15/2021 7:00:00 PM 2.81 37.058 0.228 7.58 45.05 13.32
1/15/2021 7:15:00 PM 2.81 37.058 0.229 7.58 44.26 13.31
1/15/2021 7:30:00 PM 2.81 37.058 0.228 7.58 55.69 13.31
1/15/2021 7:45:00 PM 2.81 37.058 0.226 7.58 41.09 13.14
1/15/2021 8:00:00 PM 2.81 37.058 0.226 7.58 58.87 13.25
1/15/2021 8:15:00 PM 2.81 37.058 0.224 7.58 57.63 13.27
1/15/2021 8:30:00 PM 2.81 37.058 0.223 7.58 36.27 13.28
1/15/2021 8:45:00 PM 2.81 37.058 0.222 7.58 37.43 13.27
1/15/2021 9:00:00 PM 2.81 37.058 0.223 7.58 41.13 13.25
1/15/2021 9:15:00 PM 2.81 37.058 0.222 7.58 35.88 13.27
1/15/2021 9:30:00 PM 2.81 37.058 0.222 7.57 34.47 13.25
1/15/2021 9:45:00 PM 2.82 37.076 0.225 7.57 35.23 13.23
1/15/2021 10:00:00 PM 2.82 37.076 0.223 7.57 35.29 13.24
1/15/2021 10:15:00 PM 2.82 37.076 0.223 7.57 34.95 13.24
1/15/2021 10:30:00 PM 2.82 37.076 0.223 7.57 34.84 13.19
1/15/2021 10:45:00 PM 2.82 37.076 0.221 7.57 33.82 13.16
1/15/2021 11:00:00 PM 2.82 37.076 0.222 7.57 35.71 13.2
1/15/2021 11:15:00 PM 2.82 37.076 0.221 7.57 36.11 13.22
1/15/2021 11:30:00 PM 2.82 37.076 0.236 7.56 35.2 13.2
1/15/2021 11:45:00 PM 2.83 37.094 0.266 7.57 36.53 13.2
1/16/2021 12:00:00 AM 2.83 37.094 0.266 7.56 35.52 13.19
1/16/2021 12:15:00 AM 2.83 37.094 0.256 7.56 35.3 13.19
1/16/2021 12:30:00 AM 2.83 37.094 0.201 7.56 35.66 13.19
1/16/2021 12:45:00 AM 2.83 37.094 0.195 7.56 34.1 13.19
1/16/2021 1:00:00 AM 2.82 37.076 0.201 7.55 33.98 13.18
1/16/2021 1:15:00 AM 2.81 37.058 0.211 7.55 34.62 13.17
1/16/2021 1:30:00 AM 2.8 37.04 0.215 7.55 33.88 13.18
1/16/2021 1:45:00 AM 2.8 37.04 0.213 7.55 36.9 13.17
1/16/2021 2:00:00 AM 2.77 36.986 0.188 7.54 43.97 13.16
1/16/2021 2:15:00 AM 2.74 36.932 0.195 7.54 43.1 13.16
1/16/2021 2:30:00 AM 2.71 36.878 0.192 7.53 45.3 13.16
1/16/2021 2:45:00 AM 2.68 36.824 0.193 7.52 44.53 13.18
1/16/2021 3:00:00 AM 2.66 36.788 0.194 7.52 49.29 13.19
1/16/2021 3:15:00 AM 2.65 36.77 0.195 7.52 45.74 13.18
1/16/2021 3:30:00 AM 2.65 36.77 0.196 7.52 52.97 13.16
1/16/2021 3:45:00 AM 2.64 36.752 0.194 7.52 44.57 13.18
1/16/2021 4:00:00 AM 2.64 36.752 0.197 7.52 43.3 13.17
1/16/2021 4:15:00 AM 2.64 36.752 0.199 7.52 45.31 13.15
1/16/2021 4:30:00 AM 2.65 36.77 0.196 7.52 40.75 13.14
1/16/2021 4:45:00 AM 2.65 36.77 0.195 7.52 40.73 13.16
1/16/2021 5:00:00 AM 2.65 36.77 0.197 7.52 37.87 13.14
1/16/2021 5:15:00 AM 2.65 36.77 0.195 7.52 38.09 13.13
1/16/2021 5:30:00 AM 2.65 36.77 0.193 7.52 37.83 13.14
1/16/2021 5:45:00 AM 2.65 36.77 0.194 7.52 36.38 13.15
1/16/2021 6:00:00 AM 2.66 36.788 0.193 7.52 38.11 13.13
1/16/2021 6:15:00 AM 2.66 36.788 0.193 7.52 36.17 13.12
1/16/2021 6:30:00 AM 2.66 36.788 0.194 7.52 38.05 13.13
1/16/2021 6:45:00 AM 2.66 36.788 0.193 7.52 36.17 13.13
1/16/2021 7:00:00 AM 2.66 36.788 0.192 7.52 35.96 13.12
1/16/2021 7:15:00 AM 2.66 36.788 0.191 7.52 35.73 13.12
1/16/2021 7:30:00 AM 2.66 36.788 0.191 7.52 35.29 13.11
1/16/2021 7:45:00 AM 2.67 36.806 0.19 7.52 36.22 13.12
1/16/2021 8:00:00 AM 2.67 36.806 0.191 7.52 36.11 13.11
1/16/2021 8:15:00 AM 2.67 36.806 0.195 7.52 36.28 13.1
1/16/2021 8:30:00 AM 2.68 36.824 0.195 7.52 32.98 12.98
1/16/2021 8:45:00 AM 2.69 36.842 0.193 7.52 35.8 13.01
1/16/2021 9:00:00 AM 2.7 36.86 0.194 7.53 35.44 12.89
1/16/2021 9:15:00 AM 2.72 36.896 0.196 7.53 35.69 13.03
1/16/2021 9:30:00 AM 2.73 36.914 0.191 7.53 33.7 13.12
1/16/2021 9:45:00 AM 2.75 36.95 0.192 7.53 34.66 13.1
1/16/2021 10:00:00 AM 2.77 36.986 0.197 7.54 35.15 13.12
1/16/2021 10:15:00 AM 2.78 37.004 0.195 7.53 36.35 13.12
1/16/2021 10:30:00 AM 2.79 37.022 0.201 7.54 34.2 13.13
1/16/2021 10:45:00 AM 2.81 37.058 0.202 7.54 34.25 13.13
1/16/2021 11:00:00 AM 2.84 37.112 0.204 7.54 33.94 13.14
1/16/2021 11:15:00 AM 2.87 37.166 0.205 7.55 33.23 13.17
1/16/2021 11:30:00 AM 2.91 37.238 0.202 7.55 33.64 13.16
1/16/2021 11:45:00 AM 2.95 37.31 0.202 7.55 35.45 13.17
1/16/2021 12:00:00 PM 2.98 37.364 0.205 7.55 34.31 13.15
1/16/2021 12:15:00 PM 3.03 37.454 0.205 7.55 34.4 13.17
1/16/2021 12:30:00 PM 3.07 37.526 0.206 7.55 33.6 13.16
1/16/2021 12:45:00 PM 3.11 37.598 0.204 7.55 34.44 13.16
1/16/2021 1:00:00 PM 3.14 37.652 0.203 7.55 33.67 13.16
1/16/2021 1:15:00 PM 3.18 37.724 0.202 7.56 34.61 13.17
1/16/2021 1:30:00 PM 3.21 37.778 0.203 7.55 36.29 13.15
1/16/2021 1:45:00 PM 3.24 37.832 0.208 7.55 34.96 13.16
1/16/2021 2:00:00 PM 3.27 37.886 0.212 7.56 35.11 13.16
1/16/2021 2:15:00 PM 3.29 37.922 0.214 7.56 36.32 13.15
1/16/2021 2:30:00 PM 3.31 37.958 0.216 7.56 35.36 13.15
1/16/2021 2:45:00 PM 3.31 37.958 0.214 7.56 36.23 13.15
1/16/2021 3:00:00 PM 3.32 37.976 0.217 7.56 36.46 13.15
1/16/2021 3:15:00 PM 3.33 37.994 0.216 7.56 36.49 13.16
1/16/2021 3:30:00 PM 3.33 37.994 0.216 7.56 35.75 13.15
1/16/2021 3:45:00 PM 3.33 37.994 0.213 7.56 37.88 13.15
1/16/2021 4:00:00 PM 3.33 37.994 0.213 7.56 36.3 13.15
1/16/2021 4:15:00 PM 3.32 37.976 0.212 7.56 37.36 13.15
1/16/2021 4:30:00 PM 3.31 37.958 0.211 7.56 35.84 13.14
1/16/2021 4:45:00 PM 3.3 37.94 0.213 7.57 42.49 13.15
1/16/2021 5:00:00 PM 3.28 37.904 0.213 7.56 40.51 13.14
1/16/2021 5:15:00 PM 3.26 37.868 0.213 7.56 40.84 13.08
1/16/2021 5:30:00 PM 3.24 37.832 0.212 7.56 41.08 13.07
1/16/2021 5:45:00 PM 3.21 37.778 0.211 7.56 39.48 13.12
1/16/2021 6:00:00 PM 3.19 37.742 0.209 7.56 41.28 13.13
1/16/2021 6:15:00 PM 3.17 37.706 0.206 7.56 40.75 13.12
1/16/2021 6:30:00 PM 3.15 37.67 0.206 7.56 42.68 13.13
1/16/2021 6:45:00 PM 3.12 37.616 0.2 7.56 40.82 13.13
1/16/2021 7:00:00 PM 3.1 37.58 0.199 7.56 42.21 13.13
1/16/2021 7:15:00 PM 3.07 37.526 0.198 7.56 41.27 13.13
1/16/2021 7:30:00 PM 3.05 37.49 0.194 7.56 41.98 13.13
1/16/2021 7:45:00 PM 3.03 37.454 0.193 7.56 41.35 13.14
1/16/2021 8:00:00 PM 3.01 37.418 0.193 7.56 41.3 13.13
1/16/2021 8:15:00 PM 3 37.4 0.19 7.56 41.53 13.14
1/16/2021 8:30:00 PM 2.99 37.382 0.187 7.56 41.56 13.13
1/16/2021 8:45:00 PM 2.97 37.346 0.186 7.56 42.3 13.14
1/16/2021 9:00:00 PM 2.95 37.31 0.188 7.56 41.22 13.13
1/16/2021 9:15:00 PM 2.94 37.292 0.188 7.56 43.08 13.14
1/16/2021 9:30:00 PM 2.91 37.238 0.189 7.56 39.06 13.14
1/16/2021 9:45:00 PM 2.9 37.22 0.188 7.57 41.18 13.14
1/16/2021 10:00:00 PM 2.89 37.202 0.187 7.57 81.04 13.13
1/16/2021 10:15:00 PM 2.87 37.166 0.188 7.57 40.47 13.14
1/16/2021 10:30:00 PM 2.86 37.148 0.185 7.57 39.46 13.14
1/16/2021 10:45:00 PM 2.84 37.112 0.184 7.57 40.73 13.13
1/16/2021 11:00:00 PM 2.82 37.076 0.186 7.57 40.91 13.14
1/16/2021 11:15:00 PM 2.81 37.058 0.186 7.57 40.08 13.13
1/16/2021 11:30:00 PM 2.8 37.04 0.184 7.58 38.82 13.14
1/16/2021 11:45:00 PM 2.79 37.022 0.185 7.58 41.97 13.14
1/17/2021 12:00:00 AM 2.78 37.004 0.185 7.58 43.59 13.14
1/17/2021 12:15:00 AM 2.78 37.004 0.183 7.58 40.2 13.14
1/17/2021 12:30:00 AM 2.77 36.986 0.182 7.58 41.92 13.16
1/17/2021 12:45:00 AM 2.77 36.986 0.181 7.58 42.68 13.15
1/17/2021 1:00:00 AM 2.76 36.968 0.183 7.58 42.06 13.16
1/17/2021 1:15:00 AM 2.75 36.95 0.184 7.58 42 13.15
1/17/2021 1:30:00 AM 2.73 36.914 0.184 7.58 41.21 13.16
1/17/2021 1:45:00 AM 2.71 36.878 0.183 7.58 43.43 13.16
1/17/2021 2:00:00 AM 2.7 36.86 0.181 7.59 44.31 13.17
1/17/2021 2:15:00 AM 2.69 36.842 0.181 7.59 41.33 13.17
1/17/2021 2:30:00 AM 2.67 36.806 0.183 7.59 39.66 13.17
1/17/2021 2:45:00 AM 2.66 36.788 0.184 7.59 42.54 13.19
1/17/2021 3:00:00 AM 2.64 36.752 0.184 7.59 39.97 13.19
1/17/2021 3:15:00 AM 2.62 36.716 0.18 7.59 42.57 13.2
1/17/2021 3:30:00 AM 2.6 36.68 0.181 7.59 42.27 13.21
1/17/2021 3:45:00 AM 2.59 36.662 0.181 7.59 43.02 13.22
1/17/2021 4:00:00 AM 2.58 36.644 0.183 7.59 43.34 13.22
1/17/2021 4:15:00 AM 2.56 36.608 0.184 7.59 43.12 13.23
1/17/2021 4:30:00 AM 2.55 36.59 0.18 7.59 43.26 13.23
1/17/2021 4:45:00 AM 2.53 36.554 0.178 7.59 43.24 13.22
1/17/2021 5:00:00 AM 2.52 36.536 0.177 7.58 43.25 13.23
1/17/2021 5:15:00 AM 2.5 36.5 0.178 7.58 47.75 13.25
1/17/2021 5:30:00 AM 2.48 36.464 0.177 7.58 44.15 13.26
1/17/2021 5:45:00 AM 2.47 36.446 0.174 7.57 42.33 13.25
1/17/2021 6:00:00 AM 2.45 36.41 0.173 7.57 52.13 13.27
1/17/2021 6:15:00 AM 2.44 36.392 0.172 7.56 47.86 13.27
1/17/2021 6:30:00 AM 2.42 36.356 0.171 7.56 45.67 13.27
1/17/2021 6:45:00 AM 2.4 36.32 0.166 7.55 47.91 13.27
1/17/2021 7:00:00 AM 2.38 36.284 0.162 7.55 45.76 13.28
1/17/2021 7:15:00 AM 2.36 36.248 0.162 7.54 45.72 13.27
1/17/2021 7:30:00 AM 2.34 36.212 0.162 7.54 54.43 13.28
1/17/2021 7:45:00 AM 2.32 36.176 0.162 7.53 47.5 13.29
1/17/2021 8:00:00 AM 2.31 36.158 0.164 7.53 47.7 13.3
1/17/2021 8:15:00 AM 2.29 36.122 0.16 7.53 47.47 13.3
1/17/2021 8:30:00 AM 2.28 36.104 0.157 7.52 45.81 13.31
1/17/2021 8:45:00 AM 2.27 36.086 0.156 7.52 51.48 13.31
1/17/2021 9:00:00 AM 2.26 36.068 0.155 7.52 49.22 13.32
1/17/2021 9:15:00 AM 2.26 36.068 0.156 7.51 47.77 13.32
1/17/2021 9:30:00 AM 2.25 36.05 0.154 7.51 48.91 13.35
1/17/2021 9:45:00 AM 2.25 36.05 0.154 7.51 48.2 13.35
1/17/2021 10:00:00 AM 2.24 36.032 0.154 7.5 48.99 13.36
1/17/2021 10:15:00 AM 2.24 36.032 0.155 7.5 49.05 13.38
1/17/2021 10:30:00 AM 2.26 36.068 0.153 7.5 47.94 13.38
1/17/2021 10:45:00 AM 2.29 36.122 0.155 7.49 44.99 13.4
1/17/2021 11:00:00 AM 2.31 36.158 0.154 7.49 46.26 13.41
1/17/2021 11:15:00 AM 2.34 36.212 0.153 7.49 48.89 13.42
1/17/2021 11:30:00 AM 2.37 36.266 0.152 7.49 45.19 13.42
1/17/2021 11:45:00 AM 2.38 36.284 0.152 7.49 44.03 13.39
1/17/2021 12:00:00 PM 2.41 36.338 0.153 7.49 44.68 13.45
1/17/2021 12:15:00 PM 2.42 36.356 0.153 7.49 56.29 13.45
1/17/2021 12:30:00 PM 2.44 36.392 0.154 7.49 47.68 13.46
1/17/2021 12:45:00 PM 2.46 36.428 0.153 7.49 48.84 13.46
1/17/2021 1:00:00 PM 2.47 36.446 0.154 7.49 49.24 13.47
1/17/2021 1:15:00 PM 2.47 36.446 0.152 7.49 49.38 13.48
1/17/2021 1:30:00 PM 2.48 36.464 0.149 7.49 46.93 13.49
1/17/2021 1:45:00 PM 2.49 36.482 0.149 7.49 47.26 13.49
1/17/2021 2:00:00 PM 2.5 36.5 0.15 7.49 53 13.49
1/17/2021 2:15:00 PM 2.5 36.5 0.15 7.49 49.69 13.49
1/17/2021 2:30:00 PM 2.5 36.5 0.148 7.48 47.92 13.52
1/17/2021 2:45:00 PM 2.49 36.482 0.148 7.49 45.98 13.51
1/17/2021 3:00:00 PM 2.48 36.464 0.148 7.49 47.82 13.53
1/17/2021 3:15:00 PM 2.46 36.428 0.148 7.49 51.15 13.52
1/17/2021 3:30:00 PM 2.44 36.392 0.149 7.49 49.36 13.53
1/17/2021 3:45:00 PM 2.42 36.356 0.148 7.48 47.37 13.54
1/17/2021 4:00:00 PM 2.39 36.302 0.148 7.48 48.73 13.54
1/17/2021 4:15:00 PM 2.37 36.266 0.147 7.48 47.57 13.54
1/17/2021 4:30:00 PM 2.35 36.23 0.146 7.48 48.48 13.56
1/17/2021 4:45:00 PM 2.33 36.194 0.147 7.48 45.72 13.55
1/17/2021 5:00:00 PM 2.31 36.158 0.144 7.48 48.29 13.56
1/17/2021 5:15:00 PM 2.29 36.122 0.144 7.48 47.69 13.56
1/17/2021 5:30:00 PM 2.28 36.104 0.145 7.48 50.48 13.56
1/17/2021 5:45:00 PM 2.26 36.068 0.146 7.48 45.87 13.57
1/17/2021 6:00:00 PM 2.25 36.05 0.147 7.48 44.48 13.57
1/17/2021 6:15:00 PM 2.24 36.032 0.148 7.48 44.78 13.56
1/17/2021 6:30:00 PM 2.24 36.032 0.148 7.47 42.01 13.56
1/17/2021 6:45:00 PM 2.23 36.014 0.148 7.47 44.39 13.57
1/17/2021 7:00:00 PM 2.23 36.014 0.151 7.47 42.11 13.56
1/17/2021 7:15:00 PM 2.22 35.996 0.149 7.47 44.54 13.56
1/17/2021 7:30:00 PM 2.22 35.996 0.15 7.47 42.96 13.56
1/17/2021 7:45:00 PM 2.21 35.978 0.151 7.47 42.01 13.55
1/17/2021 8:00:00 PM 2.21 35.978 0.153 7.47 42.85 13.55
1/17/2021 8:15:00 PM 2.21 35.978 0.153 7.46 90.72 13.53
1/17/2021 8:30:00 PM 2.21 35.978 0.152 7.47 41.89 13.55
1/17/2021 8:45:00 PM 2.21 35.978 0.154 7.46 43.38 13.55
1/17/2021 9:00:00 PM 2.21 35.978 0.152 7.46 41.63 13.54
1/17/2021 9:15:00 PM 2.21 35.978 0.15 7.46 42.61 13.53
1/17/2021 9:30:00 PM 2.21 35.978 0.149 7.46 39.55 13.54
1/17/2021 9:45:00 PM 2.21 35.978 0.153 7.46 40.84 13.53
1/17/2021 10:00:00 PM 2.22 35.996 0.151 7.46 42.89 13.52
1/17/2021 10:15:00 PM 2.22 35.996 0.152 7.46 40.56 13.53
1/17/2021 10:30:00 PM 2.22 35.996 0.152 7.46 44.17 13.53
1/17/2021 10:45:00 PM 2.23 36.014 0.153 7.46 40.61 13.51
1/17/2021 11:00:00 PM 2.22 35.996 0.154 7.46 41.21 13.51
1/17/2021 11:15:00 PM 2.22 35.996 0.153 7.46 40.57 13.51
1/17/2021 11:30:00 PM 2.22 35.996 0.156 7.46 38.73 13.51
1/17/2021 11:45:00 PM 2.22 35.996 0.154 7.46 41.08 13.51
1/18/2021 12:00:00 AM 2.21 35.978 0.152 7.46 42.1 13.5
1/18/2021 12:15:00 AM 2.21 35.978 0.151 7.45 42.22 13.5
1/18/2021 12:30:00 AM 2.21 35.978 0.156 7.45 38.71 13.47
1/18/2021 12:45:00 AM 2.21 35.978 0.156 7.45 41.52 13.5
1/18/2021 1:00:00 AM 2.21 35.978 0.154 7.45 39.9 13.49
1/18/2021 1:15:00 AM 2.2 35.96 0.15 7.45 41.7 13.49
1/18/2021 1:30:00 AM 2.2 35.96 0.149 7.45 40.41 13.49
1/18/2021 1:45:00 AM 2.19 35.942 0.146 7.45 39.35 13.49
1/18/2021 2:00:00 AM 2.18 35.924 0.144 7.45 41.65 13.49
1/18/2021 2:15:00 AM 2.17 35.906 0.146 7.45 39.88 13.49
1/18/2021 2:30:00 AM 2.16 35.888 0.15 7.45 41.55 13.49
1/18/2021 2:45:00 AM 2.16 35.888 0.148 7.45 39.44 13.48
1/18/2021 3:00:00 AM 2.14 35.852 0.147 7.45 39.61 13.48
1/18/2021 3:15:00 AM 2.13 35.834 0.147 7.45 38.61 13.48
1/18/2021 3:30:00 AM 2.12 35.816 0.148 7.45 38.14 13.47
1/18/2021 3:45:00 AM 2.1 35.78 0.148 7.45 38.95 13.47
1/18/2021 4:00:00 AM 2.08 35.744 0.147 7.45 40.83 13.48
1/18/2021 4:15:00 AM 2.07 35.726 0.147 7.45 38.52 13.46
1/18/2021 4:30:00 AM 2.06 35.708 0.15 7.45 38.78 13.48
1/18/2021 4:45:00 AM 2.05 35.69 0.151 7.45 40.85 13.47
1/18/2021 5:00:00 AM 2.04 35.672 0.151 7.45 39.34 13.47
1/18/2021 5:15:00 AM 2.04 35.672 0.151 7.45 38.99 13.46
1/18/2021 5:30:00 AM 2.03 35.654 0.149 7.45 39.42 13.47
1/18/2021 5:45:00 AM 2.03 35.654 0.148 7.45 39.24 13.46
1/18/2021 6:00:00 AM 2.03 35.654 0.15 7.45 39.18 13.46
1/18/2021 6:15:00 AM 2.03 35.654 0.149 7.45 39.97 13.46
1/18/2021 6:30:00 AM 2.03 35.654 0.149 7.45 39.99 13.46
1/18/2021 6:45:00 AM 2.03 35.654 0.151 7.45 38.94 13.44
1/18/2021 7:00:00 AM 2.03 35.654 0.15 7.45 38.75 13.46
1/18/2021 7:15:00 AM 2.02 35.636 0.149 7.45 38.92 13.46
1/18/2021 7:30:00 AM 2.02 35.636 0.146 7.45 39.52 13.46
1/18/2021 7:45:00 AM 2.02 35.636 0.148 7.45 39.63 13.46
1/18/2021 8:00:00 AM 2.02 35.636 0.149 7.45 38.92 13.45
1/18/2021 8:15:00 AM 2.02 35.636 0.149 7.45 39.72 13.45
1/18/2021 8:30:00 AM 2.03 35.654 0.151 7.45 39.32 13.45
1/18/2021 8:45:00 AM 2.03 35.654 0.15 7.45 40.09 13.45
1/18/2021 9:00:00 AM 2.03 35.654 0.148 7.46 39.12 13.45
1/18/2021 9:15:00 AM 2.05 35.69 0.146 7.46 39.4 13.47
1/18/2021 9:30:00 AM 2.07 35.726 0.146 7.46 39.8 13.48
1/18/2021 9:45:00 AM 2.1 35.78 0.148 7.46 38.5 13.48
1/18/2021 10:00:00 AM 2.14 35.852 0.148 7.46 39.69 13.48
1/18/2021 10:15:00 AM 2.16 35.888 0.149 7.47 37.46 13.48
1/18/2021 10:30:00 AM 2.18 35.924 0.151 7.47 39.7 13.48
1/18/2021 10:45:00 AM 2.2 35.96 0.153 7.47 38.91 13.49
1/18/2021 11:00:00 AM 2.22 35.996 0.154 7.47 38.26 13.49
1/18/2021 11:15:00 AM 2.23 36.014 0.154 7.48 38.98 13.5
1/18/2021 11:30:00 AM 2.24 36.032 0.153 7.48 38.96 13.5
1/18/2021 11:45:00 AM 2.27 36.086 0.151 7.48 38.09 13.5
1/18/2021 12:00:00 PM 2.3 36.14 0.15 7.48 38.93 13.49
1/18/2021 12:15:00 PM 2.31 36.158 0.151 7.48 38.53 13.5
1/18/2021 12:30:00 PM 2.34 36.212 0.151 7.49 38.17 13.52
1/18/2021 12:45:00 PM 2.37 36.266 0.149 7.49 43.56 13.52
1/18/2021 1:00:00 PM 2.41 36.338 0.151 7.49 40.44 13.52
1/18/2021 1:15:00 PM 2.45 36.41 0.152 7.49 39.04 13.53
1/18/2021 1:30:00 PM 2.48 36.464 0.152 7.49 39.81 13.48
1/18/2021 1:45:00 PM 2.5 36.5 0.149 7.5 39.56 13.42
1/18/2021 2:00:00 PM 2.52 36.536 0.151 7.5 38.94 13.51
1/18/2021 2:15:00 PM 2.54 36.572 0.152 7.5 39.6 13.46
1/18/2021 2:30:00 PM 2.55 36.59 0.151 7.5 39.74 13.53
1/18/2021 2:45:00 PM 2.56 36.608 0.153 7.5 39.61 13.5
1/18/2021 3:00:00 PM 2.57 36.626 0.154 7.51 40.51 13.52
1/18/2021 3:15:00 PM 2.58 36.644 0.157 7.51 38.97 13.52
1/18/2021 3:30:00 PM 2.58 36.644 0.156 7.51 38.78 13.54
1/18/2021 3:45:00 PM 2.58 36.644 0.157 7.51 39.62 13.46
1/18/2021 4:00:00 PM 2.58 36.644 0.159 7.51 40.06 13.52
1/18/2021 4:15:00 PM 2.57 36.626 0.161 7.52 39.52 13.48
1/18/2021 4:30:00 PM 2.57 36.626 0.16 7.51 38.93 13.53
1/18/2021 4:45:00 PM 2.56 36.608 0.16 7.52 38.92 13.52
1/18/2021 5:00:00 PM 2.54 36.572 0.16 7.51 38.19 13.51
1/18/2021 5:15:00 PM 2.53 36.554 0.161 7.52 39.95 13.42
1/18/2021 5:30:00 PM 2.52 36.536 0.162 7.52 41.34 13.48
1/18/2021 5:45:00 PM 2.51 36.518 0.166 7.52 39.13 13.27
1/18/2021 6:00:00 PM 2.51 36.518 0.167 7.52 40.53 13.48
1/18/2021 6:15:00 PM 2.5 36.5 0.168 7.52 40.06 13.51
1/18/2021 6:30:00 PM 2.48 36.464 0.17 7.52 65.93 13.29
1/18/2021 6:45:00 PM 2.46 36.428 0.172 7.52 40.27 13.47
1/18/2021 7:00:00 PM 2.44 36.392 0.17 7.52 38.15 13.49
1/18/2021 7:15:00 PM 2.43 36.374 0.17 7.52 38.39 13.5
1/18/2021 7:30:00 PM 2.42 36.356 0.17 7.51 38.73 13.5
1/18/2021 7:45:00 PM 2.41 36.338 0.172 7.51 39.21 13.49
1/18/2021 8:00:00 PM 2.4 36.32 0.174 7.51 39.5 13.5
1/18/2021 8:15:00 PM 2.38 36.284 0.174 7.51 39.5 13.5
1/18/2021 8:30:00 PM 2.37 36.266 0.177 7.51 39.59 13.5
1/18/2021 8:45:00 PM 2.35 36.23 0.176 7.51 41.42 13.49
1/18/2021 9:00:00 PM 2.34 36.212 0.176 7.51 38.9 13.49
1/18/2021 9:15:00 PM 2.33 36.194 0.179 7.51 40.01 13.5
1/18/2021 9:30:00 PM 2.32 36.176 0.179 7.51 38.44 13.49
1/18/2021 9:45:00 PM 2.31 36.158 0.181 7.51 39.41 13.49
1/18/2021 10:00:00 PM 2.29 36.122 0.183 7.51 39.9 13.5
1/18/2021 10:15:00 PM 2.28 36.104 0.184 7.51 40.08 13.49
1/18/2021 10:30:00 PM 2.28 36.104 0.192 7.51 38.87 13.5
1/18/2021 10:45:00 PM 2.26 36.068 0.188 7.51 39.42 13.49
1/18/2021 11:00:00 PM 2.25 36.05 0.189 7.51 38.55 13.49
1/18/2021 11:15:00 PM 2.24 36.032 0.191 7.51 39.83 13.5
1/18/2021 11:30:00 PM 2.23 36.014 0.189 7.51 39.44 13.49
1/18/2021 11:45:00 PM 2.22 35.996 0.192 7.51 39.29 13.49
1/19/2021 12:00:00 AM 2.21 35.978 0.194 7.5 39.77 13.49
1/19/2021 12:15:00 AM 2.2 35.96 0.196 7.51 39.86 13.5
1/19/2021 12:30:00 AM 2.19 35.942 0.195 7.51 40.12 13.5
1/19/2021 12:45:00 AM 2.19 35.942 0.192 7.5 39.81 13.49
1/19/2021 1:00:00 AM 2.18 35.924 0.193 7.5 40.94 13.49
1/19/2021 1:15:00 AM 2.17 35.906 0.194 7.51 39.11 13.5
1/19/2021 1:30:00 AM 2.17 35.906 0.192 7.5 54.17 13.5
1/19/2021 1:45:00 AM 2.15 35.87 0.197 7.5 39.15 13.5
1/19/2021 2:00:00 AM 2.15 35.87 0.194 7.51 39 13.51
1/19/2021 2:15:00 AM 2.14 35.852 0.199 7.5 43.41 13.5
1/19/2021 2:30:00 AM 2.13 35.834 0.199 7.51 39.13 13.5
1/19/2021 2:45:00 AM 2.13 35.834 0.197 7.5 79.14 13.51
1/19/2021 3:00:00 AM 2.13 35.834 0.199 7.5 74.09 13.42
1/19/2021 3:15:00 AM 2.13 35.834 0.198 7.51 72.31 13.22
1/19/2021 3:30:00 AM 2.12 35.816 0.198 7.51 99.92 13.31
1/19/2021 3:45:00 AM 2.11 35.798 0.197 7.51 1127.46 13.31
1/19/2021 4:00:00 AM 2.11 35.798 0.197 7.51 280.3 13.4
1/19/2021 4:15:00 AM 2.1 35.78 0.197 7.51 417.94 13.49
1/19/2021 4:30:00 AM 2.09 35.762 0.192 7.51 245.58 13.19
1/19/2021 4:45:00 AM 2.08 35.744 0.194 7.52 224.2 13.48
1/19/2021 5:00:00 AM 2.07 35.726 0.203 7.52 1237.53 13.52
1/19/2021 5:15:00 AM 2.06 35.708 0.208 7.52 1212.94 13.49
1/19/2021 5:30:00 AM 2.05 35.69 0.207 7.52 805.98 13.03
1/19/2021 5:45:00 AM 2.04 35.672 0.206 7.52 292.31 13.06
1/19/2021 6:00:00 AM 2.03 35.654 0.209 7.52 148.53 12.92
1/19/2021 6:15:00 AM 2.02 35.636 0.211 7.52 1281.36 13.5
1/19/2021 6:30:00 AM 2.01 35.618 0.212 7.52 249.79 13.5
1/19/2021 6:45:00 AM 2 35.6 0.216 7.52 958.14 13.51
1/19/2021 7:00:00 AM 1.99 35.582 0.215 7.52 1204.83 13.54
1/19/2021 7:15:00 AM 1.97 35.546 0.212 7.52 41.26 13.55
1/19/2021 7:30:00 AM 1.96 35.528 0.215 7.52 36.82 13.55
1/19/2021 7:45:00 AM 1.95 35.51 0.216 7.51 38.86 13.54
1/19/2021 8:00:00 AM 1.94 35.492 0.216 7.51 38.28 13.56
1/19/2021 8:15:00 AM 1.93 35.474 0.216 7.51 37.21 13.56
1/19/2021 8:30:00 AM 1.93 35.474 0.213 7.51 40.06 13.57
1/19/2021 8:45:00 AM 1.93 35.474 0.211 7.51 37.55 13.56
1/19/2021 9:00:00 AM 1.93 35.474 0.208 7.51 36.72 13.57
1/19/2021 9:15:00 AM 1.94 35.492 0.206 7.51 36.84 13.58
1/19/2021 9:30:00 AM 1.94 35.492 0.21 7.51 37.86 13.59
1/19/2021 9:45:00 AM 1.95 35.51 0.211 7.51 38.07 13.6
1/19/2021 10:00:00 AM 1.96 35.528 0.213 7.51 37.61 13.61
1/19/2021 10:15:00 AM 1.98 35.564 0.21 7.52 37.07 13.63
1/19/2021 10:30:00 AM 2 35.6 0.212 7.52 37.8 13.62
1/19/2021 10:45:00 AM 2.03 35.654 0.213 7.52 38.74 13.64
1/19/2021 11:00:00 AM 2.07 35.726 0.216 7.52 38.78 13.62
1/19/2021 11:15:00 AM 2.1 35.78 0.217 7.52 39.52 13.65
1/19/2021 11:30:00 AM 2.14 35.852 0.217 7.52 38.11 13.66
1/19/2021 11:45:00 AM 2.17 35.906 0.218 7.52 38.77 13.67
1/19/2021 12:00:00 PM 2.21 35.978 0.216 7.52 39.98 13.65
1/19/2021 12:15:00 PM 2.25 36.05 0.218 7.53 38.11 13.69
1/19/2021 12:30:00 PM 2.29 36.122 0.218 7.53 38.19 13.68
1/19/2021 12:45:00 PM 2.33 36.194 0.217 7.53 38.47 13.69
1/19/2021 1:00:00 PM 2.35 36.23 0.214 7.53 38.04 13.7
1/19/2021 1:15:00 PM 2.37 36.266 0.215 7.53 38.4 13.68
1/19/2021 1:30:00 PM 2.39 36.302 0.214 7.53 38.16 13.64
1/19/2021 1:45:00 PM 2.41 36.338 0.216 7.53 38 13.7
1/19/2021 2:00:00 PM 2.43 36.374 0.21 7.53 38.23 13.7
1/19/2021 2:15:00 PM 2.44 36.392 0.217 7.53 38.22 13.67
1/19/2021 2:30:00 PM 2.46 36.428 0.22 7.53 38.61 13.7
1/19/2021 2:45:00 PM 2.48 36.464 0.222 7.54 38.87 13.65
1/19/2021 3:00:00 PM 2.48 36.464 0.222 7.54 37.43 13.7
1/19/2021 3:15:00 PM 2.49 36.482 0.221 7.54 39.96 13.7
1/19/2021 3:30:00 PM 2.49 36.482 0.222 7.54 38.67 13.71
1/19/2021 3:45:00 PM 2.49 36.482 0.218 7.54 37.21 13.7
1/19/2021 4:00:00 PM 2.5 36.5 0.218 7.54 38.95 13.7
1/19/2021 4:15:00 PM 2.5 36.5 0.215 7.54 36.71 13.71
1/19/2021 4:30:00 PM 2.48 36.464 0.215 7.54 39.1 13.71
1/19/2021 4:45:00 PM 2.47 36.446 0.211 7.55 38.73 13.71
1/19/2021 5:00:00 PM 2.46 36.428 0.209 7.54 38.69 13.7
1/19/2021 5:15:00 PM 2.45 36.41 0.206 7.55 38.1 13.7
1/19/2021 5:30:00 PM 2.43 36.374 0.209 7.55 37.09 13.69
1/19/2021 5:45:00 PM 2.4 36.32 0.207 7.55 38.46 13.69
1/19/2021 6:00:00 PM 2.38 36.284 0.211 7.54 38.31 13.68
1/19/2021 6:15:00 PM 2.36 36.248 0.213 7.54 39.85 13.68
1/19/2021 6:30:00 PM 2.33 36.194 0.209 7.54 38.93 13.68
1/19/2021 6:45:00 PM 2.3 36.14 0.211 7.54 38.99 13.68
1/19/2021 7:00:00 PM 2.27 36.086 0.21 7.54 38.5 13.68
1/19/2021 7:15:00 PM 2.24 36.032 0.208 7.54 39.85 13.68
1/19/2021 7:30:00 PM 2.22 35.996 0.21 7.54 37.03 13.68
1/19/2021 7:45:00 PM 2.2 35.96 0.203 7.54 38.31 13.68
1/19/2021 8:00:00 PM 2.17 35.906 0.208 7.54 38.13 13.68
1/19/2021 8:15:00 PM 2.16 35.888 0.204 7.54 39.65 13.67
1/19/2021 8:30:00 PM 2.14 35.852 0.204 7.54 38.72 13.68
1/19/2021 8:45:00 PM 2.13 35.834 0.203 7.54 38.42 13.67
1/19/2021 9:00:00 PM 2.11 35.798 0.203 7.53 38.56 13.68
1/19/2021 9:15:00 PM 2.1 35.78 0.202 7.53 39.15 13.66
1/19/2021 9:30:00 PM 2.08 35.744 0.2 7.53 38.95 13.67
1/19/2021 9:45:00 PM 2.06 35.708 0.203 7.53 39.75 13.66
1/19/2021 10:00:00 PM 2.05 35.69 0.202 7.53 39.03 13.66
1/19/2021 10:15:00 PM 2.04 35.672 0.204 7.53 38.18 13.66
1/19/2021 10:30:00 PM 2.03 35.654 0.205 7.53 38.89 13.66
1/19/2021 10:45:00 PM 2.02 35.636 0.205 7.53 39 13.66
1/19/2021 11:00:00 PM 2.01 35.618 0.202 7.53 38.99 13.65
1/19/2021 11:15:00 PM 2 35.6 0.204 7.53 38.41 13.65
1/19/2021 11:30:00 PM 2 35.6 0.203 7.52 39.11 13.65
1/19/2021 11:45:00 PM 1.99 35.582 0.195 7.52 41.71 13.65
1/20/2021 12:00:00 AM 1.98 35.564 0.196 7.52 39.84 13.65
1/20/2021 12:15:00 AM 1.98 35.564 0.196 7.52 39.19 13.64
1/20/2021 12:30:00 AM 1.97 35.546 0.2 7.52 40.23 13.65
1/20/2021 12:45:00 AM 1.96 35.528 0.204 7.52 39.04 13.64
1/20/2021 1:00:00 AM 1.96 35.528 0.196 7.52 38.41 13.64
1/20/2021 1:15:00 AM 1.95 35.51 0.189 7.52 38.03 13.64
1/20/2021 1:30:00 AM 1.94 35.492 0.202 7.52 41.12 13.64
1/20/2021 1:45:00 AM 1.94 35.492 0.209 7.52 37.81 13.63
1/20/2021 2:00:00 AM 1.93 35.474 0.199 7.52 38.69 13.64
1/20/2021 2:15:00 AM 1.92 35.456 0.207 7.52 38.41 13.64
1/20/2021 2:30:00 AM 1.91 35.438 0.207 7.52 38.12 13.64
1/20/2021 2:45:00 AM 1.91 35.438 0.206 7.52 37.94 13.64
1/20/2021 3:00:00 AM 1.9 35.42 0.206 7.52 38.92 13.64
1/20/2021 3:15:00 AM 1.89 35.402 0.203 7.52 38.21 13.64
1/20/2021 3:30:00 AM 1.88 35.384 0.207 7.52 38.22 13.64
1/20/2021 3:45:00 AM 1.88 35.384 0.205 7.52 40.61 13.64
1/20/2021 4:00:00 AM 1.87 35.366 0.207 7.52 136.34 13.49
1/20/2021 4:15:00 AM 1.86 35.348 0.207 7.53 38.65 13.64
1/20/2021 4:30:00 AM 1.86 35.348 0.21 7.53 37.99 13.64
1/20/2021 4:45:00 AM 1.85 35.33 0.213 7.53 37.74 13.65
1/20/2021 5:00:00 AM 1.84 35.312 0.217 7.53 38.45 13.64
1/20/2021 5:15:00 AM 1.83 35.294 0.216 7.53 39.48 13.65
1/20/2021 5:30:00 AM 1.81 35.258 0.221 7.53 38.92 13.64
1/20/2021 5:45:00 AM 1.77 35.186 0.211 7.53 37.43 13.63
1/20/2021 6:00:00 AM 1.76 35.168 0.215 7.53 2296.61 13.61
1/20/2021 6:15:00 AM 1.74 35.132 0.213 7.53 38.13 13.63
1/20/2021 6:30:00 AM 1.72 35.096 0.218 7.53 38.46 13.56
1/20/2021 6:45:00 AM 1.71 35.078 0.217 7.53 37.42 13.65
1/20/2021 7:00:00 AM 1.71 35.078 0.22 7.54 38.9 13.65
1/20/2021 7:15:00 AM 1.69 35.042 0.217 7.54 38.29 13.65
1/20/2021 7:30:00 AM 1.69 35.042 0.218 7.54 37.9 13.65
1/20/2021 7:45:00 AM 1.67 35.006 0.214 7.54 37.46 13.65
1/20/2021 8:00:00 AM 1.66 34.988 0.215 7.54 38.08 13.66
1/20/2021 8:15:00 AM 1.65 34.97 0.209 7.54 37.83 13.66
1/20/2021 8:30:00 AM 1.62 34.916 0.213 7.54 38.23 13.65
1/20/2021 8:45:00 AM 1.58 34.844 0.207 7.54 39.27 13.66
1/20/2021 9:00:00 AM 1.56 34.808 0.205 7.54 39.3 13.66
1/20/2021 9:15:00 AM 1.53 34.754 0.207 7.55 39.14 13.67
1/20/2021 9:30:00 AM 1.51 34.718 0.204 7.55 37.56 13.68
1/20/2021 9:45:00 AM 1.51 34.718 0.203 7.55 38.83 13.68
1/20/2021 10:00:00 AM 1.54 34.772 0.206 7.55 38.52 13.71
1/20/2021 10:15:00 AM 1.54 34.772 0.206 7.55 37.78 13.67
1/20/2021 10:30:00 AM 1.57 34.826 0.206 7.56 37.88 13.74
1/20/2021 10:45:00 AM 1.62 34.916 0.211 7.56 37.91 13.77
1/20/2021 11:00:00 AM 1.66 34.988 0.215 7.56 37.98 13.76
1/20/2021 11:15:00 AM 1.68 35.024 0.215 7.56 38.36 13.78
1/20/2021 11:30:00 AM 1.72 35.096 0.22 7.57 38.17 13.79
1/20/2021 11:45:00 AM 1.74 35.132 0.222 7.57 39.47 13.79
1/20/2021 12:00:00 PM 1.74 35.132 0.223 7.57 37.79 13.79
1/20/2021 12:15:00 PM 1.76 35.168 0.225 7.57 38.32 13.8
1/20/2021 12:30:00 PM 1.76 35.168 0.22 7.57 38.01 13.81
1/20/2021 12:45:00 PM 1.77 35.186 0.22 7.57 37.32 13.82
1/20/2021 1:00:00 PM 1.76 35.168 0.216 7.58 37.36 13.82
1/20/2021 1:15:00 PM 1.78 35.204 0.216 7.58 38.22 13.83
1/20/2021 1:30:00 PM 1.8 35.24 0.214 7.58 37.97 13.84
1/20/2021 1:45:00 PM 1.82 35.276 0.21 7.58 37.15 13.84
1/20/2021 2:00:00 PM 1.82 35.276 0.213 7.58 38.56 13.85
1/20/2021 2:15:00 PM 1.85 35.33 0.218 7.59 41.27 13.86
1/20/2021 2:30:00 PM 1.86 35.348 0.219 7.59 37.8 13.87
1/20/2021 2:45:00 PM 1.87 35.366 0.217 7.59 37.77 13.86
1/20/2021 3:00:00 PM 1.88 35.384 0.218 7.59 37.38 13.87
1/20/2021 3:15:00 PM 1.9 35.42 0.213 7.59 37.06 13.87
1/20/2021 3:30:00 PM 1.9 35.42 0.206 7.59 37.96 13.87
1/20/2021 3:45:00 PM 1.89 35.402 0.194 7.59 37.69 13.88
1/20/2021 4:00:00 PM 1.87 35.366 0.199 7.59 38.1 13.88
1/20/2021 4:15:00 PM 1.86 35.348 0.197 7.59 37.9 13.88
1/20/2021 4:30:00 PM 1.83 35.294 0.195 7.59 36.42 13.88
1/20/2021 4:45:00 PM 1.79 35.222 0.195 7.59 37.66 13.88
1/20/2021 5:00:00 PM 1.76 35.168 0.199 7.59 37.52 13.89
1/20/2021 5:15:00 PM 1.71 35.078 0.198 7.59 37.56 13.89
1/20/2021 5:30:00 PM 1.67 35.006 0.2 7.59 37.74 13.89
1/20/2021 5:45:00 PM 1.64 34.952 0.201 7.59 38.1 13.88
1/20/2021 6:00:00 PM 1.61 34.898 0.203 7.59 37.6 13.89
1/20/2021 6:15:00 PM 1.57 34.826 0.2 7.59 37.86 13.88
1/20/2021 6:30:00 PM 1.55 34.79 0.198 7.59 38.4 13.89
1/20/2021 6:45:00 PM 1.53 34.754 0.2 7.59 37.27 13.86
1/20/2021 7:00:00 PM 1.5 34.7 0.2 7.58 36.91 13.89
1/20/2021 7:15:00 PM 1.48 34.664 0.201 7.58 37.55 13.89
1/20/2021 7:30:00 PM 1.46 34.628 0.204 7.58 38.54 13.89
1/20/2021 7:45:00 PM 1.44 34.592 0.206 7.58 38.11 13.88
1/20/2021 8:00:00 PM 1.43 34.574 0.204 7.58 37.1 13.88
1/20/2021 8:15:00 PM 1.41 34.538 0.207 7.58 37.28 13.89
1/20/2021 8:30:00 PM 1.4 34.52 0.206 7.58 36.7 13.88
1/20/2021 8:45:00 PM 1.38 34.484 0.206 7.58 36.79 13.89
1/20/2021 9:00:00 PM 1.37 34.466 0.209 7.57 37.29 13.89
1/20/2021 9:15:00 PM 1.36 34.448 0.209 7.57 37.43 13.88
1/20/2021 9:30:00 PM 1.35 34.43 0.206 7.57 36.7 13.88
1/20/2021 9:45:00 PM 1.33 34.394 0.211 7.57 38.05 13.88
1/20/2021 10:00:00 PM 1.33 34.394 0.212 7.57 37.49 13.89
1/20/2021 10:15:00 PM 1.31 34.358 0.211 7.57 37.25 13.89
1/20/2021 10:30:00 PM 1.29 34.322 0.211 7.57 38.02 13.89
1/20/2021 10:45:00 PM 1.27 34.286 0.215 7.57 37.66 13.89
1/20/2021 11:00:00 PM 1.24 34.232 0.212 7.57 50.32 13.9
1/20/2021 11:15:00 PM 1.22 34.196 0.216 7.57 38.3 13.9
1/20/2021 11:30:00 PM 1.2 34.16 0.216 7.57 37.05 13.9
1/20/2021 11:45:00 PM 1.17 34.106 0.217 7.57 37.11 13.91
1/21/2021 12:00:00 AM 1.15 34.07 0.216 7.56 37.25 13.91
1/21/2021 12:15:00 AM 1.11 33.998 0.215 7.56 37.43 13.92
1/21/2021 12:30:00 AM 1.08 33.944 0.22 7.57 37.16 13.93
1/21/2021 12:45:00 AM 1.05 33.89 0.217 7.57 37.35 13.93
1/21/2021 1:00:00 AM 1.03 33.854 0.22 7.56 37.85 13.94
1/21/2021 1:15:00 AM 1 33.8 0.217 7.56 36.8 13.92
1/21/2021 1:30:00 AM 0.97 33.746 0.216 7.56 36.74 13.94
1/21/2021 1:45:00 AM 0.93 33.674 0.217 7.56 37.27 13.95
1/21/2021 2:00:00 AM 0.89 33.602 0.216 7.57 37.35 13.97
1/21/2021 2:15:00 AM 0.85 33.53 0.217 7.57 36.58 13.96
1/21/2021 2:30:00 AM 0.82 33.476 0.222 7.57 38.72 13.97
1/21/2021 2:45:00 AM 0.78 33.404 0.218 7.57 37.92 13.97
1/21/2021 3:00:00 AM 0.74 33.332 0.214 7.57 38.06 13.98
1/21/2021 3:15:00 AM 0.71 33.278 0.216 7.57 38.18 14
1/21/2021 3:30:00 AM 0.67 33.206 0.218 7.57 37.23 14.01
1/21/2021 3:45:00 AM 0.63 33.134 0.221 7.57 36.99 14.01
1/21/2021 4:00:00 AM 0.6 33.08 0.222 7.57 36.66 14.02
1/21/2021 4:15:00 AM 0.58 33.044 0.227 7.57 36.83 14.03
1/21/2021 4:30:00 AM 0.56 33.008 0.222 7.57 36.97 14.03
1/21/2021 4:45:00 AM 0.52 32.936 0.226 7.57 37.31 14.03
1/21/2021 5:00:00 AM 0.51 32.918 0.223 7.57 37.33 14.04
1/21/2021 5:15:00 AM 0.5 32.9 0.22 7.57 37.32 14.05
1/21/2021 5:30:00 AM 0.48 32.864 0.23 7.57 37.39 14.03
1/21/2021 5:45:00 AM 0.48 32.864 0.222 7.57 37.08 14.06
1/21/2021 6:00:00 AM 0.47 32.846 0.225 7.57 36.64 14.06
1/21/2021 6:15:00 AM 0.47 32.846 0.225 7.57 36.45 14.05
1/21/2021 6:30:00 AM 0.47 32.846 0.222 7.57 36.55 14.05
1/21/2021 6:45:00 AM 0.47 32.846 0.221 7.57 36.91 14.06
1/21/2021 7:00:00 AM 0.47 32.846 0.221 7.57 36.74 14.05
1/21/2021 7:15:00 AM 0.46 32.828 0.223 7.57 36.9 14.06
1/21/2021 7:30:00 AM 0.46 32.828 0.227 7.57 36.56 14.06
1/21/2021 7:45:00 AM 0.45 32.81 0.226 7.57 37.13 14.05
1/21/2021 8:00:00 AM 0.45 32.81 0.225 7.57 38.63 14.05
1/21/2021 8:15:00 AM 0.45 32.81 0.225 7.57 36.45 14.05
1/21/2021 8:30:00 AM 0.46 32.828 0.223 7.57 37.54 14.05
1/21/2021 8:45:00 AM 0.46 32.828 0.224 7.57 36.88 14.06
1/21/2021 9:00:00 AM 0.48 32.864 0.223 7.57 37.11 14.04
1/21/2021 9:15:00 AM 0.49 32.882 0.222 7.58 37.43 14.05
1/21/2021 9:30:00 AM 0.51 32.918 0.226 7.58 38.68 14.06
1/21/2021 9:45:00 AM 0.54 32.972 0.22 7.58 36.95 14.02
1/21/2021 10:00:00 AM 0.56 33.008 0.219 7.58 36.65 14.06
1/21/2021 10:15:00 AM 0.59 33.062 0.225 7.58 38.13 14.05
1/21/2021 10:30:00 AM 0.62 33.116 0.224 7.58 37.81 14.06
1/21/2021 10:45:00 AM 0.65 33.17 0.223 7.58 36.78 14.09
1/21/2021 11:00:00 AM 0.68 33.224 0.223 7.58 37.66 14.1
1/21/2021 11:15:00 AM 0.71 33.278 0.225 7.58 37.38 14.09
1/21/2021 11:30:00 AM 0.74 33.332 0.229 7.58 37 14.08
1/21/2021 11:45:00 AM 0.78 33.404 0.229 7.58 37.46 14.1
1/21/2021 12:00:00 PM 0.82 33.476 0.227 7.59 37.53 14.08
1/21/2021 12:15:00 PM 0.86 33.548 0.226 7.59 37.9 14.04
1/21/2021 12:30:00 PM 0.91 33.638 0.235 7.58 37.32 14.11
1/21/2021 12:45:00 PM 0.95 33.71 0.235 7.59 37.75 14.11
1/21/2021 1:00:00 PM 0.97 33.746 0.236 7.58 38.46 14.11
1/21/2021 1:15:00 PM 1 33.8 0.234 7.58 36.88 14.07
1/21/2021 1:30:00 PM 1.02 33.836 0.232 7.58 37.49 14.1
1/21/2021 1:45:00 PM 1.04 33.872 0.229 7.58 37.97 14.09
1/21/2021 2:00:00 PM 1.05 33.89 0.228 7.58 37.12 14.12
1/21/2021 2:15:00 PM 1.07 33.926 0.228 7.58 38.5 14.04
1/21/2021 2:30:00 PM 1.1 33.98 0.232 7.58 38.46 14.03
1/21/2021 2:45:00 PM 1.11 33.998 0.23 7.58 38.88 14.06
1/21/2021 3:00:00 PM 1.12 34.016 0.232 7.58 39.06 13.99
1/21/2021 3:15:00 PM 1.13 34.034 0.233 7.58 38.19 13.84
1/21/2021 3:30:00 PM 1.15 34.07 0.231 7.58 38.12 14.09
1/21/2021 3:45:00 PM 1.16 34.088 0.231 7.59 39.36 14.08
1/21/2021 4:00:00 PM 1.18 34.124 0.23 7.58 38.49 13.96
1/21/2021 4:15:00 PM 1.2 34.16 0.227 7.58 38.25 13.91
1/21/2021 4:30:00 PM 1.21 34.178 0.225 7.58 37.96 14.07
1/21/2021 4:45:00 PM 1.22 34.196 0.225 7.58 38.08 14
1/21/2021 5:00:00 PM 1.23 34.214 0.226 7.58 39.56 14.04
1/21/2021 5:15:00 PM 1.23 34.214 0.227 7.58 37.97 13.86
1/21/2021 5:30:00 PM 1.22 34.196 0.227 7.58 39.1 13.96
1/21/2021 5:45:00 PM 1.22 34.196 0.227 7.58 38.53 13.97
1/21/2021 6:00:00 PM 1.21 34.178 0.23 7.57 38.83 13.94
1/21/2021 6:15:00 PM 1.2 34.16 0.228 7.57 37.87 14.03
1/21/2021 6:30:00 PM 1.2 34.16 0.228 7.57 39.31 14.01
1/21/2021 6:45:00 PM 1.19 34.142 0.226 7.57 37.27 14
1/21/2021 7:00:00 PM 1.19 34.142 0.23 7.57 38.23 14.01
1/21/2021 7:15:00 PM 1.19 34.142 0.231 7.57 38.44 13.99
1/21/2021 7:30:00 PM 1.2 34.16 0.229 7.57 38.21 13.99
1/21/2021 7:45:00 PM 1.2 34.16 0.232 7.57 38.55 13.98
1/21/2021 8:00:00 PM 1.2 34.16 0.231 7.56 38.08 13.98
1/21/2021 8:15:00 PM 1.21 34.178 0.232 7.56 37.87 13.96
1/21/2021 8:30:00 PM 1.22 34.196 0.233 7.56 37.52 13.96
1/21/2021 8:45:00 PM 1.23 34.214 0.235 7.56 38.63 13.95
1/21/2021 9:00:00 PM 1.24 34.232 0.235 7.56 38.48 13.93
1/21/2021 9:15:00 PM 1.24 34.232 0.23 7.56 38.2 13.93
1/21/2021 9:30:00 PM 1.25 34.25 0.235 7.56 37.58 13.91
1/21/2021 9:45:00 PM 1.26 34.268 0.236 7.56 38.87 13.9
1/21/2021 10:00:00 PM 1.26 34.268 0.233 7.56 38.58 13.9
1/21/2021 10:15:00 PM 1.27 34.286 0.232 7.55 37.81 13.89
1/21/2021 10:30:00 PM 1.27 34.286 0.231 7.55 38.17 13.89
1/21/2021 10:45:00 PM 1.27 34.286 0.229 7.55 38.68 13.87
1/21/2021 11:00:00 PM 1.26 34.268 0.229 7.55 37.4 13.88
1/21/2021 11:15:00 PM 1.24 34.232 0.228 7.55 38.52 13.87
1/21/2021 11:30:00 PM 1.23 34.214 0.23 7.55 38.24 13.86
1/21/2021 11:45:00 PM 1.22 34.196 0.229 7.55 37.79 13.86
1/22/2021 12:00:00 AM 1.2 34.16 0.231 7.55 38.47 13.85
1/22/2021 12:15:00 AM 1.17 34.106 0.23 7.55 38.89 13.85
1/22/2021 12:30:00 AM 1.15 34.07 0.23 7.55 38.39 13.86
1/22/2021 12:45:00 AM 1.14 34.052 0.228 7.55 38.33 13.85
1/22/2021 1:00:00 AM 1.12 34.016 0.229 7.55 37.56 13.85
1/22/2021 1:15:00 AM 1.1 33.98 0.225 7.55 38.07 13.86
1/22/2021 1:30:00 AM 1.08 33.944 0.226 7.55 37.54 13.85
1/22/2021 1:45:00 AM 1.07 33.926 0.224 7.55 37.14 13.86
1/22/2021 2:00:00 AM 1.06 33.908 0.228 7.55 39.52 13.86
1/22/2021 2:15:00 AM 1.05 33.89 0.226 7.55 38.26 13.86
1/22/2021 2:30:00 AM 1.03 33.854 0.228 7.55 38.34 13.85
1/22/2021 2:45:00 AM 1.02 33.836 0.225 7.55 37.57 13.86
1/22/2021 3:00:00 AM 1.01 33.818 0.229 7.55 37.13 13.86
1/22/2021 3:15:00 AM 1 33.8 0.23 7.55 39.17 13.85
1/22/2021 3:30:00 AM 0.99 33.782 0.231 7.55 37.54 13.85
1/22/2021 3:45:00 AM 0.99 33.782 0.231 7.55 38.35 13.85
1/22/2021 4:00:00 AM 0.99 33.782 0.231 7.55 37.77 13.85
1/22/2021 4:15:00 AM 0.99 33.782 0.233 7.55 37.91 13.85
1/22/2021 4:30:00 AM 0.99 33.782 0.235 7.55 37.94 13.84
1/22/2021 4:45:00 AM 0.99 33.782 0.235 7.55 38.87 13.84
1/22/2021 5:00:00 AM 0.99 33.782 0.233 7.55 39.05 13.84
1/22/2021 5:15:00 AM 1 33.8 0.233 7.55 38.47 13.84
1/22/2021 5:30:00 AM 1 33.8 0.231 7.55 38.48 13.83
1/22/2021 5:45:00 AM 1.01 33.818 0.233 7.55 37.65 13.83
1/22/2021 6:00:00 AM 1.01 33.818 0.235 7.55 38.15 13.83
1/22/2021 6:15:00 AM 1.01 33.818 0.232 7.55 39.57 13.82
1/22/2021 6:30:00 AM 1.01 33.818 0.232 7.55 38.34 13.82
1/22/2021 6:45:00 AM 1.01 33.818 0.231 7.55 39.9 13.82
1/22/2021 7:00:00 AM 1.01 33.818 0.232 7.55 38.11 13.81
1/22/2021 7:15:00 AM 1.02 33.836 0.233 7.55 37.96 13.81
1/22/2021 7:30:00 AM 1.02 33.836 0.235 7.55 38.75 13.8
1/22/2021 7:45:00 AM 1.03 33.854 0.235 7.56 38 13.8
1/22/2021 8:00:00 AM 1.04 33.872 0.234 7.56 39.14 13.79
1/22/2021 8:15:00 AM 1.05 33.89 0.235 7.56 37.56 13.79
1/22/2021 8:30:00 AM 1.06 33.908 0.235 7.56 38.12 13.8
1/22/2021 8:45:00 AM 1.08 33.944 0.234 7.56 38.08 13.8
1/22/2021 9:00:00 AM 1.1 33.98 0.235 7.56 37.81 13.8
1/22/2021 9:15:00 AM 1.12 34.016 0.23 7.56 37.3 13.8
1/22/2021 9:30:00 AM 1.14 34.052 0.232 7.56 37.36 13.81
1/22/2021 9:45:00 AM 1.17 34.106 0.233 7.57 37.47 13.81
1/22/2021 10:00:00 AM 1.2 34.16 0.238 7.57 37.16 13.82
1/22/2021 10:15:00 AM 1.23 34.214 0.236 7.57 37.7 13.81
1/22/2021 10:30:00 AM 1.26 34.268 0.239 7.57 37.88 13.83
1/22/2021 10:45:00 AM 1.28 34.304 0.243 7.58 37.7 13.82
1/22/2021 11:00:00 AM 1.34 34.412 0.241 7.58 37.45 13.85
1/22/2021 11:15:00 AM 1.4 34.52 0.241 7.58 37.69 13.85
1/22/2021 11:30:00 AM 1.45 34.61 0.237 7.59 38.14 13.86
1/22/2021 11:45:00 AM 1.48 34.664 0.241 7.59 37.75 13.86
1/22/2021 12:00:00 PM 1.5 34.7 0.24 7.59 37.02 13.85
1/22/2021 12:15:00 PM 1.54 34.772 0.244 7.6 37.14 13.86
1/22/2021 12:30:00 PM 1.58 34.844 0.242 7.59 37.38 13.87
1/22/2021 12:45:00 PM 1.6 34.88 0.242 7.6 38.19 13.87
1/22/2021 1:00:00 PM 1.64 34.952 0.242 7.61 37.47 13.87
1/22/2021 1:15:00 PM 1.67 35.006 0.239 7.61 37.68 13.88
1/22/2021 1:30:00 PM 1.64 34.952 0.238 7.61 37.77 13.87
1/22/2021 1:45:00 PM 1.66 34.988 0.237 7.61 38.35 13.87
1/22/2021 2:00:00 PM 1.66 34.988 0.237 7.61 37.35 13.87
1/22/2021 2:15:00 PM 1.65 34.97 0.235 7.61 37.09 13.86
1/22/2021 2:30:00 PM 1.66 34.988 0.236 7.61 37.36 13.87
1/22/2021 2:45:00 PM 1.66 34.988 0.236 7.62 37.4 13.88
1/22/2021 3:00:00 PM 1.68 35.024 0.235 7.62 38.33 13.89
1/22/2021 3:15:00 PM 1.69 35.042 0.235 7.62 37.81 13.88
1/22/2021 3:30:00 PM 1.68 35.024 0.239 7.62 38 13.88
1/22/2021 3:45:00 PM 1.68 35.024 0.238 7.62 38.05 13.88
1/22/2021 4:00:00 PM 1.68 35.024 0.238 7.62 37.88 13.87
1/22/2021 4:15:00 PM 1.67 35.006 0.238 7.62 37.52 13.88
1/22/2021 4:30:00 PM 1.67 35.006 0.241 7.62 37.76 13.87
1/22/2021 4:45:00 PM 1.66 34.988 0.24 7.62 38.1 13.86
1/22/2021 5:00:00 PM 1.64 34.952 0.239 7.61 38.27 13.85
1/22/2021 5:15:00 PM 1.62 34.916 0.238 7.62 38.51 13.86
1/22/2021 5:30:00 PM 1.61 34.898 0.238 7.62 40.19 13.84
1/22/2021 5:45:00 PM 1.6 34.88 0.24 7.61 39.57 13.83
1/22/2021 6:00:00 PM 1.58 34.844 0.236 7.62 38.79 13.84
1/22/2021 6:15:00 PM 1.57 34.826 0.236 7.61 38.29 13.83
1/22/2021 6:30:00 PM 1.55 34.79 0.235 7.61 38.29 13.82
1/22/2021 6:45:00 PM 1.54 34.772 0.235 7.61 37.82 13.82
1/22/2021 7:00:00 PM 1.52 34.736 0.234 7.61 38.3 13.81
1/22/2021 7:15:00 PM 1.51 34.718 0.231 7.61 37.92 13.79
1/22/2021 7:30:00 PM 1.5 34.7 0.232 7.61 37.98 13.81
1/22/2021 7:45:00 PM 1.48 34.664 0.232 7.61 37.96 13.78
1/22/2021 8:00:00 PM 1.46 34.628 0.233 7.6 37.13 13.78
1/22/2021 8:15:00 PM 1.45 34.61 0.235 7.6 38.56 13.78
1/22/2021 8:30:00 PM 1.43 34.574 0.236 7.6 37.52 13.76
1/22/2021 8:45:00 PM 1.41 34.538 0.227 7.6 37.32 13.78
1/22/2021 9:00:00 PM 1.39 34.502 0.234 7.6 37.28 13.78
1/22/2021 9:15:00 PM 1.37 34.466 0.234 7.6 38.02 13.78
1/22/2021 9:30:00 PM 1.35 34.43 0.232 7.6 41.64 13.77
1/22/2021 9:45:00 PM 1.33 34.394 0.236 7.6 37.62 13.77
1/22/2021 10:00:00 PM 1.3 34.34 0.237 7.6 38.94 13.79
1/22/2021 10:15:00 PM 1.29 34.322 0.236 7.6 37.21 13.78
1/22/2021 10:30:00 PM 1.27 34.286 0.234 7.59 38.28 13.78
1/22/2021 10:45:00 PM 1.24 34.232 0.234 7.59 39.25 13.79
1/22/2021 11:00:00 PM 1.21 34.178 0.236 7.59 38.44 13.78
1/22/2021 11:15:00 PM 1.18 34.124 0.237 7.59 39.68 13.79
1/22/2021 11:30:00 PM 1.16 34.088 0.235 7.59 63.1 13.79
1/22/2021 11:45:00 PM 1.13 34.034 0.234 7.59 38.31 13.8
1/23/2021 12:00:00 AM 1.1 33.98 0.236 7.59 38.45 13.79
1/23/2021 12:15:00 AM 1.08 33.944 0.234 7.59 38.92 13.73
1/23/2021 12:30:00 AM 1.05 33.89 0.234 7.59 39.5 13.8
1/23/2021 12:45:00 AM 1.03 33.854 0.233 7.59 61.75 13.81
1/23/2021 1:00:00 AM 1 33.8 0.234 7.59 34.99 13.81
1/23/2021 1:15:00 AM 0.98 33.764 0.232 7.59 37.45 13.8
1/23/2021 1:30:00 AM 0.96 33.728 0.231 7.59 37.68 13.8
1/23/2021 1:45:00 AM 0.93 33.674 0.23 7.59 38.02 13.82
1/23/2021 2:00:00 AM 0.9 33.62 0.233 7.59 39.69 13.81
1/23/2021 2:15:00 AM 0.88 33.584 0.235 7.59 40.08 13.81
1/23/2021 2:30:00 AM 0.87 33.566 0.238 7.59 34.85 13.82
1/23/2021 2:45:00 AM 0.85 33.53 0.238 7.59 36.63 13.81
1/23/2021 3:00:00 AM 0.83 33.494 0.237 7.59 35.93 13.82
1/23/2021 3:15:00 AM 0.81 33.458 0.241 7.59 37.15 13.84
1/23/2021 3:30:00 AM 0.79 33.422 0.24 7.59 36.11 13.84
1/23/2021 3:45:00 AM 0.76 33.368 0.241 7.59 36.07 13.84
1/23/2021 4:00:00 AM 0.74 33.332 0.241 7.59 35.65 13.84
1/23/2021 4:15:00 AM 0.71 33.278 0.238 7.59 36.42 13.86
1/23/2021 4:30:00 AM 0.69 33.242 0.239 7.59 39.89 13.86
1/23/2021 4:45:00 AM 0.66 33.188 0.24 7.59 38.22 13.87
1/23/2021 5:00:00 AM 0.64 33.152 0.242 7.59 33.81 13.88
1/23/2021 5:15:00 AM 0.61 33.098 0.242 7.59 33.26 13.89
1/23/2021 5:30:00 AM 0.58 33.044 0.243 7.59 33.21 13.9
1/23/2021 5:45:00 AM 0.56 33.008 0.243 7.59 32.98 13.9
1/23/2021 6:00:00 AM 0.52 32.936 0.244 7.59 32.94 13.91
1/23/2021 6:15:00 AM 0.5 32.9 0.245 7.59 33.56 13.92
1/23/2021 6:30:00 AM 0.47 32.846 0.247 7.59 40.15 13.93
1/23/2021 6:45:00 AM 0.45 32.81 0.245 7.59 34.74 13.94
1/23/2021 7:00:00 AM 0.44 32.792 0.244 7.59 38.62 13.93
1/23/2021 7:15:00 AM 0.41 32.738 0.244 7.59 34.76 13.95
1/23/2021 7:30:00 AM 0.38 32.684 0.244 7.59 38.17 13.98
1/23/2021 7:45:00 AM 0.35 32.63 0.241 7.59 38.19 13.98
1/23/2021 8:00:00 AM 0.33 32.594 0.244 7.59 37.85 13.99
1/23/2021 8:15:00 AM 0.31 32.558 0.244 7.59 37.7 13.98
1/23/2021 8:30:00 AM 0.3 32.54 0.243 7.59 37.81 14.01
1/23/2021 8:45:00 AM 0.28 32.504 0.244 7.59 38.16 14.01
1/23/2021 9:00:00 AM 0.28 32.504 0.245 7.6 37.98 14.03
1/23/2021 9:15:00 AM 0.27 32.486 0.245 7.6 39.58 13.96
1/23/2021 9:30:00 AM 0.26 32.468 0.245 7.6 38.32 13.97
1/23/2021 9:45:00 AM 0.25 32.45 0.245 7.6 38.2 14
1/23/2021 10:00:00 AM 0.24 32.432 0.24 7.6 37.82 13.73
1/23/2021 10:15:00 AM 0.22 32.396 0.241 7.61 37.81 14.06
1/23/2021 10:30:00 AM 0.21 32.378 0.24 7.61 37.49 13.94
1/23/2021 10:45:00 AM 0.2 32.36 0.242 7.61 37.99 13.87
1/23/2021 11:00:00 AM 0.19 32.342 0.236 7.61 36.85 13.99
1/23/2021 11:15:00 AM 0.18 32.324 0.24 7.61 39.07 14.2
1/23/2021 11:30:00 AM 0.17 32.306 0.243 7.62 37.19 14.18
1/23/2021 11:45:00 AM 0.16 32.288 0.244 7.62 38.88 14.19
1/23/2021 12:00:00 PM 0.15 32.27 0.245 7.62 38.79 14.23
1/23/2021 12:15:00 PM 0.14 32.252 0.242 7.63 37.8 14.17
1/23/2021 12:30:00 PM 0.13 32.234 0.244 7.63 37.45 14.28
1/23/2021 12:45:00 PM 0.12 32.216 0.244 7.63 38 14.25
1/23/2021 1:00:00 PM 0.13 32.234 0.243 7.63 37.95 14.32
1/23/2021 1:15:00 PM 0.15 32.27 0.243 7.63 39.64 14.34
1/23/2021 1:30:00 PM 0.19 32.342 0.242 7.64 38.37 14.37
1/23/2021 1:45:00 PM 0.24 32.432 0.24 7.64 39.36 14.38
1/23/2021 2:00:00 PM 0.28 32.504 0.242 7.64 39.96 14.37
1/23/2021 2:15:00 PM 0.31 32.558 0.242 7.64 39.03 14.4
1/23/2021 2:30:00 PM 0.35 32.63 0.241 7.64 38.6 14.39
1/23/2021 2:45:00 PM 0.38 32.684 0.242 7.64 38.33 14.42
1/23/2021 3:00:00 PM 0.42 32.756 0.238 7.64 38.27 14.43
1/23/2021 3:15:00 PM 0.45 32.81 0.238 7.64 38.37 14.41
1/23/2021 3:30:00 PM 0.48 32.864 0.236 7.65 37.47 14.28
1/23/2021 3:45:00 PM 0.51 32.918 0.236 7.65 38.34 14.36
1/23/2021 4:00:00 PM 0.51 32.918 0.235 7.65 38.78 14.4
1/23/2021 4:15:00 PM 0.5 32.9 0.235 7.65 37.85 14.27
1/23/2021 4:30:00 PM 0.5 32.9 0.234 7.65 37.77 14.3
1/23/2021 4:45:00 PM 0.47 32.846 0.235 7.65 37.97 14.42
1/23/2021 5:00:00 PM 0.45 32.81 0.233 7.65 38.4 14.31
1/23/2021 5:15:00 PM 0.41 32.738 0.233 7.65 38.35 14.37
1/23/2021 5:30:00 PM 0.37 32.666 0.235 7.64 39.33 14.31
1/23/2021 5:45:00 PM 0.33 32.594 0.236 7.64 38.7 14.26
1/23/2021 6:00:00 PM 0.28 32.504 0.236 7.64 40.55 14.27
1/23/2021 6:15:00 PM 0.23 32.414 0.238 7.64 38.82 14.35
1/23/2021 6:30:00 PM 0.19 32.342 0.237 7.64 38.4 14.3
1/23/2021 6:45:00 PM 0.15 32.27 0.239 7.64 39.2 14.3
1/23/2021 7:00:00 PM 0.11 32.198 0.24 7.64 38.16 14.35
1/23/2021 7:15:00 PM 0.07 32.126 0.241 7.63 40.17 14.44
1/23/2021 7:30:00 PM 0.04 32.072 0.24 7.63 56.32 14.21
1/23/2021 7:45:00 PM 0 32 0.239 7.63 98.82 14.16
1/23/2021 8:00:00 PM -0.03 31.946 0.242 7.63 99.24 14.29
1/23/2021 8:15:00 PM -0.05 31.91 0.241 7.63 96.3 14.33
1/23/2021 8:30:00 PM -0.06 31.892 0.243 7.63 101.99 14.26
1/23/2021 8:45:00 PM -0.06 31.892 0.242 7.63 100.01 14.32
1/23/2021 9:00:00 PM -0.07 31.874 0.238 7.63 181.53 14.28
1/23/2021 9:15:00 PM -0.07 31.874 0.239 7.62 56.71 14.14
1/23/2021 9:30:00 PM -0.07 31.874 0.24 7.62 38.3 14.26
1/23/2021 9:45:00 PM -0.06 31.892 0.241 7.62 103.45 14.08
1/23/2021 10:00:00 PM -0.06 31.892 0.242 7.62 104.66 13.79
1/23/2021 10:15:00 PM -0.05 31.91 0.242 7.61 99.04 13.87
1/23/2021 10:30:00 PM -0.05 31.91 0.243 7.61 103.16 13.7
1/23/2021 10:45:00 PM -0.04 31.928 0.244 7.61 108.24 13.73
1/23/2021 11:00:00 PM -0.05 31.91 0.245 7.61 105.46 14.07
1/23/2021 11:15:00 PM -0.04 31.928 0.246 7.6 110.81 14
1/23/2021 11:30:00 PM -0.04 31.928 0.245 7.6 105.4 14.01
1/23/2021 11:45:00 PM -0.05 31.91 0.247 7.61 130.34 14.17
1/24/2021 12:00:00 AM -0.04 31.928 0.245 7.6 102.69 14.3
1/24/2021 12:15:00 AM -0.05 31.91 0.245 7.6 120.12 14.36
1/24/2021 12:30:00 AM -0.05 31.91 0.244 7.6 113.73 14.36
1/24/2021 12:45:00 AM -0.05 31.91 0.241 7.6 111.5 14.39
1/24/2021 1:00:00 AM -0.05 31.91 0.241 7.6 126.4 14.17
1/24/2021 1:15:00 AM -0.05 31.91 0.238 7.59 103.86 14.34
1/24/2021 1:30:00 AM -0.05 31.91 0.239 7.59 111.8 14.29
1/24/2021 1:45:00 AM -0.05 31.91 0.24 7.59 107.66 14.33
1/24/2021 2:00:00 AM -0.05 31.91 0.24 7.59 111.66 14.22
1/24/2021 2:15:00 AM -0.05 31.91 0.239 7.58 36.65 14.17
1/24/2021 2:30:00 AM -0.05 31.91 0.239 7.57 40.38 13.94
1/24/2021 2:45:00 AM -0.05 31.91 0.242 7.57 37.92 13.61
1/24/2021 3:00:00 AM -0.05 31.91 0.241 7.57 39.57 13.9
1/24/2021 3:15:00 AM -0.05 31.91 0.239 7.58 44.64 14.1
1/24/2021 3:30:00 AM -0.05 31.91 0.242 7.58 42.19 13.94
1/24/2021 3:45:00 AM -0.06 31.892 0.241 7.58 39.56 14.31
1/24/2021 4:00:00 AM -0.05 31.91 0.244 7.58 64.17 14.32
1/24/2021 4:15:00 AM -0.05 31.91 0.245 7.58 37.12 14.29
1/24/2021 4:30:00 AM -0.05 31.91 0.245 7.58 36.53 14.1
1/24/2021 4:45:00 AM -0.05 31.91 0.246 7.58 31.62 12.83
1/24/2021 5:00:00 AM -0.05 31.91 0.248 7.58 36.11 12.57
1/24/2021 5:15:00 AM -0.05 31.91 0.246 7.58 40.01 12.88
1/24/2021 5:30:00 AM -0.05 31.91 0.246 7.58 38.65 13.72
1/24/2021 5:45:00 AM -0.05 31.91 0.247 7.58 36.36 14.02
1/24/2021 6:00:00 AM -0.05 31.91 0.247 7.58 36.51 13.94
1/24/2021 6:15:00 AM -0.05 31.91 0.247 7.58 36.07 14
1/24/2021 6:30:00 AM -0.05 31.91 0.247 7.58 35.76 13.89
1/24/2021 6:45:00 AM -0.05 31.91 0.247 7.58 35.93 13.79
1/24/2021 7:00:00 AM -0.05 31.91 0.248 7.58 36.49 13.43
1/24/2021 7:15:00 AM -0.05 31.91 0.247 7.58 37.07 13.34
1/24/2021 7:30:00 AM -0.05 31.91 0.246 7.57 35.96 13.5
1/24/2021 7:45:00 AM -0.05 31.91 0.246 7.57 36.61 13.57
1/24/2021 8:00:00 AM -0.05 31.91 0.249 7.58 36.85 13.73
1/24/2021 8:15:00 AM -0.05 31.91 0.251 7.57 36.88 13.48
1/24/2021 8:30:00 AM -0.05 31.91 0.251 7.58 35.86 13.64
1/24/2021 8:45:00 AM -0.04 31.928 0.249 7.58 35.65 13.87
1/24/2021 9:00:00 AM -0.04 31.928 0.249 7.58 37.8 14.04
1/24/2021 9:15:00 AM -0.04 31.928 0.248 7.58 36.48 13.89
1/24/2021 9:30:00 AM -0.04 31.928 0.247 7.58 35.89 13.79
1/24/2021 9:45:00 AM -0.03 31.946 0.247 7.58 35.93 14.16
1/24/2021 10:00:00 AM -0.03 31.946 0.248 7.59 36.4 14.02
1/24/2021 10:15:00 AM -0.02 31.964 0.248 7.59 36.35 14.01
1/24/2021 10:30:00 AM -0.02 31.964 0.247 7.59 36.6 14.05
1/24/2021 10:45:00 AM -0.01 31.982 0.248 7.59 37.18 13.89
1/24/2021 11:00:00 AM -0.02 31.964 0.249 7.59 35.9 13.86
1/24/2021 11:15:00 AM -0.01 31.982 0.247 7.59 36.14 13.74
1/24/2021 11:30:00 AM 0 32 0.247 7.59 36.39 13.77
1/24/2021 11:45:00 AM 0.01 32.018 0.247 7.59 36.61 13.84
1/24/2021 12:00:00 PM 0.02 32.036 0.248 7.6 36.16 13.88
1/24/2021 12:15:00 PM 0.03 32.054 0.248 7.6 37.32 14.08
1/24/2021 12:30:00 PM 0.05 32.09 0.248 7.6 36.43 14.08
1/24/2021 12:45:00 PM 0.06 32.108 0.249 7.6 37.06 14.21
1/24/2021 1:00:00 PM 0.08 32.144 0.246 7.6 37.22 14.17
1/24/2021 1:15:00 PM 0.09 32.162 0.246 7.61 36.79 14.13
1/24/2021 1:30:00 PM 0.1 32.18 0.245 7.61 37.37 14.27
1/24/2021 1:45:00 PM 0.12 32.216 0.248 7.61 36.83 14.25
1/24/2021 2:00:00 PM 0.12 32.216 0.249 7.61 36.76 14.23
1/24/2021 2:15:00 PM 0.13 32.234 0.25 7.61 36.89 14.37
1/24/2021 2:30:00 PM 0.14 32.252 0.248 7.61 36.85 14.42
1/24/2021 2:45:00 PM 0.14 32.252 0.261 7.61 36.99 14.47
1/24/2021 3:00:00 PM 0.14 32.252 0.26 7.61 37.97 14.52
1/24/2021 3:15:00 PM 0.14 32.252 0.258 7.62 37.92 14.62
1/24/2021 3:30:00 PM 0.14 32.252 0.256 7.62 38.28 14.57
1/24/2021 3:45:00 PM 0.13 32.234 0.253 7.62 37.93 14.55
1/24/2021 4:00:00 PM 0.12 32.216 0.253 7.62 36.9 14.64
1/24/2021 4:15:00 PM 0.1 32.18 0.254 7.62 41.86 14.65
1/24/2021 4:30:00 PM 0.08 32.144 0.251 7.62 37.85 14.65
1/24/2021 4:45:00 PM 0.07 32.126 0.255 7.62 37.95 14.64
1/24/2021 5:00:00 PM 0.06 32.108 0.252 7.63 37.63 14.58
1/24/2021 5:15:00 PM 0.05 32.09 0.252 7.62 37.35 14.6
1/24/2021 5:30:00 PM 0.04 32.072 0.251 7.63 37.73 14.62
1/24/2021 5:45:00 PM 0.03 32.054 0.247 7.62 37.71 14.43
1/24/2021 6:00:00 PM 0.02 32.036 0.244 7.63 37.54 14.41
1/24/2021 6:15:00 PM 0.01 32.018 0.244 7.63 37.82 14.55
1/24/2021 6:30:00 PM 0 32 0.242 7.63 38.54 14.61
1/24/2021 6:45:00 PM -0.01 31.982 0.243 7.63 38.63 14.28
1/24/2021 7:00:00 PM -0.01 31.982 0.241 7.63 37.58 13.2
1/24/2021 7:15:00 PM -0.02 31.964 0.238 7.63 38.14 14.09
1/24/2021 7:30:00 PM -0.03 31.946 0.232 7.62 37.75 13.54
1/24/2021 7:45:00 PM -0.03 31.946 0.235 7.62 38.44 14.02
1/24/2021 8:00:00 PM -0.04 31.928 0.238 7.62 37.97 14.49
1/24/2021 8:15:00 PM -0.04 31.928 0.238 7.62 38.23 14.52
1/24/2021 8:30:00 PM -0.05 31.91 0.237 7.61 39.88 14.12
1/24/2021 8:45:00 PM -0.05 31.91 0.237 7.62 37.62 13.96
1/24/2021 9:00:00 PM -0.05 31.91 0.235 7.61 38.15 13.63
1/24/2021 9:15:00 PM -0.05 31.91 0.234 7.61 37.67 13.57
1/24/2021 9:30:00 PM -0.06 31.892 0.236 7.61 37.91 13.76
1/24/2021 9:45:00 PM -0.06 31.892 0.237 7.61 37.99 14.02
1/24/2021 10:00:00 PM -0.06 31.892 0.236 7.61 38.24 14.03
1/24/2021 10:15:00 PM -0.06 31.892 0.237 7.6 38.21 14.07
1/24/2021 10:30:00 PM -0.06 31.892 0.235 7.6 38.51 14.15
1/24/2021 10:45:00 PM -0.06 31.892 0.225 7.6 38.3 13.76
1/24/2021 11:00:00 PM -0.06 31.892 0.232 7.6 37.87 13.55
1/24/2021 11:15:00 PM -0.05 31.91 0.234 7.6 38.45 14
1/24/2021 11:30:00 PM -0.06 31.892 0.233 7.59 38.7 13.9
1/24/2021 11:45:00 PM -0.06 31.892 0.232 7.59 38.89 14.05
1/25/2021 12:00:00 AM -0.06 31.892 0.231 7.59 37.82 14.18
1/25/2021 12:15:00 AM -0.06 31.892 0.231 7.59 38.48 14.11
1/25/2021 12:30:00 AM -0.06 31.892 0.232 7.58 38.97 14.17
1/25/2021 12:45:00 AM -0.06 31.892 0.233 7.58 38.95 14.19
1/25/2021 1:00:00 AM -0.06 31.892 0.233 7.58 38.51 14.12
1/25/2021 1:15:00 AM -0.06 31.892 0.232 7.58 39.18 13.9
1/25/2021 1:30:00 AM -0.06 31.892 0.233 7.57 38.81 13.94
1/25/2021 1:45:00 AM -0.05 31.91 0.232 7.57 38.63 13.86
1/25/2021 2:00:00 AM -0.05 31.91 0.232 7.57 38.64 13.78
1/25/2021 2:15:00 AM -0.05 31.91 0.232 7.57 39.17 13.61
1/25/2021 2:30:00 AM -0.05 31.91 0.229 7.56 40.56 13.72
1/25/2021 2:45:00 AM -0.05 31.91 0.229 7.57 38.62 13.81
1/25/2021 3:00:00 AM -0.05 31.91 0.227 7.56 38.16 13.26
1/25/2021 3:15:00 AM -0.05 31.91 0.23 7.56 38.46 13.48
1/25/2021 3:30:00 AM -0.05 31.91 0.229 7.55 39.1 13.38
1/25/2021 3:45:00 AM -0.05 31.91 0.229 7.55 129.52 13.27
1/25/2021 4:00:00 AM -0.04 31.928 0.227 7.55 37.73 11.2
1/25/2021 4:15:00 AM -0.04 31.928 0.231 7.55 35.62 9.91
1/25/2021 4:30:00 AM -0.04 31.928 0.229 7.55 36.22 10.76
1/25/2021 4:45:00 AM -0.04 31.928 0.228 7.55 36.19 8.8
1/25/2021 5:00:00 AM -0.04 31.928 0.229 7.54 39.51 9.24
1/25/2021 5:15:00 AM -0.04 31.928 0.231 7.55 40.77 11.74
1/25/2021 5:30:00 AM -0.04 31.928 0.231 7.54 37.2 12.14
1/25/2021 5:45:00 AM -0.04 31.928 0.231 7.55 37.59 11.24
1/25/2021 6:00:00 AM -0.04 31.928 0.229 7.55 37.71 10.73
1/25/2021 6:15:00 AM -0.04 31.928 0.229 7.54 42.94 10.81
1/25/2021 6:30:00 AM -0.04 31.928 0.229 7.55 37.27 10.9
1/25/2021 6:45:00 AM -0.04 31.928 0.227 7.55 37.27 10.9
1/25/2021 7:00:00 AM -0.04 31.928 0.224 7.54 37.41 10.59
1/25/2021 7:15:00 AM -0.03 31.946 0.224 7.54 37.63 10.49
1/25/2021 7:30:00 AM -0.04 31.928 0.222 7.55 38.24 10.9
1/25/2021 7:45:00 AM -0.04 31.928 0.223 7.54 37.16 11.05
1/25/2021 8:00:00 AM -0.03 31.946 0.219 7.55 36.98 11.07
1/25/2021 8:15:00 AM -0.03 31.946 0.22 7.55 37.63 10.65
1/25/2021 8:30:00 AM -0.02 31.964 0.218 7.55 37.85 10.66
1/25/2021 8:45:00 AM -0.02 31.964 0.22 7.55 37.24 10.96
1/25/2021 9:00:00 AM -0.02 31.964 0.213 7.55 38.07 11.03
1/25/2021 9:15:00 AM -0.01 31.982 0.216 7.55 37.3 11.1
1/25/2021 9:30:00 AM -0.01 31.982 0.217 7.56 37.04 11.47
1/25/2021 9:45:00 AM 0 32 0.215 7.55 36.72 11.52
1/25/2021 10:00:00 AM 0 32 0.214 7.55 37.14 11.52
1/25/2021 10:15:00 AM 0 32 0.216 7.56 37.07 11.56
1/25/2021 10:30:00 AM 0 32 0.217 7.56 37.85 11.38
1/25/2021 10:45:00 AM 0 32 0.217 7.57 37.63 11.65
1/25/2021 11:00:00 AM 0.01 32.018 0.218 7.57 36.87 11.6
1/25/2021 11:15:00 AM 0.02 32.036 0.217 7.57 37.37 11.97
1/25/2021 11:30:00 AM 0.02 32.036 0.217 7.57 38.2 12.12
1/25/2021 11:45:00 AM 0.02 32.036 0.218 7.57 37.74 12.2
1/25/2021 12:00:00 PM 0.03 32.054 0.217 7.58 36.99 13.19
1/25/2021 12:15:00 PM 0.04 32.072 0.22 7.58 38.18 13.19
1/25/2021 12:30:00 PM 0.05 32.09 0.22 7.58 38.73 13.37
1/25/2021 12:45:00 PM 0.06 32.108 0.221 7.58 38.06 13.75
1/25/2021 1:00:00 PM 0.07 32.126 0.22 7.58 38.29 14.12
1/25/2021 1:15:00 PM 0.09 32.162 0.221 7.58 38.36 13.95
1/25/2021 1:30:00 PM 0.11 32.198 0.22 7.58 38.63 14.27
1/25/2021 1:45:00 PM 0.12 32.216 0.22 7.58 39.04 14.26
1/25/2021 2:00:00 PM 0.13 32.234 0.219 7.59 38.58 14.48
1/25/2021 2:15:00 PM 0.14 32.252 0.218 7.59 38.55 14.52
1/25/2021 2:30:00 PM 0.15 32.27 0.219 7.59 38.87 14.5
1/25/2021 2:45:00 PM 0.16 32.288 0.219 7.6 38.68 14.53
1/25/2021 3:00:00 PM 0.16 32.288 0.216 7.6 38.81 14.53
1/25/2021 3:15:00 PM 0.17 32.306 0.22 7.6 40.76 14.54
1/25/2021 3:30:00 PM 0.17 32.306 0.218 7.61 38.66 14.53
1/25/2021 3:45:00 PM 0.17 32.306 0.215 7.61 38.01 14.53
1/25/2021 4:00:00 PM 0.16 32.288 0.217 7.61 37.55 14.54
1/25/2021 4:15:00 PM 0.15 32.27 0.218 7.61 38.12 14.58
1/25/2021 4:30:00 PM 0.15 32.27 0.213 7.61 39.66 14.6
1/25/2021 4:45:00 PM 0.14 32.252 0.214 7.62 38.71 14.6
1/25/2021 5:00:00 PM 0.14 32.252 0.214 7.62 38.22 14.52
1/25/2021 5:15:00 PM 0.13 32.234 0.212 7.62 37.01 14.52
1/25/2021 5:30:00 PM 0.12 32.216 0.212 7.62 37.37 14.57
1/25/2021 5:45:00 PM 0.12 32.216 0.212 7.63 37.72 14.57
1/25/2021 6:00:00 PM 0.11 32.198 0.208 7.62 37.07 14.56
1/25/2021 6:15:00 PM 0.1 32.18 0.2 7.63 36.85 14.57
1/25/2021 6:30:00 PM 0.1 32.18 0.199 7.63 36.95 14.56
1/25/2021 6:45:00 PM 0.09 32.162 0.199 7.62 37.28 14.51
1/25/2021 7:00:00 PM 0.09 32.162 0.199 7.63 36.53 14.48
1/25/2021 7:15:00 PM 0.08 32.144 0.205 7.63 36.16 14.54
1/25/2021 7:30:00 PM 0.08 32.144 0.206 7.63 36.48 14.55
1/25/2021 7:45:00 PM 0.08 32.144 0.206 7.62 36.85 14.53
1/25/2021 8:00:00 PM 0.08 32.144 0.205 7.62 36.04 14.52
1/25/2021 8:15:00 PM 0.08 32.144 0.205 7.63 35.92 14.51
1/25/2021 8:30:00 PM 0.07 32.126 0.205 7.62 35.8 14.5
1/25/2021 8:45:00 PM 0.07 32.126 0.204 7.62 35.49 14.47
1/25/2021 9:00:00 PM 0.07 32.126 0.207 7.62 35.33 14.11
1/25/2021 9:15:00 PM 0.07 32.126 0.207 7.62 34.93 14.48
1/25/2021 9:30:00 PM 0.08 32.144 0.208 7.62 35.84 14.48
1/25/2021 9:45:00 PM 0.08 32.144 0.206 7.62 35.94 14.47
1/25/2021 10:00:00 PM 0.08 32.144 0.208 7.62 36.34 14.47
1/25/2021 10:15:00 PM 0.08 32.144 0.206 7.62 35.68 14.43
1/25/2021 10:30:00 PM 0.07 32.126 0.205 7.62 36.15 14.45
1/25/2021 10:45:00 PM 0.07 32.126 0.208 7.61 46.32 14.46
1/25/2021 11:00:00 PM 0.07 32.126 0.209 7.61 35.75 14.44
1/25/2021 11:15:00 PM 0.07 32.126 0.212 7.62 35.64 14.42
1/25/2021 11:30:00 PM 0.07 32.126 0.215 7.62 35.61 14.42
1/25/2021 11:45:00 PM 0.07 32.126 0.214 7.61 36.21 14.42
1/26/2021 12:00:00 AM 0.08 32.144 0.214 7.61 37.84 14.41
1/26/2021 12:15:00 AM 0.08 32.144 0.215 7.61 36.05 14.38
1/26/2021 12:30:00 AM 0.08 32.144 0.212 7.61 36.2 14.36
1/26/2021 12:45:00 AM 0.08 32.144 0.214 7.61 36.5 14.38
1/26/2021 1:00:00 AM 0.08 32.144 0.213 7.61 36.82 14.38
1/26/2021 1:15:00 AM 0.08 32.144 0.211 7.61 37.07 14.36
1/26/2021 1:30:00 AM 0.09 32.162 0.209 7.61 36.56 14.35
1/26/2021 1:45:00 AM 0.09 32.162 0.206 7.61 1374.8 14.34
1/26/2021 2:00:00 AM 0.09 32.162 0.208 7.6 35.61 14.28
1/26/2021 2:15:00 AM 0.09 32.162 0.206 7.61 35.99 14.31
1/26/2021 2:30:00 AM 0.1 32.18 0.208 7.6 36.26 14.26
1/26/2021 2:45:00 AM 0.1 32.18 0.208 7.6 35.7 14.31
1/26/2021 3:00:00 AM 0.1 32.18 0.209 7.6 36.04 14.29
1/26/2021 3:15:00 AM 0.1 32.18 0.21 7.6 35.89 14.31
1/26/2021 3:30:00 AM 0.1 32.18 0.219 7.59 35.77 14.27
1/26/2021 3:45:00 AM 0.1 32.18 0.218 7.6 35.52 14.31
1/26/2021 4:00:00 AM 0.1 32.18 0.22 7.6 35.88 14.29
1/26/2021 4:15:00 AM 0.1 32.18 0.223 7.59 36.29 14.28
1/26/2021 4:30:00 AM 0.09 32.162 0.222 7.59 36.06 14.28
1/26/2021 4:45:00 AM 0.09 32.162 0.225 7.59 35.5 14.27
1/26/2021 5:00:00 AM 0.09 32.162 0.223 7.59 35.66 14.27
1/26/2021 5:15:00 AM 0.08 32.144 0.226 7.59 36.04 14.21
1/26/2021 5:30:00 AM 0.07 32.126 0.23 7.59 37.08 14.26
1/26/2021 5:45:00 AM 0.06 32.108 0.229 7.58 36.29 14.25
1/26/2021 6:00:00 AM 0.06 32.108 0.229 7.59 35.8 14.23
1/26/2021 6:15:00 AM 0.04 32.072 0.226 7.58 35.36 14.23
1/26/2021 6:30:00 AM 0.03 32.054 0.226 7.58 35.61 14.23
1/26/2021 6:45:00 AM 0.03 32.054 0.227 7.58 36.02 14.24
1/26/2021 7:00:00 AM 0.02 32.036 0.227 7.58 35.5 14.24
1/26/2021 7:15:00 AM 0.02 32.036 0.227 7.58 35.86 14.18
1/26/2021 7:30:00 AM 0.02 32.036 0.229 7.58 37.05 14.25
1/26/2021 7:45:00 AM 0.02 32.036 0.232 7.58 36.33 14.19
1/26/2021 8:00:00 AM 0.01 32.018 0.234 7.58 36.97 14.22
1/26/2021 8:15:00 AM 0.01 32.018 0.232 7.58 36.65 14.21
1/26/2021 8:30:00 AM 0.01 32.018 0.233 7.58 36.34 14.2
1/26/2021 8:45:00 AM 0.01 32.018 0.233 7.58 36.4 14.21
1/26/2021 9:00:00 AM 0.01 32.018 0.232 7.59 36.38 14.25
1/26/2021 9:15:00 AM 0 32 0.234 7.59 36.98 14.1
1/26/2021 9:30:00 AM -0.01 31.982 0.233 7.59 37 12.73
1/26/2021 9:45:00 AM -0.01 31.982 0.234 7.59 37.59 13.22
1/26/2021 10:00:00 AM 0 32 0.234 7.59 37.18 13.86
1/26/2021 10:15:00 AM 0 32 0.234 7.59 36.87 13.99
1/26/2021 10:30:00 AM -0.01 31.982 0.235 7.59 36.72 14.18
1/26/2021 10:45:00 AM -0.01 31.982 0.237 7.59 36.52 14.21
1/26/2021 11:00:00 AM 0 32 0.236 7.6 37.34 14.26
1/26/2021 11:15:00 AM 0 32 0.236 7.6 36.12 14.19
1/26/2021 11:30:00 AM 0 32 0.237 7.6 36.67 14.2
1/26/2021 11:45:00 AM 0 32 0.238 7.6 37.12 14.17
1/26/2021 12:00:00 PM 0 32 0.235 7.61 37.71 14.07
1/26/2021 12:15:00 PM 0 32 0.235 7.61 36.93 14.08
1/26/2021 12:30:00 PM 0 32 0.238 7.61 36.85 14.08
1/26/2021 12:45:00 PM 0 32 0.243 7.62 37.12 14
1/26/2021 1:00:00 PM 0 32 0.247 7.62 36.84 14.04
1/26/2021 1:15:00 PM 0 32 0.244 7.62 36.99 14.14
1/26/2021 1:30:00 PM 0 32 0.245 7.63 36.62 14.14
1/26/2021 1:45:00 PM 0 32 0.247 7.62 36.78 14.14
1/26/2021 2:00:00 PM 0 32 0.246 7.63 36.86 14.13
1/26/2021 2:15:00 PM 0 32 0.245 7.63 36.49 14.16
1/26/2021 2:30:00 PM 0 32 0.249 7.64 37.35 13.97
1/26/2021 2:45:00 PM 0.01 32.018 0.248 7.64 36.76 14.08
1/26/2021 3:00:00 PM 0 32 0.248 7.64 36.99 14.11
1/26/2021 3:15:00 PM 0 32 0.246 7.65 36.88 14.16
1/26/2021 3:30:00 PM 0 32 0.248 7.64 36.55 14.22
1/26/2021 3:45:00 PM 0 32 0.25 7.65 36.74 14.18
1/26/2021 4:00:00 PM 0 32 0.249 7.65 36.81 14.15
1/26/2021 4:15:00 PM 0.01 32.018 0.248 7.65 36.99 13.68
1/26/2021 4:30:00 PM 0 32 0.252 7.65 36.52 13.79
1/26/2021 4:45:00 PM 0.01 32.018 0.256 7.65 36.86 13.49
1/26/2021 5:00:00 PM 0.01 32.018 0.254 7.65 36.76 13.54
1/26/2021 5:15:00 PM 0.01 32.018 0.256 7.65 36.87 12.55
1/26/2021 5:30:00 PM 0.01 32.018 0.255 7.65 37.06 13.25
1/26/2021 5:45:00 PM 0.01 32.018 0.253 7.65 36.84 13.16
1/26/2021 6:00:00 PM 0.01 32.018 0.248 7.65 37.02 12.32
1/26/2021 6:15:00 PM 0.01 32.018 0.251 7.65 36.6 11.48
1/26/2021 6:30:00 PM 0.02 32.036 0.252 7.65 36.49 11.22
1/26/2021 6:45:00 PM 0.02 32.036 0.249 7.65 35.97 10.41
1/26/2021 7:00:00 PM 0.02 32.036 0.251 7.65 37.02 10.72
1/26/2021 7:15:00 PM 0.02 32.036 0.251 7.65 36.34 10.56
1/26/2021 7:30:00 PM 0.02 32.036 0.25 7.64 36.12 11.93
1/26/2021 7:45:00 PM 0.03 32.054 0.25 7.65 36.35 12.49
1/26/2021 8:00:00 PM 0.03 32.054 0.252 7.64 36.35 11.51
1/26/2021 8:15:00 PM 0.04 32.072 0.253 7.64 36.69 11
1/26/2021 8:30:00 PM 0.04 32.072 0.253 7.64 36.27 12.65
1/26/2021 8:45:00 PM 0.05 32.09 0.253 7.64 36.72 13.12
1/26/2021 9:00:00 PM 0.05 32.09 0.255 7.64 36.88 13.38
1/26/2021 9:15:00 PM 0.06 32.108 0.253 7.64 337.89 14.03
1/26/2021 9:30:00 PM 0.06 32.108 0.252 7.64 38.39 14.19
1/26/2021 9:45:00 PM 0.06 32.108 0.253 7.64 35.14 14.22
1/26/2021 10:00:00 PM 0.07 32.126 0.252 7.63 36.01 14.23
1/26/2021 10:15:00 PM 0.07 32.126 0.248 7.63 36.02 14.24
1/26/2021 10:30:00 PM 0.08 32.144 0.248 7.63 35.8 14.16
1/26/2021 10:45:00 PM 0.08 32.144 0.25 7.63 35.87 13.96
1/26/2021 11:00:00 PM 0.09 32.162 0.249 7.63 36.18 14.09
1/26/2021 11:15:00 PM 0.09 32.162 0.248 7.63 35.66 13.01
1/26/2021 11:30:00 PM 0.1 32.18 0.25 7.63 35.96 13.52
1/26/2021 11:45:00 PM 0.1 32.18 0.247 7.62 35.58 14.13
1/27/2021 12:00:00 AM 0.1 32.18 0.245 7.62 36.68 13.84
1/27/2021 12:15:00 AM 0.11 32.198 0.244 7.62 37.32 13.13
1/27/2021 12:30:00 AM 0.1 32.18 0.245 7.62 36.57 13.75
1/27/2021 12:45:00 AM 0.11 32.198 0.243 7.62 37.18 14.11
1/27/2021 1:00:00 AM 0.11 32.198 0.241 7.61 36.79 14.16
1/27/2021 1:15:00 AM 0.11 32.198 0.242 7.61 36.3 13.37
1/27/2021 1:30:00 AM 0.12 32.216 0.243 7.61 36.27 13.84
1/27/2021 1:45:00 AM 0.12 32.216 0.24 7.61 36.22 14.09
1/27/2021 2:00:00 AM 0.13 32.234 0.243 7.61 36.57 13.67
1/27/2021 2:15:00 AM 0.13 32.234 0.242 7.61 36.57 13.73
1/27/2021 2:30:00 AM 0.13 32.234 0.244 7.61 36.43 13.65
1/27/2021 2:45:00 AM 0.14 32.252 0.245 7.61 36.36 13.72
1/27/2021 3:00:00 AM 0.14 32.252 0.244 7.6 36.64 13.87
1/27/2021 3:15:00 AM 0.14 32.252 0.245 7.6 37.01 13.18
1/27/2021 3:30:00 AM 0.14 32.252 0.248 7.6 36.39 13.53
1/27/2021 3:45:00 AM 0.14 32.252 0.249 7.6 36.59 13.4
1/27/2021 4:00:00 AM 0.14 32.252 0.254 7.6 36.41 13.36
1/27/2021 4:15:00 AM 0.14 32.252 0.255 7.6 37.04 13.25
1/27/2021 4:30:00 AM 0.14 32.252 0.259 7.6 36.41 13.18
1/27/2021 4:45:00 AM 0.14 32.252 0.262 7.6 37.31 13.04
1/27/2021 5:00:00 AM 0.14 32.252 0.262 7.6 36.43 12.51
1/27/2021 5:15:00 AM 0.13 32.234 0.259 7.6 37.38 12.9
1/27/2021 5:30:00 AM 0.13 32.234 0.259 7.6 36.79 12.94
1/27/2021 5:45:00 AM 0.13 32.234 0.262 7.6 36.63 12.49
1/27/2021 6:00:00 AM 0.13 32.234 0.262 7.59 36.52 12.03
1/27/2021 6:15:00 AM 0.13 32.234 0.26 7.59 36.99 12.5
1/27/2021 6:30:00 AM 0.13 32.234 0.265 7.6 36.96 12.43
1/27/2021 6:45:00 AM 0.13 32.234 0.257 7.6 36.47 12.76
1/27/2021 7:00:00 AM 0.13 32.234 0.258 7.6 36.11 12.67
1/27/2021 7:15:00 AM 0.12 32.216 0.263 7.6 36.5 12.71
1/27/2021 7:30:00 AM 0.13 32.234 0.266 7.6 36.95 13.26
1/27/2021 7:45:00 AM 0.12 32.216 0.263 7.6 36.31 13.41
1/27/2021 8:00:00 AM 0.12 32.216 0.266 7.6 36.38 13.58
1/27/2021 8:15:00 AM 0.12 32.216 0.265 7.6 36.99 13.51
1/27/2021 8:30:00 AM 0.12 32.216 0.268 7.6 36.76 13.45
1/27/2021 8:45:00 AM 0.13 32.234 0.268 7.61 36.82 12.82
1/27/2021 9:00:00 AM 0.13 32.234 0.267 7.61 36.85 11.95
1/27/2021 9:15:00 AM 0.14 32.252 0.269 7.61 37.13 11.79
1/27/2021 9:30:00 AM 0.15 32.27 0.272 7.61 43.74 12.33
1/27/2021 9:45:00 AM 0.16 32.288 0.273 7.61 36.62 12.88
1/27/2021 10:00:00 AM 0.17 32.306 0.273 7.62 37.14 12.75
1/27/2021 10:15:00 AM 0.17 32.306 0.274 7.62 40.12 12.79
1/27/2021 10:30:00 AM 0.18 32.324 0.273 7.62 37.12 12.83
1/27/2021 10:45:00 AM 0.18 32.324 0.275 7.62 36.47 12.81
1/27/2021 11:00:00 AM 0.19 32.342 0.273 7.63 36.75 13.11
1/27/2021 11:15:00 AM 0.2 32.36 0.269 7.63 38.89 13.08
1/27/2021 11:30:00 AM 0.21 32.378 0.272 7.63 36.66 13.28
1/27/2021 11:45:00 AM 0.22 32.396 0.274 7.63 37.36 12.94
1/27/2021 12:00:00 PM 0.23 32.414 0.277 7.63 36.64 13.38
1/27/2021 12:15:00 PM 0.24 32.432 0.275 7.64 60.9 13.39
1/27/2021 12:30:00 PM 0.25 32.45 0.275 7.64 42.02 13.61
1/27/2021 12:45:00 PM 0.26 32.468 0.272 7.65 35.5 13.56
1/27/2021 1:00:00 PM 0.27 32.486 0.272 7.65 71.21 13.66
1/27/2021 1:15:00 PM 0.28 32.504 0.27 7.65 36.72 13.95
1/27/2021 1:30:00 PM 0.29 32.522 0.266 7.66 36.11 14.26
1/27/2021 1:45:00 PM 0.3 32.54 0.26 7.66 36.94 14.34
1/27/2021 2:00:00 PM 0.31 32.558 0.263 7.66 36.36 14.33
1/27/2021 2:15:00 PM 0.32 32.576 0.26 7.66 38.37 14.34
1/27/2021 2:30:00 PM 0.32 32.576 0.26 7.66 35.8 14.31
1/27/2021 2:45:00 PM 0.32 32.576 0.261 7.66 36.11 14.16
1/27/2021 3:00:00 PM 0.32 32.576 0.263 7.67 36.6 14.23
1/27/2021 3:15:00 PM 0.32 32.576 0.257 7.67 36.61 14.35
1/27/2021 3:30:00 PM 0.32 32.576 0.259 7.68 36.26 14.39
1/27/2021 3:45:00 PM 0.32 32.576 0.257 7.68 36.1 14.4
1/27/2021 4:00:00 PM 0.32 32.576 0.26 7.68 36.08 14.41
1/27/2021 4:15:00 PM 0.31 32.558 0.26 7.68 36.8 14.38
1/27/2021 4:30:00 PM 0.31 32.558 0.258 7.68 36.71 14.38
1/27/2021 4:45:00 PM 0.3 32.54 0.258 7.68 36.26 13.28
1/27/2021 5:00:00 PM 0.3 32.54 0.26 7.68 36.78 13.51
1/27/2021 5:15:00 PM 0.29 32.522 0.259 7.68 37.39 13.52
1/27/2021 5:30:00 PM 0.29 32.522 0.26 7.68 37.15 13.95
1/27/2021 5:45:00 PM 0.28 32.504 0.265 7.68 37.01 13.97
1/27/2021 6:00:00 PM 0.28 32.504 0.264 7.68 36.9 14.02
1/27/2021 6:15:00 PM 0.27 32.486 0.261 7.68 36.73 14.13
1/27/2021 6:30:00 PM 0.27 32.486 0.258 7.67 36.78 14.05
1/27/2021 6:45:00 PM 0.26 32.468 0.261 7.67 41.23 13.97
1/27/2021 7:00:00 PM 0.25 32.45 0.257 7.68 36.52 13.98
1/27/2021 7:15:00 PM 0.24 32.432 0.254 7.67 36.77 13.91
1/27/2021 7:30:00 PM 0.22 32.396 0.255 7.67 37.02 13.99
1/27/2021 7:45:00 PM 0.21 32.378 0.255 7.67 36.7 14.06
1/27/2021 8:00:00 PM 0.2 32.36 0.255 7.67 36.5 14
1/27/2021 8:15:00 PM 0.19 32.342 0.257 7.67 37.16 14.07
1/27/2021 8:30:00 PM 0.17 32.306 0.255 7.67 38.39 14.16
1/27/2021 8:45:00 PM 0.16 32.288 0.258 7.67 37.05 14.27
1/27/2021 9:00:00 PM 0.15 32.27 0.261 7.66 36.69 14
1/27/2021 9:15:00 PM 0.14 32.252 0.257 7.66 38.14 13.4
1/27/2021 9:30:00 PM 0.13 32.234 0.261 7.66 37.62 13.93
1/27/2021 9:45:00 PM 0.12 32.216 0.266 7.66 38.96 14.28
1/27/2021 10:00:00 PM 0.1 32.18 0.263 7.66 39.29 14.28
1/27/2021 10:15:00 PM 0.08 32.144 0.262 7.66 39.81 14.36
1/27/2021 10:30:00 PM 0.07 32.126 0.265 7.66 40.07 14.37
1/27/2021 10:45:00 PM 0.05 32.09 0.267 7.65 40.97 14.35
1/27/2021 11:00:00 PM 0.04 32.072 0.265 7.65 40.76 14.32
1/27/2021 11:15:00 PM 0.02 32.036 0.262 7.65 39.31 14.36
1/27/2021 11:30:00 PM 0.01 32.018 0.264 7.65 39.08 14.33
1/27/2021 11:45:00 PM -0.01 31.982 0.267 7.65 38.68 14.28
1/28/2021 12:00:00 AM -0.02 31.964 0.265 7.65 39.11 14.31
1/28/2021 12:15:00 AM -0.03 31.946 0.266 7.64 40.1 13.65
1/28/2021 12:30:00 AM -0.04 31.928 0.265 7.64 39.19 13.21
1/28/2021 12:45:00 AM -0.05 31.91 0.264 7.64 38.17 13.85
1/28/2021 1:00:00 AM -0.05 31.91 0.262 7.64 38.85 13.78
1/28/2021 1:15:00 AM -0.06 31.892 0.265 7.64 39.42 13.97
1/28/2021 1:30:00 AM -0.06 31.892 0.262 7.64 40.6 13.4
1/28/2021 1:45:00 AM -0.06 31.892 0.258 7.64 40.07 13.77
1/28/2021 2:00:00 AM -0.06 31.892 0.257 7.64 41.52 14.14
1/28/2021 2:15:00 AM -0.06 31.892 0.256 7.63 40.16 13.92
1/28/2021 2:30:00 AM -0.06 31.892 0.255 7.63 36.29 13.91
1/28/2021 2:45:00 AM -0.06 31.892 0.255 7.63 45.75 12.97
1/28/2021 3:00:00 AM -0.06 31.892 0.255 7.62 46.29 12.04
1/28/2021 3:15:00 AM -0.06 31.892 0.256 7.63 45.86 12.59
1/28/2021 3:30:00 AM -0.06 31.892 0.255 7.63 46.74 12.55
1/28/2021 3:45:00 AM -0.06 31.892 0.258 7.63 119.3 13.11
1/28/2021 4:00:00 AM -0.06 31.892 0.258 7.63 43.15 13.53
1/28/2021 4:15:00 AM -0.07 31.874 0.259 7.63 43.09 13.76
1/28/2021 4:30:00 AM -0.06 31.892 0.254 7.62 42.95 13.66
1/28/2021 4:45:00 AM -0.06 31.892 0.252 7.63 43.61 13.6
1/28/2021 5:00:00 AM -0.06 31.892 0.253 7.63 42.56 13.5
1/28/2021 5:15:00 AM -0.06 31.892 0.251 7.63 43.21 13.56
1/28/2021 5:30:00 AM -0.06 31.892 0.246 7.62 43.14 13.93
1/28/2021 5:45:00 AM -0.06 31.892 0.244 7.63 42.7 13.9
1/28/2021 6:00:00 AM -0.06 31.892 0.242 7.62 42.54 14
1/28/2021 6:15:00 AM -0.06 31.892 0.24 7.62 42.52 14.2
1/28/2021 6:30:00 AM -0.06 31.892 0.238 7.62 44.5 14.16
1/28/2021 6:45:00 AM -0.06 31.892 0.234 7.62 42.48 14.19
1/28/2021 7:00:00 AM -0.06 31.892 0.236 7.62 44.92 13.99
1/28/2021 7:15:00 AM -0.06 31.892 0.237 7.62 43.09 14.1
1/28/2021 7:30:00 AM -0.06 31.892 0.235 7.62 42.83 14.19
1/28/2021 7:45:00 AM -0.06 31.892 0.234 7.62 42.9 14.05
1/28/2021 8:00:00 AM -0.06 31.892 0.239 7.62 43.64 14.14
1/28/2021 8:15:00 AM -0.06 31.892 0.244 7.62 42.44 14.14
1/28/2021 8:30:00 AM -0.06 31.892 0.245 7.62 42.47 13.9
1/28/2021 8:45:00 AM -0.05 31.91 0.241 7.62 43 13.22
1/28/2021 9:00:00 AM -0.05 31.91 0.244 7.62 42.85 13.19
1/28/2021 9:15:00 AM -0.05 31.91 0.24 7.63 43.17 13.33
1/28/2021 9:30:00 AM -0.05 31.91 0.242 7.63 44.09 13.79
1/28/2021 9:45:00 AM -0.05 31.91 0.228 7.64 43.15 13.52
1/28/2021 10:00:00 AM -0.04 31.928 0.226 7.64 49.87 13.67
1/28/2021 10:15:00 AM -0.04 31.928 0.239 7.64 48.35 13.06
1/28/2021 10:30:00 AM -0.04 31.928 0.234 7.65 44.01 12.87
1/28/2021 10:45:00 AM -0.04 31.928 0.226 7.65 43.11 13.6
1/28/2021 11:00:00 AM -0.04 31.928 0.222 7.66 42.99 13.4
1/28/2021 11:15:00 AM -0.04 31.928 0.223 7.66 43.25 13.12
1/28/2021 11:30:00 AM -0.03 31.946 0.217 7.66 44.51 13.49
1/28/2021 11:45:00 AM -0.03 31.946 0.22 7.66 43.55 13.59
1/28/2021 12:00:00 PM -0.02 31.964 0.218 7.67 43.91 13.52
1/28/2021 12:15:00 PM -0.01 31.982 0.22 7.67 43.33 13.11
1/28/2021 12:30:00 PM 0.01 32.018 0.213 7.67 43.4 13.23
1/28/2021 12:45:00 PM 0.02 32.036 0.211 7.67 43.57 13.45
1/28/2021 1:00:00 PM 0.03 32.054 0.21 7.68 43.27 13.19
1/28/2021 1:15:00 PM 0.04 32.072 0.206 7.68 44.19 12.97
1/28/2021 1:30:00 PM 0.05 32.09 0.205 7.67 43.65 13.05
1/28/2021 1:45:00 PM 0.06 32.108 0.202 7.68 43.91 13.02
1/28/2021 2:00:00 PM 0.06 32.108 0.204 7.67 43.61 13.39
1/28/2021 2:15:00 PM 0.07 32.126 0.201 7.67 44.34 13.68
1/28/2021 2:30:00 PM 0.06 32.108 0.202 7.68 44.31 13.82
1/28/2021 2:45:00 PM 0.06 32.108 0.205 7.68 45.43 13.86
1/28/2021 3:00:00 PM 0.05 32.09 0.202 7.68 45.45 13.95
1/28/2021 3:15:00 PM 0.04 32.072 0.203 7.68 45.08 13.82
1/28/2021 3:30:00 PM 0.03 32.054 0.201 7.68 44.89 13.85
1/28/2021 3:45:00 PM 0.03 32.054 0.203 7.69 44.73 13.95
1/28/2021 4:00:00 PM 0.02 32.036 0.201 7.69 44.96 14.05
1/28/2021 4:15:00 PM 0.02 32.036 0.205 7.69 44.7 14
1/28/2021 4:30:00 PM 0.02 32.036 0.203 7.69 44.68 13.55
1/28/2021 4:45:00 PM 0.01 32.018 0.203 7.69 44.6 13.42
1/28/2021 5:00:00 PM 0 32 0.2 7.69 45.75 13.7
1/28/2021 5:15:00 PM -0.02 31.964 0.204 7.69 45.11 11.72
1/28/2021 5:30:00 PM -0.02 31.964 0.202 7.69 45.3 11.38
1/28/2021 5:45:00 PM -0.03 31.946 0.198 7.69 44.98 11.25
1/28/2021 6:00:00 PM -0.05 31.91 0.202 7.68 45.19 11.92
1/28/2021 6:15:00 PM -0.05 31.91 0.203 7.69 44.82 11.98
1/28/2021 6:30:00 PM -0.05 31.91 0.202 7.69 44.7 12.51
1/28/2021 6:45:00 PM -0.05 31.91 0.203 7.69 45.04 12.15
1/28/2021 7:00:00 PM -0.06 31.892 0.2 7.69 45.12 12.88
1/28/2021 7:15:00 PM -0.06 31.892 0.197 7.69 45.31 12.77
1/28/2021 7:30:00 PM -0.06 31.892 0.199 7.69 44.61 13.05
1/28/2021 7:45:00 PM -0.06 31.892 0.199 7.69 44.65 12.87
1/28/2021 8:00:00 PM -0.06 31.892 0.199 7.69 48.18 12.65
1/28/2021 8:15:00 PM -0.06 31.892 0.201 7.69 44.86 12.51
1/28/2021 8:30:00 PM -0.06 31.892 0.205 7.69 44.78 12.52
1/28/2021 8:45:00 PM -0.06 31.892 0.198 7.69 45.29 12.88
1/28/2021 9:00:00 PM -0.06 31.892 0.201 7.69 45.11 13.25
1/28/2021 9:15:00 PM -0.06 31.892 0.2 7.69 46.43 13.53
1/28/2021 9:30:00 PM -0.06 31.892 0.2 7.68 46.53 13.41
1/28/2021 9:45:00 PM -0.06 31.892 0.199 7.68 45.03 13.07
1/28/2021 10:00:00 PM -0.06 31.892 0.198 7.68 44.74 12.65
1/28/2021 10:15:00 PM -0.06 31.892 0.2 7.68 45.41 12.28
1/28/2021 10:30:00 PM -0.06 31.892 0.202 7.68 45.94 12.8
1/28/2021 10:45:00 PM -0.06 31.892 0.203 7.68 44.5 12.71
1/28/2021 11:00:00 PM -0.06 31.892 0.203 7.68 44.7 12.52
1/28/2021 11:15:00 PM -0.06 31.892 0.201 7.68 44.41 12.4
1/28/2021 11:30:00 PM -0.05 31.91 0.2 7.68 44.45 12.11
1/28/2021 11:45:00 PM -0.05 31.91 0.201 7.68 46.08 12.26
1/29/2021 12:00:00 AM -0.05 31.91 0.203 7.68 45.3 12.22
1/29/2021 12:15:00 AM -0.05 31.91 0.204 7.67 45.14 11.81
1/29/2021 12:30:00 AM -0.05 31.91 0.2 7.67 45.37 11.62
1/29/2021 12:45:00 AM -0.05 31.91 0.202 7.67 44.87 11.61
1/29/2021 1:00:00 AM -0.06 31.892 0.205 7.67 44.95 11.74
1/29/2021 1:15:00 AM -0.06 31.892 0.204 7.67 46.14 11.85
1/29/2021 1:30:00 AM -0.06 31.892 0.203 7.67 45.99 12.3
1/29/2021 1:45:00 AM -0.05 31.91 0.204 7.66 45.78 11.98
1/29/2021 2:00:00 AM -0.05 31.91 0.201 7.66 45.78 11.77
1/29/2021 2:15:00 AM -0.05 31.91 0.203 7.66 44.99 11.54
1/29/2021 2:30:00 AM -0.05 31.91 0.201 7.66 45.12 11.6
1/29/2021 2:45:00 AM -0.05 31.91 0.2 7.66 44.96 11.6
1/29/2021 3:00:00 AM -0.05 31.91 0.199 7.66 45.17 11.52
1/29/2021 3:15:00 AM -0.05 31.91 0.194 7.65 45.09 11.26
1/29/2021 3:30:00 AM -0.05 31.91 0.193 7.65 45.04 10.78
1/29/2021 3:45:00 AM -0.04 31.928 0.192 7.65 44.95 10.61
1/29/2021 4:00:00 AM -0.04 31.928 0.192 7.65 44.58 10.58
1/29/2021 4:15:00 AM -0.04 31.928 0.195 7.64 45.26 10.42
1/29/2021 4:30:00 AM -0.04 31.928 0.196 7.65 45.28 10.43
1/29/2021 4:45:00 AM -0.04 31.928 0.195 7.64 47.04 10.47
1/29/2021 5:00:00 AM -0.03 31.946 0.194 7.64 46.16 10.54
1/29/2021 5:15:00 AM -0.03 31.946 0.194 7.64 46.91 10.37
1/29/2021 5:30:00 AM -0.04 31.928 0.195 7.63 45.61 9.88
1/29/2021 5:45:00 AM -0.03 31.946 0.194 7.64 45.61 9.39
1/29/2021 6:00:00 AM -0.04 31.928 0.197 7.64 46.95 10.8
1/29/2021 6:15:00 AM -0.03 31.946 0.2 7.63 47.27 10.56
1/29/2021 6:30:00 AM -0.02 31.964 0.195 7.62 47.83 10.41
1/29/2021 6:45:00 AM -0.01 31.982 0.196 7.62 47.9 10.22
1/29/2021 7:00:00 AM -0.01 31.982 0.198 7.62 45.17 9.96
1/29/2021 7:15:00 AM -0.02 31.964 0.194 7.61 46.09 9.66
1/29/2021 7:30:00 AM -0.02 31.964 0.193 7.61 48.13 9.54
1/29/2021 7:45:00 AM -0.01 31.982 0.196 7.6 46.55 11.16
1/29/2021 8:00:00 AM -0.02 31.964 0.194 7.6 46.84 11.04
1/29/2021 8:15:00 AM -0.02 31.964 0.194 7.6 45.7 10.41
1/29/2021 8:30:00 AM -0.01 31.982 0.194 7.6 48.98 10.43
1/29/2021 8:45:00 AM 0 32 0.194 7.61 46.45 10.33
1/29/2021 9:00:00 AM 0 32 0.195 7.61 47.22 10.25
1/29/2021 9:15:00 AM 0 32 0.197 7.61 47.13 10.64
1/29/2021 9:30:00 AM 0 32 0.196 7.61 47.66 10.76
1/29/2021 9:45:00 AM 0.01 32.018 0.195 7.6 49.52 9.99
1/29/2021 10:00:00 AM 0.01 32.018 0.192 7.6 47.25 10.19
1/29/2021 10:15:00 AM 0.01 32.018 0.194 7.61 47.24 10.52
1/29/2021 10:30:00 AM 0.02 32.036 0.194 7.61 47.82 11.01
1/29/2021 10:45:00 AM 0.02 32.036 0.195 7.62 47.24 11.41
1/29/2021 11:00:00 AM 0.02 32.036 0.193 7.59 47.56 11.49
1/29/2021 11:15:00 AM 0.03 32.054 0.193 7.59 47.91 12.82
1/29/2021 11:30:00 AM 0.03 32.054 0.192 7.61 47.78 13.53
1/29/2021 11:45:00 AM 0.03 32.054 0.193 7.6 47.16 13.24
1/29/2021 12:00:00 PM 0.03 32.054 0.195 7.6 47.16 12.24
1/29/2021 12:15:00 PM 0.04 32.072 0.193 7.59 48.57 10.97
1/29/2021 12:30:00 PM 0.03 32.054 0.195 7.6 47.09 10.65
1/29/2021 12:45:00 PM 0.03 32.054 0.194 7.63 47.1 10.72
1/29/2021 1:00:00 PM 0.03 32.054 0.192 7.64 48.14 10.88
1/29/2021 1:15:00 PM 0.03 32.054 0.194 7.63 46.95 11.39
1/29/2021 1:30:00 PM 0.03 32.054 0.19 7.63 47.3 11.64
1/29/2021 1:45:00 PM 0.04 32.072 0.189 7.63 46.96 11.61
1/29/2021 2:00:00 PM 0.04 32.072 0.193 7.65 46.54 11.69
1/29/2021 2:15:00 PM 0.04 32.072 0.191 7.64 46.91 11.15
1/29/2021 2:30:00 PM 0.03 32.054 0.191 7.64 47.2 10.83
1/29/2021 2:45:00 PM 0.03 32.054 0.192 7.64 47.75 10.86
1/29/2021 3:00:00 PM 0.03 32.054 0.189 7.65 46.88 10.62
1/29/2021 3:15:00 PM 0.02 32.036 0.189 7.66 46.55 10.35
1/29/2021 3:30:00 PM 0.02 32.036 0.19 7.66 46.5 9.67
1/29/2021 3:45:00 PM 0.02 32.036 0.191 7.66 46.68 9.38
1/29/2021 4:00:00 PM 0.01 32.018 0.19 7.67 47.02 9.1
1/29/2021 4:15:00 PM 0.01 32.018 0.187 7.68 47.29 9.2
1/29/2021 4:30:00 PM 0 32 0.187 7.68 46.73 8.59
1/29/2021 4:45:00 PM 0 32 0.188 7.68 46.44 7.99
1/29/2021 5:00:00 PM 0 32 0.187 7.68 49.89 7.48
1/29/2021 5:15:00 PM -0.01 31.982 0.186 7.67 47.26 7.17
1/29/2021 5:30:00 PM -0.01 31.982 0.187 7.68 47.11 7.15
1/29/2021 5:45:00 PM -0.02 31.964 0.188 7.69 47.58 6.82
1/29/2021 6:00:00 PM -0.02 31.964 0.188 7.69 48 6.95
1/29/2021 6:15:00 PM -0.02 31.964 0.189 7.69 47.24 7.13
1/29/2021 6:30:00 PM -0.02 31.964 0.191 7.69 46.79 6.92
1/29/2021 6:45:00 PM -0.02 31.964 0.19 7.69 47.83 6.78
1/29/2021 7:00:00 PM -0.03 31.946 0.185 7.69 48.27 6.9
1/29/2021 7:15:00 PM -0.03 31.946 0.187 7.68 47.37 6.92
1/29/2021 7:30:00 PM -0.03 31.946 0.186 7.68 46.71 6.67
1/29/2021 7:45:00 PM -0.03 31.946 0.188 7.68 47.58 6.92
1/29/2021 8:00:00 PM -0.03 31.946 0.189 7.68 46.56 7.42
1/29/2021 8:15:00 PM -0.03 31.946 0.189 7.67 47.99 7.74
1/29/2021 8:30:00 PM -0.03 31.946 0.189 7.67 48.57 7.83
1/29/2021 8:45:00 PM -0.03 31.946 0.188 7.67 46.84 7.73
1/29/2021 9:00:00 PM -0.03 31.946 0.188 7.67 48.58 7.85
1/29/2021 9:15:00 PM -0.03 31.946 0.187 7.67 46.81 7.66
1/29/2021 9:30:00 PM -0.03 31.946 0.186 7.67 46.63 7.16
1/29/2021 9:45:00 PM -0.03 31.946 0.188 7.66 47.15 6.97
1/29/2021 10:00:00 PM -0.03 31.946 0.189 7.66 50.45 6.8
1/29/2021 10:15:00 PM -0.03 31.946 0.188 7.66 47.15 7.19
1/29/2021 10:30:00 PM -0.03 31.946 0.186 7.67 54.38 7.66
1/29/2021 10:45:00 PM -0.03 31.946 0.183 7.66 46.9 7.92
1/29/2021 11:00:00 PM -0.03 31.946 0.184 7.66 46.45 8.18
1/29/2021 11:15:00 PM -0.03 31.946 0.179 7.66 46.58 8.33
1/29/2021 11:30:00 PM -0.03 31.946 0.178 7.65 46.48 8.45
1/29/2021 11:45:00 PM -0.03 31.946 0.178 7.66 46.78 8.27
1/30/2021 12:00:00 AM -0.03 31.946 0.178 7.65 47.04 8.54
1/30/2021 12:15:00 AM -0.03 31.946 0.178 7.65 46.46 8.66
1/30/2021 12:30:00 AM -0.03 31.946 0.178 7.65 46.4 8.88
1/30/2021 12:45:00 AM -0.03 31.946 0.179 7.65 47.31 9.02
1/30/2021 1:00:00 AM -0.03 31.946 0.178 7.65 47.22 9.1
1/30/2021 1:15:00 AM -0.03 31.946 0.178 7.64 47.27 9.29
1/30/2021 1:30:00 AM -0.03 31.946 0.178 7.64 46.84 9.36
1/30/2021 1:45:00 AM -0.03 31.946 0.177 7.64 49.39 9.38
1/30/2021 2:00:00 AM -0.03 31.946 0.177 7.62 46.62 9.49
1/30/2021 2:15:00 AM -0.03 31.946 0.177 7.62 46.65 9.35
1/30/2021 2:30:00 AM -0.03 31.946 0.176 7.62 46.38 9.56
1/30/2021 2:45:00 AM -0.03 31.946 0.177 7.62 49.24 9.82
1/30/2021 3:00:00 AM -0.03 31.946 0.177 7.63 46.7 9.7
1/30/2021 3:15:00 AM -0.03 31.946 0.177 7.63 50.4 9.45
1/30/2021 3:30:00 AM -0.03 31.946 0.177 7.63 47.46 9.4
1/30/2021 3:45:00 AM -0.03 31.946 0.176 7.63 49.34 9.14
1/30/2021 4:00:00 AM -0.04 31.928 0.177 7.63 52.15 8.97
1/30/2021 4:15:00 AM -0.03 31.946 0.176 7.62 49.44 9.15
1/30/2021 4:30:00 AM -0.03 31.946 0.174 7.61 48.87 9.74
1/30/2021 4:45:00 AM -0.03 31.946 0.176 7.62 50.16 9.87
1/30/2021 5:00:00 AM -0.03 31.946 0.176 7.62 47.35 9.83
1/30/2021 5:15:00 AM -0.03 31.946 0.176 7.62 47.37 10.02
1/30/2021 5:30:00 AM -0.03 31.946 0.178 7.62 47.28 9.83
1/30/2021 5:45:00 AM -0.04 31.928 0.177 7.61 46.75 10.24
1/30/2021 6:00:00 AM -0.03 31.946 0.177 7.62 47.34 10.93
1/30/2021 6:15:00 AM -0.03 31.946 0.177 7.61 46.89 10.68
1/30/2021 6:30:00 AM -0.03 31.946 0.182 7.61 46.92 10.79
1/30/2021 6:45:00 AM -0.03 31.946 0.182 7.61 46.75 10.78
1/30/2021 7:00:00 AM -0.03 31.946 0.182 7.61 47.36 11.08
1/30/2021 7:15:00 AM -0.03 31.946 0.177 7.61 47.17 10.67
1/30/2021 7:30:00 AM -0.03 31.946 0.177 7.61 46.94 10.6
1/30/2021 7:45:00 AM -0.03 31.946 0.177 7.61 48.03 10.82
1/30/2021 8:00:00 AM -0.03 31.946 0.182 7.61 47.14 10.56
1/30/2021 8:15:00 AM -0.03 31.946 0.177 7.61 46.91 10.23
1/30/2021 8:30:00 AM -0.03 31.946 0.175 7.61 47.05 10.05
1/30/2021 8:45:00 AM -0.03 31.946 0.179 7.61 48.42 9.79
1/30/2021 9:00:00 AM -0.02 31.964 0.176 7.61 47.21 9.42
1/30/2021 9:15:00 AM -0.02 31.964 0.179 7.61 46.54 10.11
1/30/2021 9:30:00 AM -0.02 31.964 0.176 7.6 47.19 10.25
1/30/2021 9:45:00 AM -0.02 31.964 0.176 7.6 46.81 9.66
1/30/2021 10:00:00 AM -0.01 31.982 0.175 7.6 47.21 9.54
1/30/2021 10:15:00 AM -0.01 31.982 0.176 7.6 46.7 9.08
1/30/2021 10:30:00 AM 0 32 0.175 7.6 46.75 8.92
1/30/2021 10:45:00 AM 0 32 0.175 7.61 47.45 9.22
1/30/2021 11:00:00 AM 0 32 0.175 7.61 47.27 9.59
1/30/2021 11:15:00 AM 0.01 32.018 0.174 7.62 47.23 10
1/30/2021 11:30:00 AM 0.01 32.018 0.174 7.62 46.82 9.9
1/30/2021 11:45:00 AM 0.01 32.018 0.174 7.62 48.57 10.09
1/30/2021 12:00:00 PM 0.01 32.018 0.174 7.62 49.08 9.92
1/30/2021 12:15:00 PM 0.01 32.018 0.174 7.62 47.19 10.06
1/30/2021 12:30:00 PM 0.01 32.018 0.173 7.62 47.25 10.09
1/30/2021 12:45:00 PM 0.01 32.018 0.17 7.62 47.78 10.07
1/30/2021 1:00:00 PM 0.01 32.018 0.171 7.62 47.42 10.2
1/30/2021 1:15:00 PM 0.01 32.018 0.171 7.63 47.11 10.09
1/30/2021 1:30:00 PM 0.01 32.018 0.171 7.63 47.04 10.64
1/30/2021 1:45:00 PM 0.01 32.018 0.174 7.63 47.24 10.57
1/30/2021 2:00:00 PM 0.01 32.018 0.169 7.63 47.27 10.62
1/30/2021 2:15:00 PM 0.01 32.018 0.172 7.64 47.23 11.17
1/30/2021 2:30:00 PM 0.01 32.018 0.169 7.64 47.35 11.03
1/30/2021 2:45:00 PM 0 32 0.169 7.64 48.94 11.12
1/30/2021 3:00:00 PM 0 32 0.17 7.64 48.26 10.67
1/30/2021 3:15:00 PM 0 32 0.169 7.64 47.67 11.05
1/30/2021 3:30:00 PM -0.01 31.982 0.169 7.63 47.39 10.98
1/30/2021 3:45:00 PM -0.01 31.982 0.17 7.64 48.35 11.31
1/30/2021 4:00:00 PM -0.01 31.982 0.171 7.64 47.56 11.72
1/30/2021 4:15:00 PM -0.01 31.982 0.171 7.65 47.15 12.31
1/30/2021 4:30:00 PM -0.01 31.982 0.169 7.65 47.12 12.29
1/30/2021 4:45:00 PM -0.02 31.964 0.17 7.66 47.24 12.48
1/30/2021 5:00:00 PM -0.02 31.964 0.17 7.66 47.13 12.81
1/30/2021 5:15:00 PM -0.02 31.964 0.168 7.66 47.1 12.81
1/30/2021 5:30:00 PM -0.02 31.964 0.168 7.66 48.06 12.86
1/30/2021 5:45:00 PM -0.02 31.964 0.167 7.66 47.64 12.91
1/30/2021 6:00:00 PM -0.03 31.946 0.165 7.65 47.11 12.8
1/30/2021 6:15:00 PM -0.03 31.946 0.166 7.65 47.17 12.73
1/30/2021 6:30:00 PM -0.03 31.946 0.169 7.65 47.08 12.95
1/30/2021 6:45:00 PM -0.03 31.946 0.17 7.65 47.3 12.78
1/30/2021 7:00:00 PM -0.03 31.946 0.166 7.65 47.21 12.91
1/30/2021 7:15:00 PM -0.03 31.946 0.165 7.65 46.77 13.25
1/30/2021 7:30:00 PM -0.03 31.946 0.167 7.66 47.02 13.69
1/30/2021 7:45:00 PM -0.03 31.946 0.167 7.65 47.48 13.96
1/30/2021 8:00:00 PM -0.03 31.946 0.165 7.65 47 13.92
1/30/2021 8:15:00 PM -0.03 31.946 0.166 7.65 46.87 13.96
1/30/2021 8:30:00 PM -0.03 31.946 0.165 7.65 47.21 13.88
1/30/2021 8:45:00 PM -0.03 31.946 0.166 7.65 45.84 13.78
1/30/2021 9:00:00 PM -0.04 31.928 0.167 7.65 47.12 13.44
1/30/2021 9:15:00 PM -0.04 31.928 0.167 7.65 47.16 13.26
1/30/2021 9:30:00 PM -0.04 31.928 0.166 7.64 47.03 13.09
1/30/2021 9:45:00 PM -0.04 31.928 0.168 7.65 47.65 12.99
1/30/2021 10:00:00 PM -0.03 31.946 0.169 7.64 46.8 12.77
1/30/2021 10:15:00 PM -0.04 31.928 0.169 7.64 46.91 12.78
1/30/2021 10:30:00 PM -0.04 31.928 0.17 7.64 47.21 12.87
1/30/2021 10:45:00 PM -0.04 31.928 0.168 7.64 47.1 12.84
1/30/2021 11:00:00 PM -0.03 31.946 0.168 7.64 47.14 12.82
1/30/2021 11:15:00 PM -0.04 31.928 0.167 7.64 47.26 12.41
1/30/2021 11:30:00 PM -0.04 31.928 0.167 7.64 47.27 12.34
1/30/2021 11:45:00 PM -0.04 31.928 0.168 7.64 46.92 12.33
1/31/2021 12:00:00 AM -0.04 31.928 0.168 7.64 46.9 12.52
1/31/2021 12:15:00 AM -0.04 31.928 0.166 7.64 47.24 12.38
1/31/2021 12:30:00 AM -0.04 31.928 0.167 7.64 46.97 12.27
1/31/2021 12:45:00 AM -0.03 31.946 0.166 7.64 47.12 12.35
1/31/2021 1:00:00 AM -0.03 31.946 0.167 7.63 47.03 12.35
1/31/2021 1:15:00 AM -0.04 31.928 0.167 7.64 47.25 12.5
1/31/2021 1:30:00 AM -0.03 31.946 0.166 7.63 48.42 12.72
1/31/2021 1:45:00 AM -0.03 31.946 0.167 7.63 47.3 12.86
1/31/2021 2:00:00 AM -0.03 31.946 0.167 7.62 47.26 12.85
1/31/2021 2:15:00 AM -0.04 31.928 0.167 7.63 47.05 12.87
1/31/2021 2:30:00 AM -0.04 31.928 0.166 7.63 47.17 13.06
1/31/2021 2:45:00 AM -0.03 31.946 0.166 7.62 47.65 13.08
1/31/2021 3:00:00 AM -0.03 31.946 0.165 7.61 47.28 12.96
1/31/2021 3:15:00 AM -0.03 31.946 0.166 7.6 47.47 12.9
1/31/2021 3:30:00 AM -0.03 31.946 0.165 7.61 47.32 12.81
1/31/2021 3:45:00 AM -0.03 31.946 0.166 7.6 47.73 12.91
1/31/2021 4:00:00 AM -0.03 31.946 0.165 7.61 47.37 12.91
1/31/2021 4:15:00 AM -0.03 31.946 0.163 7.61 47.15 12.93
1/31/2021 4:30:00 AM -0.03 31.946 0.162 7.6 47.3 12.88
1/31/2021 4:45:00 AM -0.03 31.946 0.164 7.6 47.22 12.19
1/31/2021 5:00:00 AM -0.03 31.946 0.165 7.59 46.89 12.33
1/31/2021 5:15:00 AM -0.03 31.946 0.166 7.6 46.68 12.27
1/31/2021 5:30:00 AM -0.03 31.946 0.17 7.6 46.56 12.35
1/31/2021 5:45:00 AM -0.03 31.946 0.167 7.6 46.67 12.2
1/31/2021 6:00:00 AM -0.03 31.946 0.169 7.59 46.34 11.75
1/31/2021 6:15:00 AM -0.03 31.946 0.17 7.59 46.53 10.94
1/31/2021 6:30:00 AM -0.03 31.946 0.17 7.59 46.97 10.63
1/31/2021 6:45:00 AM -0.03 31.946 0.172 7.59 46.47 10.64
1/31/2021 7:00:00 AM -0.03 31.946 0.172 7.58 46.33 10.57
1/31/2021 7:15:00 AM -0.03 31.946 0.172 7.58 46.16 10.47
1/31/2021 7:30:00 AM -0.02 31.964 0.173 7.58 46.26 10.61
1/31/2021 7:45:00 AM -0.02 31.964 0.171 7.58 46.19 10.83
1/31/2021 8:00:00 AM -0.02 31.964 0.171 7.58 46.42 10.94
1/31/2021 8:15:00 AM -0.02 31.964 0.171 7.57 46.38 11.12
1/31/2021 8:30:00 AM -0.02 31.964 0.171 7.58 46.05 11.1
1/31/2021 8:45:00 AM -0.01 31.982 0.169 7.58 46.29 11.41
1/31/2021 9:00:00 AM -0.01 31.982 0.169 7.57 45.91 11.57
1/31/2021 9:15:00 AM -0.01 31.982 0.17 7.58 46.91 11.82
1/31/2021 9:30:00 AM 0 32 0.17 7.58 47.29 12.13
1/31/2021 9:45:00 AM 0 32 0.168 7.58 46.06 11.89
1/31/2021 10:00:00 AM 0 32 0.17 7.58 46.57 11.97
1/31/2021 10:15:00 AM 0 32 0.171 7.59 46.21 12.13
1/31/2021 10:30:00 AM 0 32 0.17 7.59 46.29 12.07
1/31/2021 10:45:00 AM 0.01 32.018 0.169 7.59 46.18 11.98
1/31/2021 11:00:00 AM 0.01 32.018 0.17 7.6 46.95 11.99
1/31/2021 11:15:00 AM 0.02 32.036 0.17 7.6 46.2 12.08
1/31/2021 11:30:00 AM 0.03 32.054 0.17 7.6 45.98 11.99
1/31/2021 11:45:00 AM 0.03 32.054 0.172 7.6 46.81 11.93
1/31/2021 12:00:00 PM 0.03 32.054 0.17 7.61 46.18 11.92
1/31/2021 12:15:00 PM 0.03 32.054 0.17 7.61 46.53 11.95
1/31/2021 12:30:00 PM 0.03 32.054 0.171 7.6 46.24 11.99
1/31/2021 12:45:00 PM 0.03 32.054 0.172 7.62 46.05 12.05
1/31/2021 1:00:00 PM 0.04 32.072 0.172 7.62 46.23 12.38
1/31/2021 1:15:00 PM 0.03 32.054 0.171 7.62 46.44 12.76
1/31/2021 1:30:00 PM 0.02 32.036 0.171 7.63 46.8 12.78
1/31/2021 1:45:00 PM 0.02 32.036 0.171 7.63 46.46 12.79
1/31/2021 2:00:00 PM 0.01 32.018 0.171 7.64 46.21 12.82
1/31/2021 2:15:00 PM 0 32 0.172 7.64 46.56 12.85
1/31/2021 2:30:00 PM 0 32 0.172 7.66 46.65 12.9
1/31/2021 2:45:00 PM 0 32 0.172 7.67 46.32 13.19
1/31/2021 3:00:00 PM -0.01 31.982 0.172 7.68 46.62 13.29
1/31/2021 3:15:00 PM -0.01 31.982 0.178 7.68 46.6 13.17
1/31/2021 3:30:00 PM -0.02 31.964 0.172 7.69 46.77 12.97
1/31/2021 3:45:00 PM -0.02 31.964 0.171 7.69 47.11 12.65
1/31/2021 4:00:00 PM -0.02 31.964 0.171 7.69 46.92 12.5
1/31/2021 4:15:00 PM -0.02 31.964 0.171 7.69 48.15 12.85
1/31/2021 4:30:00 PM -0.03 31.946 0.17 7.7 46.89 12.66
1/31/2021 4:45:00 PM -0.03 31.946 0.17 7.69 47.67 12.91
1/31/2021 5:00:00 PM -0.03 31.946 0.171 7.7 46.95 13.5
1/31/2021 5:15:00 PM -0.03 31.946 0.171 7.7 46.38 13.61
1/31/2021 5:30:00 PM -0.03 31.946 0.172 7.7 46.76 13.89
1/31/2021 5:45:00 PM -0.04 31.928 0.171 7.7 47.07 14.11
1/31/2021 6:00:00 PM -0.04 31.928 0.17 7.69 46.8 14.11
1/31/2021 6:15:00 PM -0.04 31.928 0.172 7.7 46.56 14.11
1/31/2021 6:30:00 PM -0.04 31.928 0.172 7.7 46.21 14.07
1/31/2021 6:45:00 PM -0.04 31.928 0.171 7.7 46.54 14.07
1/31/2021 7:00:00 PM -0.04 31.928 0.171 7.7 46.44 14.02
1/31/2021 7:15:00 PM -0.04 31.928 0.169 7.69 46.46 13.99
1/31/2021 7:30:00 PM -0.04 31.928 0.168 7.69 46.68 13.98
1/31/2021 7:45:00 PM -0.04 31.928 0.169 7.7 46.37 14.14
1/31/2021 8:00:00 PM -0.04 31.928 0.167 7.69 46.54 14.03
1/31/2021 8:15:00 PM -0.04 31.928 0.166 7.69 46.54 14
1/31/2021 8:30:00 PM -0.04 31.928 0.168 7.7 46.78 14
1/31/2021 8:45:00 PM -0.04 31.928 0.167 7.7 46.74 13.87
1/31/2021 9:00:00 PM -0.04 31.928 0.167 7.69 46.29 14.02
1/31/2021 9:15:00 PM -0.04 31.928 0.167 7.7 46.61 14.04
1/31/2021 9:30:00 PM -0.04 31.928 0.168 7.7 47 13.98
1/31/2021 9:45:00 PM -0.04 31.928 0.168 7.7 46.66 13.76
1/31/2021 10:00:00 PM -0.04 31.928 0.168 7.7 46.56 13.65
1/31/2021 10:15:00 PM -0.04 31.928 0.169 7.7 46.24 13.76
1/31/2021 10:30:00 PM -0.04 31.928 0.169 7.71 46.2 13.96
1/31/2021 10:45:00 PM -0.04 31.928 0.17 7.71 46.2 13.82
1/31/2021 11:00:00 PM -0.04 31.928 0.17 7.71 46.61 13.86
1/31/2021 11:15:00 PM -0.04 31.928 0.169 7.71 47.55 14.01
1/31/2021 11:30:00 PM -0.05 31.91 0.169 7.71 46.34 13.99
1/31/2021 11:45:00 PM -0.04 31.928 0.169 7.71 46.8 13.71
2/1/2021 12:00:00 AM -0.05 31.91 0.17 7.7 46.27 13.79
2/1/2021 12:15:00 AM -0.05 31.91 0.17 7.71 47.26 13.71
2/1/2021 12:30:00 AM -0.04 31.928 0.169 7.7 46.8 13.58
2/1/2021 12:45:00 AM -0.04 31.928 0.169 7.7 46.43 13.54
2/1/2021 1:00:00 AM -0.05 31.91 0.17 7.7 46.89 13.49
2/1/2021 1:15:00 AM -0.05 31.91 0.171 7.69 46.55 13.48
2/1/2021 1:30:00 AM -0.05 31.91 0.171 7.7 46.02 13.31
2/1/2021 1:45:00 AM -0.05 31.91 0.17 7.69 49.02 13.42
2/1/2021 2:00:00 AM -0.04 31.928 0.17 7.69 46.63 13.25
2/1/2021 2:15:00 AM -0.05 31.91 0.17 7.69 47.16 13.27
2/1/2021 2:30:00 AM -0.05 31.91 0.17 7.69 46.86 13.51
2/1/2021 2:45:00 AM -0.05 31.91 0.17 7.68 46.88 13.33
2/1/2021 3:00:00 AM -0.05 31.91 0.17 7.68 55.61 13.44
2/1/2021 3:15:00 AM -0.05 31.91 0.17 7.68 47.01 13.02
2/1/2021 3:30:00 AM -0.04 31.928 0.171 7.68 46.56 12.47
2/1/2021 3:45:00 AM -0.04 31.928 0.172 7.68 46.93 11.9
2/1/2021 4:00:00 AM -0.05 31.91 0.172 7.68 91.96 11.25
2/1/2021 4:15:00 AM -0.04 31.928 0.172 7.68 47.69 11.25
2/1/2021 4:30:00 AM -0.05 31.91 0.173 7.67 46.64 10.79
2/1/2021 4:45:00 AM -0.04 31.928 0.173 7.67 48.1 10.44
2/1/2021 5:00:00 AM -0.04 31.928 0.172 7.67 46.26 10.28
2/1/2021 5:15:00 AM -0.04 31.928 0.172 7.67 46.18 10.27
2/1/2021 5:30:00 AM -0.04 31.928 0.172 7.67 46.19 9.99
2/1/2021 5:45:00 AM -0.04 31.928 0.172 7.67 45.49 9.74
2/1/2021 6:00:00 AM -0.04 31.928 0.171 7.67 45.98 9.77
2/1/2021 6:15:00 AM -0.04 31.928 0.171 7.67 45.84 9.96
2/1/2021 6:30:00 AM -0.04 31.928 0.172 7.67 46.3 9.97
2/1/2021 6:45:00 AM -0.04 31.928 0.173 7.66 45.6 9.2
2/1/2021 7:00:00 AM -0.04 31.928 0.172 7.67 45.79 9.03
2/1/2021 7:15:00 AM -0.04 31.928 0.174 7.67 47.48 9.21
2/1/2021 7:30:00 AM -0.04 31.928 0.174 7.67 45.8 9.34
2/1/2021 7:45:00 AM -0.04 31.928 0.174 7.66 46.29 9.26
2/1/2021 8:00:00 AM -0.04 31.928 0.175 7.67 45.84 9.3
2/1/2021 8:15:00 AM -0.04 31.928 0.175 7.67 45.86 9.48
2/1/2021 8:30:00 AM -0.04 31.928 0.176 7.67 45.56 9.7
2/1/2021 8:45:00 AM -0.04 31.928 0.176 7.67 45.44 9.88
2/1/2021 9:00:00 AM -0.04 31.928 0.175 7.67 46.24 9.51
2/1/2021 9:15:00 AM -0.03 31.946 0.176 7.67 45.32 9.39
2/1/2021 9:30:00 AM -0.03 31.946 0.174 7.67 46.03 9.41
2/1/2021 9:45:00 AM -0.03 31.946 0.175 7.67 45.55 9.37
2/1/2021 10:00:00 AM -0.03 31.946 0.175 7.68 45.77 9.41
2/1/2021 10:15:00 AM -0.03 31.946 0.175 7.68 46.15 10.14
2/1/2021 10:30:00 AM -0.03 31.946 0.175 7.67 46.1 10.45
2/1/2021 10:45:00 AM -0.02 31.964 0.176 7.68 47.03 10.39
2/1/2021 11:00:00 AM -0.02 31.964 0.176 7.68 45.6 10.22
2/1/2021 11:15:00 AM -0.02 31.964 0.175 7.68 47.69 10.38
2/1/2021 11:30:00 AM -0.02 31.964 0.176 7.69 48.55 10.22
2/1/2021 11:45:00 AM -0.01 31.982 0.176 7.7 47.01 10.26
2/1/2021 12:00:00 PM -0.02 31.964 0.176 7.7 50.78 10.48
2/1/2021 12:15:00 PM -0.01 31.982 0.177 7.7 46.95 11.47
2/1/2021 12:30:00 PM -0.01 31.982 0.176 7.71 46.69 11.92
2/1/2021 12:45:00 PM -0.01 31.982 0.176 7.71 46.45 12.63
2/1/2021 1:00:00 PM -0.01 31.982 0.176 7.71 46.93 12.9
2/1/2021 1:15:00 PM -0.01 31.982 0.176 7.71 46.49 12.97
2/1/2021 1:30:00 PM -0.01 31.982 0.177 7.72 46.71 13.14
2/1/2021 1:45:00 PM -0.01 31.982 0.177 7.72 46.47 13.1
2/1/2021 2:00:00 PM -0.01 31.982 0.176 7.72 46.36 12.9
2/1/2021 2:15:00 PM -0.01 31.982 0.176 7.71 46.58 12.68
2/1/2021 2:30:00 PM -0.01 31.982 0.176 7.72 47.15 12.7
2/1/2021 2:45:00 PM -0.01 31.982 0.175 7.72 46.82 12.72
2/1/2021 3:00:00 PM -0.01 31.982 0.174 7.73 47.39 12.93
2/1/2021 3:15:00 PM -0.02 31.964 0.175 7.73 46.81 12.88
2/1/2021 3:30:00 PM -0.02 31.964 0.175 7.73 46.84 12.88
2/1/2021 3:45:00 PM -0.02 31.964 0.175 7.73 46.55 12.78
2/1/2021 4:00:00 PM -0.02 31.964 0.175 7.74 47.42 12.6
2/1/2021 4:15:00 PM -0.02 31.964 0.175 7.74 46.45 12.32
2/1/2021 4:30:00 PM -0.02 31.964 0.175 7.74 46.68 11.87
2/1/2021 4:45:00 PM -0.02 31.964 0.176 7.74 48.11 11.72
2/1/2021 5:00:00 PM -0.03 31.946 0.176 7.74 49.87 11.82
2/1/2021 5:15:00 PM -0.03 31.946 0.174 7.75 47.22 12.06
2/1/2021 5:30:00 PM -0.03 31.946 0.174 7.75 47.26 12.53
2/1/2021 5:45:00 PM -0.03 31.946 0.174 7.75 46.54 12.71
2/1/2021 6:00:00 PM -0.03 31.946 0.173 7.75 46.8 12.74
2/1/2021 6:15:00 PM -0.03 31.946 0.173 7.75 46.37 12.9
2/1/2021 6:30:00 PM -0.03 31.946 0.173 7.75 46.7 12.79
2/1/2021 6:45:00 PM -0.03 31.946 0.172 7.74 48.33 12.8
2/1/2021 7:00:00 PM -0.03 31.946 0.172 7.74 47.2 12.85
2/1/2021 7:15:00 PM -0.03 31.946 0.171 7.74 46.52 12.88
2/1/2021 7:30:00 PM -0.03 31.946 0.172 7.74 47.1 12.81
2/1/2021 7:45:00 PM -0.04 31.928 0.171 7.74 49.21 12.8
2/1/2021 8:00:00 PM -0.04 31.928 0.168 7.74 46.59 12.85
2/1/2021 8:15:00 PM -0.04 31.928 0.172 7.74 46.3 13.06
2/1/2021 8:30:00 PM -0.04 31.928 0.173 7.73 44.93 12.86
2/1/2021 8:45:00 PM -0.04 31.928 0.171 7.73 44.63 12.82
2/1/2021 9:00:00 PM -0.04 31.928 0.173 7.73 44.33 12.87
2/1/2021 9:15:00 PM -0.04 31.928 0.173 7.73 44.59 12.84
2/1/2021 9:30:00 PM -0.04 31.928 0.172 7.73 44.09 12.93
2/1/2021 9:45:00 PM -0.04 31.928 0.171 7.73 44.51 12.91
2/1/2021 10:00:00 PM -0.04 31.928 0.171 7.73 44.58 12.92
2/1/2021 10:15:00 PM -0.04 31.928 0.17 7.73 45.05 12.83
2/1/2021 10:30:00 PM -0.04 31.928 0.169 7.73 44.86 12.88
2/1/2021 10:45:00 PM -0.04 31.928 0.169 7.73 44.69 12.98
2/1/2021 11:00:00 PM -0.04 31.928 0.169 7.73 44.42 13.37
2/1/2021 11:15:00 PM -0.05 31.91 0.168 7.73 45.53 13.56
2/1/2021 11:30:00 PM -0.05 31.91 0.168 7.72 45.18 13.67
2/1/2021 11:45:00 PM -0.05 31.91 0.17 7.72 45.05 13.82
2/2/2021 12:00:00 AM -0.04 31.928 0.17 7.71 45.08 13.87
2/2/2021 12:15:00 AM -0.05 31.91 0.171 7.7 45.55 13.74
2/2/2021 12:30:00 AM -0.05 31.91 0.173 7.7 45.13 13.69
2/2/2021 12:45:00 AM -0.05 31.91 0.173 7.69 45.71 13.74
2/2/2021 1:00:00 AM -0.05 31.91 0.173 7.69 45.89 13.7
2/2/2021 1:15:00 AM -0.05 31.91 0.173 7.69 45.57 13.5
2/2/2021 1:30:00 AM -0.05 31.91 0.17 7.69 45.88 13.26
2/2/2021 1:45:00 AM -0.05 31.91 0.169 7.68 48.15 13.32
2/2/2021 2:00:00 AM -0.05 31.91 0.169 7.68 45.39 13.12
2/2/2021 2:15:00 AM -0.05 31.91 0.171 7.68 45.25 13.26
2/2/2021 2:30:00 AM -0.05 31.91 0.169 7.68 45.65 13.04
2/2/2021 2:45:00 AM -0.05 31.91 0.167 7.68 45.59 12.41
2/2/2021 3:00:00 AM -0.05 31.91 0.165 7.68 45.24 12.41
2/2/2021 3:15:00 AM -0.05 31.91 0.167 7.68 45.11 12.69
2/2/2021 3:30:00 AM -0.05 31.91 0.168 7.68 45.34 12.62
2/2/2021 3:45:00 AM -0.05 31.91 0.169 7.68 45.18 12.78
2/2/2021 4:00:00 AM -0.05 31.91 0.169 7.68 45.1 12.6
2/2/2021 4:15:00 AM -0.05 31.91 0.169 7.68 45.27 12.47
2/2/2021 4:30:00 AM -0.04 31.928 0.169 7.68 45.51 12.5
2/2/2021 4:45:00 AM -0.05 31.91 0.169 7.68 45.18 12.6
2/2/2021 5:00:00 AM -0.04 31.928 0.169 7.68 45.11 12.57
2/2/2021 5:15:00 AM -0.04 31.928 0.171 7.68 45.47 12.53
2/2/2021 5:30:00 AM -0.04 31.928 0.167 7.68 45.35 12.51
2/2/2021 5:45:00 AM -0.04 31.928 0.17 7.68 45.43 12.41
2/2/2021 6:00:00 AM -0.04 31.928 0.169 7.68 45.68 12.56
2/2/2021 6:15:00 AM -0.04 31.928 0.167 7.68 45.48 12.52
2/2/2021 6:30:00 AM -0.04 31.928 0.167 7.68 45.49 12.49
2/2/2021 6:45:00 AM -0.04 31.928 0.168 7.68 45.69 12.65
2/2/2021 7:00:00 AM -0.04 31.928 0.166 7.68 45.37 12.42
2/2/2021 7:15:00 AM -0.04 31.928 0.168 7.68 46.53 12.64
2/2/2021 7:30:00 AM -0.04 31.928 0.171 7.68 45.66 12.57
2/2/2021 7:45:00 AM -0.04 31.928 0.17 7.67 45.91 12.38
2/2/2021 8:00:00 AM -0.04 31.928 0.17 7.68 45.83 12.43
2/2/2021 8:15:00 AM -0.04 31.928 0.172 7.67 46.17 12.22
2/2/2021 8:30:00 AM -0.03 31.946 0.171 7.67 45.93 12.1
2/2/2021 8:45:00 AM -0.03 31.946 0.172 7.67 45.91 11.98
2/2/2021 9:00:00 AM -0.03 31.946 0.171 7.67 47.13 11.71
2/2/2021 9:15:00 AM -0.03 31.946 0.172 7.67 47.25 11.67
2/2/2021 9:30:00 AM -0.03 31.946 0.171 7.67 46.58 11.55
2/2/2021 9:45:00 AM -0.03 31.946 0.172 7.67 46.56 11.76
2/2/2021 10:00:00 AM -0.03 31.946 0.173 7.67 46.52 11.9
2/2/2021 10:15:00 AM -0.02 31.964 0.174 7.67 46.25 11.76
2/2/2021 10:30:00 AM -0.02 31.964 0.174 7.67 46.2 11.78
2/2/2021 10:45:00 AM -0.02 31.964 0.175 7.68 49.03 11.55
2/2/2021 11:00:00 AM -0.01 31.982 0.176 7.68 46.07 11.89
2/2/2021 11:15:00 AM -0.01 31.982 0.177 7.68 47.32 12.02
2/2/2021 11:30:00 AM 0 32 0.176 7.68 45.5 12.34
2/2/2021 11:45:00 AM 0 32 0.177 7.69 66.7 12.36
2/2/2021 12:00:00 PM 0.01 32.018 0.177 7.69 45.49 12.63
2/2/2021 12:15:00 PM 0.01 32.018 0.178 7.69 45.91 12.68
2/2/2021 12:30:00 PM 0.02 32.036 0.178 7.69 46.11 12.49
2/2/2021 12:45:00 PM 0.02 32.036 0.179 7.69 46.47 12.54
2/2/2021 1:00:00 PM 0.02 32.036 0.176 7.7 45.67 12.68
2/2/2021 1:15:00 PM 0.02 32.036 0.177 7.7 45.37 12.48
2/2/2021 1:30:00 PM 0.02 32.036 0.176 7.7 46.15 12.82
2/2/2021 1:45:00 PM 0.02 32.036 0.179 7.69 45.34 12.79
2/2/2021 2:00:00 PM 0.02 32.036 0.177 7.7 45.47 12.6
2/2/2021 2:15:00 PM 0.02 32.036 0.178 7.7 45.56 12.62
2/2/2021 2:30:00 PM 0.02 32.036 0.178 7.7 46.25 12.68
2/2/2021 2:45:00 PM 0.02 32.036 0.177 7.7 46.13 12.59
2/2/2021 3:00:00 PM 0.01 32.018 0.181 7.71 45.74 12.74
2/2/2021 3:15:00 PM 0.01 32.018 0.179 7.71 44.77 12.5
2/2/2021 3:30:00 PM 0.01 32.018 0.179 7.71 45.37 12.59
2/2/2021 3:45:00 PM 0.01 32.018 0.178 7.71 45.39 12.5
2/2/2021 4:00:00 PM 0.01 32.018 0.182 7.71 44.8 12.6
2/2/2021 4:15:00 PM 0.01 32.018 0.177 7.71 46.17 12.54
2/2/2021 4:30:00 PM 0.01 32.018 0.175 7.72 45.91 12.48
2/2/2021 4:45:00 PM 0 32 0.173 7.73 45.3 12.61
2/2/2021 5:00:00 PM 0 32 0.174 7.73 45.33 12.79
2/2/2021 5:15:00 PM 0 32 0.176 7.73 45.24 12.6
2/2/2021 5:30:00 PM -0.01 31.982 0.177 7.73 45.15 12.63
2/2/2021 5:45:00 PM -0.01 31.982 0.177 7.73 45.29 12.59
2/2/2021 6:00:00 PM -0.01 31.982 0.177 7.74 45.77 12.71
2/2/2021 6:15:00 PM -0.01 31.982 0.177 7.74 45.02 12.78
2/2/2021 6:30:00 PM -0.02 31.964 0.176 7.74 45.42 12.77
2/2/2021 6:45:00 PM -0.02 31.964 0.177 7.74 45.01 12.78
2/2/2021 7:00:00 PM -0.02 31.964 0.174 7.74 45.11 12.77
2/2/2021 7:15:00 PM -0.02 31.964 0.177 7.74 45.16 12.72
2/2/2021 7:30:00 PM -0.02 31.964 0.176 7.73 44.65 12.59
2/2/2021 7:45:00 PM -0.02 31.964 0.176 7.74 45.05 12.97
2/2/2021 8:00:00 PM -0.02 31.964 0.176 7.74 44.6 13.05
2/2/2021 8:15:00 PM -0.02 31.964 0.176 7.74 44.72 13.03
2/2/2021 8:30:00 PM -0.02 31.964 0.175 7.74 45.08 13.18
2/2/2021 8:45:00 PM -0.02 31.964 0.177 7.73 44.85 13.12
2/2/2021 9:00:00 PM -0.03 31.946 0.177 7.73 45.16 13.02
2/2/2021 9:15:00 PM -0.03 31.946 0.177 7.74 45.56 13.08
2/2/2021 9:30:00 PM -0.03 31.946 0.177 7.73 45.08 13.12
2/2/2021 9:45:00 PM -0.03 31.946 0.176 7.73 45.19 13.18
2/2/2021 10:00:00 PM -0.03 31.946 0.175 7.73 45.37 13.09
2/2/2021 10:15:00 PM -0.03 31.946 0.176 7.72 44.92 13.02
2/2/2021 10:30:00 PM -0.03 31.946 0.174 7.72 45.05 13.12
2/2/2021 10:45:00 PM -0.03 31.946 0.175 7.72 45.26 13.27
2/2/2021 11:00:00 PM -0.03 31.946 0.175 7.72 46.44 13.3
2/2/2021 11:15:00 PM -0.03 31.946 0.174 7.72 45.44 13.37
2/2/2021 11:30:00 PM -0.03 31.946 0.173 7.71 44.8 13.2
2/2/2021 11:45:00 PM -0.03 31.946 0.174 7.71 45.83 13.25
2/3/2021 12:00:00 AM -0.03 31.946 0.174 7.71 45.21 13.22
2/3/2021 12:15:00 AM -0.03 31.946 0.174 7.71 45.29 13.19
2/3/2021 12:30:00 AM -0.03 31.946 0.174 7.72 45.26 13.36
2/3/2021 12:45:00 AM -0.03 31.946 0.174 7.71 45.48 13.56
2/3/2021 1:00:00 AM -0.03 31.946 0.173 7.71 46.47 13.42
2/3/2021 1:15:00 AM -0.03 31.946 0.171 7.71 45.29 13.35
2/3/2021 1:30:00 AM -0.03 31.946 0.172 7.71 45.29 13.35
2/3/2021 1:45:00 AM -0.03 31.946 0.173 7.7 45.58 13.5
2/3/2021 2:00:00 AM -0.03 31.946 0.174 7.7 45.24 13.53
2/3/2021 2:15:00 AM -0.04 31.928 0.174 7.7 45.62 13.43
2/3/2021 2:30:00 AM -0.04 31.928 0.173 7.7 45.25 13.38
2/3/2021 2:45:00 AM -0.04 31.928 0.173 7.69 45.73 13.21
2/3/2021 3:00:00 AM -0.04 31.928 0.173 7.7 45.52 13.23
2/3/2021 3:15:00 AM -0.03 31.946 0.174 7.69 45.17 13.37
2/3/2021 3:30:00 AM -0.03 31.946 0.175 7.69 44.86 13.48
2/3/2021 3:45:00 AM -0.03 31.946 0.177 7.69 45.27 13.37
2/3/2021 4:00:00 AM -0.03 31.946 0.176 7.69 44.94 13.15
2/3/2021 4:15:00 AM -0.03 31.946 0.177 7.68 45.22 13.06
2/3/2021 4:30:00 AM -0.03 31.946 0.178 7.68 44.95 13.08
2/3/2021 4:45:00 AM -0.03 31.946 0.176 7.68 45.48 13.16
2/3/2021 5:00:00 AM -0.03 31.946 0.174 7.68 45.35 13.07
2/3/2021 5:15:00 AM -0.02 31.964 0.178 7.68 45.64 13.05
2/3/2021 5:30:00 AM -0.02 31.964 0.174 7.67 45.15 12.79
2/3/2021 5:45:00 AM -0.02 31.964 0.175 7.67 45.23 12.83
2/3/2021 6:00:00 AM -0.02 31.964 0.175 7.67 45.15 12.67
2/3/2021 6:15:00 AM -0.03 31.946 0.175 7.67 45.37 12.56
2/3/2021 6:30:00 AM -0.03 31.946 0.174 7.67 45.78 12.69
2/3/2021 6:45:00 AM -0.03 31.946 0.174 7.67 45.64 12.3
2/3/2021 7:00:00 AM -0.02 31.964 0.172 7.66 45.78 11.87
2/3/2021 7:15:00 AM -0.02 31.964 0.171 7.66 45.99 11.05
2/3/2021 7:30:00 AM -0.03 31.946 0.173 7.67 45.65 10.75
2/3/2021 7:45:00 AM -0.03 31.946 0.173 7.66 98.54 11.06
2/3/2021 8:00:00 AM -0.03 31.946 0.175 7.66 39.5 11.14
2/3/2021 8:15:00 AM -0.03 31.946 0.175 7.66 39.66 11.52
2/3/2021 8:30:00 AM -0.03 31.946 0.174 7.66 40.26 11.08
2/3/2021 8:45:00 AM -0.03 31.946 0.175 7.66 39.33 11.06
2/3/2021 9:00:00 AM -0.03 31.946 0.176 7.66 39.95 12.05
2/3/2021 9:15:00 AM -0.04 31.928 0.175 7.66 39.87 12.33
2/3/2021 9:30:00 AM -0.04 31.928 0.173 7.66 40.12 13.37
2/3/2021 9:45:00 AM -0.04 31.928 0.172 7.66 39.77 13.63
2/3/2021 10:00:00 AM -0.04 31.928 0.174 7.66 39.93 13.73
2/3/2021 10:15:00 AM -0.04 31.928 0.174 7.67 39.87 13.86
2/3/2021 10:30:00 AM -0.05 31.91 0.173 7.67 40.07 13.77
2/3/2021 10:45:00 AM -0.04 31.928 0.172 7.67 40.75 13.76
2/3/2021 11:00:00 AM -0.05 31.91 0.175 7.67 40.43 13.95
2/3/2021 11:15:00 AM -0.04 31.928 0.175 7.68 40.25 13.97
2/3/2021 11:30:00 AM -0.05 31.91 0.174 7.68 40.93 13.8
2/3/2021 11:45:00 AM -0.05 31.91 0.174 7.69 40.01 13.82
2/3/2021 12:00:00 PM -0.05 31.91 0.173 7.69 40.01 14.11
2/3/2021 12:15:00 PM -0.05 31.91 0.173 7.69 39.87 14.18
2/3/2021 12:30:00 PM -0.05 31.91 0.173 7.7 39.77 13.97
2/3/2021 12:45:00 PM -0.05 31.91 0.174 7.7 40.77 13.74
2/3/2021 1:00:00 PM -0.05 31.91 0.172 7.7 40.19 13.95
2/3/2021 1:15:00 PM -0.04 31.928 0.172 7.71 40.69 14.03
2/3/2021 1:30:00 PM -0.05 31.91 0.172 7.71 40.99 14.1
2/3/2021 1:45:00 PM -0.04 31.928 0.174 7.71 40.41 14.18
2/3/2021 2:00:00 PM -0.04 31.928 0.175 7.71 40.27 14.12
2/3/2021 2:15:00 PM -0.04 31.928 0.175 7.72 40.44 14.19
2/3/2021 2:30:00 PM -0.04 31.928 0.175 7.72 40.8 14.03
2/3/2021 2:45:00 PM -0.04 31.928 0.175 7.72 41.08 13.99
2/3/2021 3:00:00 PM -0.04 31.928 0.174 7.73 40.77 14.17
2/3/2021 3:15:00 PM -0.04 31.928 0.172 7.73 40.14 13.91
2/3/2021 3:30:00 PM -0.04 31.928 0.171 7.73 40.15 14.23
2/3/2021 3:45:00 PM -0.04 31.928 0.169 7.74 40.21 14.22
2/3/2021 4:00:00 PM -0.04 31.928 0.166 7.74 40.37 14.21
2/3/2021 4:15:00 PM -0.04 31.928 0.171 7.75 40.25 13.84
2/3/2021 4:30:00 PM -0.04 31.928 0.172 7.75 40.37 14.42
2/3/2021 4:45:00 PM -0.04 31.928 0.172 7.75 40.46 14.32
2/3/2021 5:00:00 PM -0.04 31.928 0.171 7.76 40.25 13.89
2/3/2021 5:15:00 PM -0.05 31.91 0.171 7.76 39.97 14.37
2/3/2021 5:30:00 PM -0.05 31.91 0.172 7.77 41.5 14.46
2/3/2021 5:45:00 PM -0.05 31.91 0.171 7.77 40.73 14.51
2/3/2021 6:00:00 PM -0.05 31.91 0.171 7.77 40.03 14.51
2/3/2021 6:15:00 PM -0.05 31.91 0.171 7.77 41.89 14.47
2/3/2021 6:30:00 PM -0.05 31.91 0.17 7.77 40.26 14.32
2/3/2021 6:45:00 PM -0.05 31.91 0.169 7.76 40.29 14.38
2/3/2021 7:00:00 PM -0.05 31.91 0.168 7.77 40.38 14.41
2/3/2021 7:15:00 PM -0.05 31.91 0.17 7.76 41.16 14.42
2/3/2021 7:30:00 PM -0.05 31.91 0.171 7.76 40.01 14.33
2/3/2021 7:45:00 PM -0.05 31.91 0.171 7.76 40.18 14.21
2/3/2021 8:00:00 PM -0.05 31.91 0.17 7.75 40.56 14.32
2/3/2021 8:15:00 PM -0.05 31.91 0.171 7.75 40.86 14.38
2/3/2021 8:30:00 PM -0.05 31.91 0.17 7.75 41.31 14.41
2/3/2021 8:45:00 PM -0.05 31.91 0.171 7.75 41.15 14.37
2/3/2021 9:00:00 PM -0.05 31.91 0.171 7.74 41.38 14.25
2/3/2021 9:15:00 PM -0.05 31.91 0.171 7.74 40.93 13.89
2/3/2021 9:30:00 PM -0.05 31.91 0.17 7.74 40.91 13.85
2/3/2021 9:45:00 PM -0.05 31.91 0.169 7.74 40.95 14.09
2/3/2021 10:00:00 PM -0.05 31.91 0.169 7.74 41.12 14.2
2/3/2021 10:15:00 PM -0.05 31.91 0.169 7.74 40.64 14.26
2/3/2021 10:30:00 PM -0.05 31.91 0.169 7.73 40.94 14.32
2/3/2021 10:45:00 PM -0.05 31.91 0.17 7.73 40.39 14.27
2/3/2021 11:00:00 PM -0.05 31.91 0.168 7.73 40.64 14.29
2/3/2021 11:15:00 PM -0.05 31.91 0.169 7.73 40.74 14.25
2/3/2021 11:30:00 PM -0.05 31.91 0.169 7.72 40.26 14.28
2/3/2021 11:45:00 PM -0.05 31.91 0.171 7.72 41.09 14.29
2/4/2021 12:00:00 AM -0.05 31.91 0.172 7.71 40.97 14.28
2/4/2021 12:15:00 AM -0.05 31.91 0.173 7.71 41.13 14.27
2/4/2021 12:30:00 AM -0.05 31.91 0.174 7.7 41.22 14.27
2/4/2021 12:45:00 AM -0.05 31.91 0.173 7.69 41.76 14.24
2/4/2021 1:00:00 AM -0.05 31.91 0.171 7.68 40.85 14.2
2/4/2021 1:15:00 AM -0.05 31.91 0.171 7.68 41.27 14.16
2/4/2021 1:30:00 AM -0.05 31.91 0.171 7.67 41.01 14.2
2/4/2021 1:45:00 AM -0.06 31.892 0.173 7.67 41.65 14.18
2/4/2021 2:00:00 AM -0.05 31.91 0.174 7.67 41.12 14.18
2/4/2021 2:15:00 AM -0.05 31.91 0.174 7.67 41.38 14.18
2/4/2021 2:30:00 AM -0.05 31.91 0.173 7.67 41.28 14.19
2/4/2021 2:45:00 AM -0.05 31.91 0.174 7.67 41.62 14.2
2/4/2021 3:00:00 AM -0.05 31.91 0.173 7.67 40.73 14.12
2/4/2021 3:15:00 AM -0.05 31.91 0.174 7.67 40.68 14.13
2/4/2021 3:30:00 AM -0.05 31.91 0.175 7.67 41.16 14.09
2/4/2021 3:45:00 AM -0.06 31.892 0.176 7.67 40.63 14.07
2/4/2021 4:00:00 AM -0.05 31.91 0.176 7.67 40.63 14.08
2/4/2021 4:15:00 AM -0.05 31.91 0.176 7.67 40.64 14.01
2/4/2021 4:30:00 AM -0.05 31.91 0.175 7.67 40.53 14.07
2/4/2021 4:45:00 AM -0.05 31.91 0.175 7.67 41.33 14.13
2/4/2021 5:00:00 AM -0.05 31.91 0.171 7.67 41.55 14.08
2/4/2021 5:15:00 AM -0.05 31.91 0.169 7.67 40.71 14.08
2/4/2021 5:30:00 AM -0.05 31.91 0.166 7.67 40.58 13.99
2/4/2021 5:45:00 AM -0.06 31.892 0.16 7.66 96.83 13.92
2/4/2021 6:00:00 AM -0.05 31.91 0.172 7.66 40.66 13.93
2/4/2021 6:15:00 AM -0.05 31.91 0.166 7.66 40.65 14.06
2/4/2021 6:30:00 AM -0.05 31.91 0.155 7.66 40.32 14.05
2/4/2021 6:45:00 AM -0.05 31.91 0.171 7.65 40.42 13.93
2/4/2021 7:00:00 AM -0.05 31.91 0.17 7.66 40.8 14.07
2/4/2021 7:15:00 AM -0.05 31.91 0.167 7.65 40.58 14.09
2/4/2021 7:30:00 AM -0.05 31.91 0.164 7.65 40.78 13.93
2/4/2021 7:45:00 AM -0.05 31.91 0.168 7.65 40.85 13.88
2/4/2021 8:00:00 AM -0.05 31.91 0.171 7.65 40.6 13.8
2/4/2021 8:15:00 AM -0.05 31.91 0.172 7.65 40.63 13.87
2/4/2021 8:30:00 AM -0.05 31.91 0.171 7.65 40.87 13.78
2/4/2021 8:45:00 AM -0.05 31.91 0.172 7.65 40.7 13.87
2/4/2021 9:00:00 AM -0.05 31.91 0.172 7.65 40.76 13.9
2/4/2021 9:15:00 AM -0.05 31.91 0.173 7.65 40.6 13.82
2/4/2021 9:30:00 AM -0.05 31.91 0.173 7.66 40.39 13.78
2/4/2021 9:45:00 AM -0.05 31.91 0.173 7.66 40.63 14.02
2/4/2021 10:00:00 AM -0.05 31.91 0.174 7.67 41.31 14.05
2/4/2021 10:15:00 AM -0.05 31.91 0.173 7.66 40.34 14.06
2/4/2021 10:30:00 AM -0.05 31.91 0.173 7.67 40.96 14.05
2/4/2021 10:45:00 AM -0.05 31.91 0.174 7.68 41.16 14.1
2/4/2021 11:00:00 AM -0.05 31.91 0.175 7.69 40.69 14.25
2/4/2021 11:15:00 AM -0.05 31.91 0.174 7.7 40.94 14.12
2/4/2021 11:30:00 AM -0.05 31.91 0.175 7.7 41.26 13.97
2/4/2021 11:45:00 AM -0.05 31.91 0.175 7.71 40.5 13.34
2/4/2021 12:00:00 PM -0.05 31.91 0.176 7.72 41.17 13.22
2/4/2021 12:15:00 PM -0.05 31.91 0.176 7.73 41.1 13.26
2/4/2021 12:30:00 PM -0.05 31.91 0.176 7.73 41.4 13.1
2/4/2021 12:45:00 PM -0.04 31.928 0.176 7.73 42.18 13.35
2/4/2021 1:00:00 PM -0.04 31.928 0.175 7.73 41.9 13.81
2/4/2021 1:15:00 PM -0.04 31.928 0.176 7.74 42.98 14.01
2/4/2021 1:30:00 PM -0.04 31.928 0.175 7.74 42.93 14.14
2/4/2021 1:45:00 PM -0.04 31.928 0.175 7.73 43.41 14
2/4/2021 2:00:00 PM -0.04 31.928 0.175 7.74 42.32 14.34
2/4/2021 2:15:00 PM -0.04 31.928 0.175 7.74 42.49 14.46
2/4/2021 2:30:00 PM -0.04 31.928 0.176 7.74 42 14.42
2/4/2021 2:45:00 PM -0.04 31.928 0.175 7.74 42.8 14.42
2/4/2021 3:00:00 PM -0.04 31.928 0.175 7.73 42.06 14.4
2/4/2021 3:15:00 PM -0.05 31.91 0.175 7.72 44.1 14.43
2/4/2021 3:30:00 PM -0.04 31.928 0.173 7.72 42.62 14.5
2/4/2021 3:45:00 PM -0.04 31.928 0.173 7.73 44.18 14.51
2/4/2021 4:00:00 PM -0.04 31.928 0.173 7.73 41.91 14.49
2/4/2021 4:15:00 PM -0.04 31.928 0.174 7.74 43.4 14.47
2/4/2021 4:30:00 PM -0.04 31.928 0.173 7.74 42.36 14.54
2/4/2021 4:45:00 PM -0.04 31.928 0.173 7.74 41.9 14.5
2/4/2021 5:00:00 PM -0.04 31.928 0.171 7.75 42.73 14.55
2/4/2021 5:15:00 PM -0.04 31.928 0.172 7.75 43.66 14.54
2/4/2021 5:30:00 PM -0.04 31.928 0.172 7.75 43.51 14.57
2/4/2021 5:45:00 PM -0.05 31.91 0.171 7.75 45.7 14.55
2/4/2021 6:00:00 PM -0.05 31.91 0.169 7.75 45.93 14.51
2/4/2021 6:15:00 PM -0.05 31.91 0.168 7.75 45.82 14.53
2/4/2021 6:30:00 PM -0.05 31.91 0.17 7.75 43.23 14.53
2/4/2021 6:45:00 PM -0.05 31.91 0.168 7.75 47.21 14.55
2/4/2021 7:00:00 PM -0.05 31.91 0.17 7.74 46.53 14.52
2/4/2021 7:15:00 PM -0.05 31.91 0.17 7.74 44.57 14.48
2/4/2021 7:30:00 PM -0.06 31.892 0.169 7.74 42.9 14.53
2/4/2021 7:45:00 PM -0.06 31.892 0.169 7.73 42.51 14.54
2/4/2021 8:00:00 PM -0.06 31.892 0.17 7.73 43.59 14.52
2/4/2021 8:15:00 PM -0.06 31.892 0.17 7.73 42.37 14.5
2/4/2021 8:30:00 PM -0.06 31.892 0.17 7.73 42.25 14.49
2/4/2021 8:45:00 PM -0.06 31.892 0.169 7.72 42.7 14.47
2/4/2021 9:00:00 PM -0.06 31.892 0.17 7.72 44.16 14.45
2/4/2021 9:15:00 PM -0.06 31.892 0.169 7.71 42.34 14.45
2/4/2021 9:30:00 PM -0.06 31.892 0.169 7.71 44.12 14.43
2/4/2021 9:45:00 PM -0.06 31.892 0.171 7.7 42.98 14.42
2/4/2021 10:00:00 PM -0.06 31.892 0.171 7.7 42.66 14.42
2/4/2021 10:15:00 PM -0.06 31.892 0.171 7.7 45.21 14.39
2/4/2021 10:30:00 PM -0.06 31.892 0.172 7.69 42.16 14.4
2/4/2021 10:45:00 PM -0.06 31.892 0.172 7.69 42.04 14.4
2/4/2021 11:00:00 PM -0.06 31.892 0.174 7.69 42.08 14.38
2/4/2021 11:15:00 PM -0.06 31.892 0.175 7.69 41.96 14.37
2/4/2021 11:30:00 PM -0.06 31.892 0.179 7.68 42.06 14.35
2/4/2021 11:45:00 PM -0.06 31.892 0.183 7.68 41.97 14.31
2/5/2021 12:00:00 AM -0.06 31.892 0.195 7.68 42.14 14.17
2/5/2021 12:15:00 AM -0.06 31.892 0.203 7.68 42.23 14.25
2/5/2021 12:30:00 AM -0.06 31.892 0.21 7.68 42.15 14.31
2/5/2021 12:45:00 AM -0.06 31.892 0.219 7.68 42.18 14.29
2/5/2021 1:00:00 AM -0.06 31.892 0.218 7.68 42.67 14.31
2/5/2021 1:15:00 AM -0.06 31.892 0.215 7.67 42.01 14.3
2/5/2021 1:30:00 AM -0.06 31.892 0.218 7.67 43.25 14.27
2/5/2021 1:45:00 AM -0.06 31.892 0.22 7.67 42.6 14.26
2/5/2021 2:00:00 AM -0.06 31.892 0.222 7.67 41.93 14.24
2/5/2021 2:15:00 AM -0.06 31.892 0.222 7.67 42.81 14.19
2/5/2021 2:30:00 AM -0.06 31.892 0.222 7.67 41.41 14.19
2/5/2021 2:45:00 AM -0.06 31.892 0.217 7.66 41.52 14.16
2/5/2021 3:00:00 AM -0.06 31.892 0.228 7.67 41.56 14.17
2/5/2021 3:15:00 AM -0.06 31.892 0.231 7.66 41.59 14.16
2/5/2021 3:30:00 AM -0.06 31.892 0.232 7.66 42.1 14.15
2/5/2021 3:45:00 AM -0.06 31.892 0.222 7.66 42.07 14.14
2/5/2021 4:00:00 AM -0.06 31.892 0.229 7.66 42.47 14.08
2/5/2021 4:15:00 AM -0.06 31.892 0.218 7.66 41.97 14.12
2/5/2021 4:30:00 AM -0.06 31.892 0.222 7.65 42.76 14.13
2/5/2021 4:45:00 AM -0.06 31.892 0.209 7.65 42.25 14.12
2/5/2021 5:00:00 AM -0.06 31.892 0.207 7.65 42.01 14.06
2/5/2021 5:15:00 AM -0.06 31.892 0.205 7.65 42.07 14.03
2/5/2021 5:30:00 AM -0.06 31.892 0.2 7.65 41.89 13.98
2/5/2021 5:45:00 AM -0.06 31.892 0.209 7.64 42.18 14.06
2/5/2021 6:00:00 AM -0.06 31.892 0.223 7.64 41.66 13.99
2/5/2021 6:15:00 AM -0.06 31.892 0.222 7.64 41.91 14
2/5/2021 6:30:00 AM -0.06 31.892 0.227 7.64 42.1 14.06
2/5/2021 6:45:00 AM -0.06 31.892 0.205 7.64 51.4 14.04
2/5/2021 7:00:00 AM -0.06 31.892 0.202 7.64 43.11 14.02
2/5/2021 7:15:00 AM -0.06 31.892 0.228 7.63 43.21 14.01
2/5/2021 7:30:00 AM -0.06 31.892 0.21 7.63 42.37 14
2/5/2021 7:45:00 AM -0.06 31.892 0.209 7.63 42.09 13.98
2/5/2021 8:00:00 AM -0.06 31.892 0.21 7.63 42.45 13.96
2/5/2021 8:15:00 AM -0.06 31.892 0.208 7.61 42.12 13.96
2/5/2021 8:30:00 AM -0.06 31.892 0.228 7.62 42.23 13.95
2/5/2021 8:45:00 AM -0.05 31.91 0.239 7.62 42.16 13.92
2/5/2021 9:00:00 AM -0.05 31.91 0.221 7.62 42.56 13.88